<?xml version="1.0" encoding="UTF-8" standalone="no" ?>
<gpx xmlns="http://www.topografix.com/GPX/1/1" xmlns:xsi="http://www.w3.org/2001/XMLSchema-instance" xsi:schemaLocation="http://www.topografix.com/GPX/1/1 http://www.topografix.com/GPX/1/1/gpx.xsd" version="1.1" creator="VisuGPX - https://www.visugpx.com">
  <metadata>
    <name>une petite ballade</name>
    <desc><![CDATA[petite ballade]]></desc>
  </metadata>
  <trk>
    <name><![CDATA[ACTIVE LOG-1-MNT]]></name>
    <trkseg>
      <trkpt lat="45.66751" lon="3.15664">
        <ele>367</ele>
        <time>2012-01-25T15:10:05Z</time>
      </trkpt>
      <trkpt lat="45.66747" lon="3.15652">
        <ele>367</ele>
        <time>2012-01-25T15:10:10Z</time>
      </trkpt>
      <trkpt lat="45.66741" lon="3.15638">
        <ele>367</ele>
        <time>2012-01-25T15:10:15Z</time>
      </trkpt>
      <trkpt lat="45.66733" lon="3.15622">
        <ele>366</ele>
        <time>2012-01-25T15:10:55Z</time>
      </trkpt>
      <trkpt lat="45.66729" lon="3.1561">
        <ele>366</ele>
        <time>2012-01-25T15:10:59Z</time>
      </trkpt>
      <trkpt lat="45.66726" lon="3.15596">
        <ele>366</ele>
        <time>2012-01-25T15:11:02Z</time>
      </trkpt>
      <trkpt lat="45.66721" lon="3.15576">
        <ele>367</ele>
        <time>2012-01-25T15:11:04Z</time>
      </trkpt>
      <trkpt lat="45.66717" lon="3.15554">
        <ele>367</ele>
        <time>2012-01-25T15:11:06Z</time>
      </trkpt>
      <trkpt lat="45.66715" lon="3.15533">
        <ele>367</ele>
        <time>2012-01-25T15:11:08Z</time>
      </trkpt>
      <trkpt lat="45.66712" lon="3.15511">
        <ele>367</ele>
        <time>2012-01-25T15:11:10Z</time>
      </trkpt>
      <trkpt lat="45.6671" lon="3.1549">
        <ele>368</ele>
        <time>2012-01-25T15:11:12Z</time>
      </trkpt>
      <trkpt lat="45.66707" lon="3.15468">
        <ele>368</ele>
        <time>2012-01-25T15:11:14Z</time>
      </trkpt>
      <trkpt lat="45.66705" lon="3.15443">
        <ele>369</ele>
        <time>2012-01-25T15:11:16Z</time>
      </trkpt>
      <trkpt lat="45.66704" lon="3.15428">
        <ele>369</ele>
        <time>2012-01-25T15:11:17Z</time>
      </trkpt>
      <trkpt lat="45.66702" lon="3.15412">
        <ele>369</ele>
        <time>2012-01-25T15:11:18Z</time>
      </trkpt>
      <trkpt lat="45.667" lon="3.15397">
        <ele>369</ele>
        <time>2012-01-25T15:11:19Z</time>
      </trkpt>
      <trkpt lat="45.66698" lon="3.15381">
        <ele>369</ele>
        <time>2012-01-25T15:11:20Z</time>
      </trkpt>
      <trkpt lat="45.66697" lon="3.15366">
        <ele>369</ele>
        <time>2012-01-25T15:11:21Z</time>
      </trkpt>
      <trkpt lat="45.66697" lon="3.15351">
        <ele>370</ele>
        <time>2012-01-25T15:11:22Z</time>
      </trkpt>
      <trkpt lat="45.66696" lon="3.15337">
        <ele>370</ele>
        <time>2012-01-25T15:11:23Z</time>
      </trkpt>
      <trkpt lat="45.66695" lon="3.1531">
        <ele>370</ele>
        <time>2012-01-25T15:11:25Z</time>
      </trkpt>
      <trkpt lat="45.66694" lon="3.15296">
        <ele>370</ele>
        <time>2012-01-25T15:11:26Z</time>
      </trkpt>
      <trkpt lat="45.66694" lon="3.15283">
        <ele>370</ele>
        <time>2012-01-25T15:11:27Z</time>
      </trkpt>
      <trkpt lat="45.66693" lon="3.1527">
        <ele>370</ele>
        <time>2012-01-25T15:11:28Z</time>
      </trkpt>
      <trkpt lat="45.66692" lon="3.15243">
        <ele>370</ele>
        <time>2012-01-25T15:11:30Z</time>
      </trkpt>
      <trkpt lat="45.66691" lon="3.1523">
        <ele>370</ele>
        <time>2012-01-25T15:11:31Z</time>
      </trkpt>
      <trkpt lat="45.66688" lon="3.15205">
        <ele>370</ele>
        <time>2012-01-25T15:11:33Z</time>
      </trkpt>
      <trkpt lat="45.66686" lon="3.15181">
        <ele>370</ele>
        <time>2012-01-25T15:11:35Z</time>
      </trkpt>
      <trkpt lat="45.66684" lon="3.15157">
        <ele>370</ele>
        <time>2012-01-25T15:11:37Z</time>
      </trkpt>
      <trkpt lat="45.66683" lon="3.15135">
        <ele>370</ele>
        <time>2012-01-25T15:11:39Z</time>
      </trkpt>
      <trkpt lat="45.66684" lon="3.15113">
        <ele>371</ele>
        <time>2012-01-25T15:11:41Z</time>
      </trkpt>
      <trkpt lat="45.66683" lon="3.15092">
        <ele>371</ele>
        <time>2012-01-25T15:11:43Z</time>
      </trkpt>
      <trkpt lat="45.66683" lon="3.15072">
        <ele>370</ele>
        <time>2012-01-25T15:11:45Z</time>
      </trkpt>
      <trkpt lat="45.66685" lon="3.1505">
        <ele>370</ele>
        <time>2012-01-25T15:11:47Z</time>
      </trkpt>
      <trkpt lat="45.66686" lon="3.1503">
        <ele>370</ele>
        <time>2012-01-25T15:11:49Z</time>
      </trkpt>
      <trkpt lat="45.66686" lon="3.15007">
        <ele>370</ele>
        <time>2012-01-25T15:11:51Z</time>
      </trkpt>
      <trkpt lat="45.66686" lon="3.14984">
        <ele>370</ele>
        <time>2012-01-25T15:11:53Z</time>
      </trkpt>
      <trkpt lat="45.66687" lon="3.14961">
        <ele>370</ele>
        <time>2012-01-25T15:11:55Z</time>
      </trkpt>
      <trkpt lat="45.66689" lon="3.14941">
        <ele>371</ele>
        <time>2012-01-25T15:11:57Z</time>
      </trkpt>
      <trkpt lat="45.6669" lon="3.14924">
        <ele>371</ele>
        <time>2012-01-25T15:11:59Z</time>
      </trkpt>
      <trkpt lat="45.66692" lon="3.14909">
        <ele>371</ele>
        <time>2012-01-25T15:12:01Z</time>
      </trkpt>
      <trkpt lat="45.66693" lon="3.14889">
        <ele>371</ele>
        <time>2012-01-25T15:12:03Z</time>
      </trkpt>
      <trkpt lat="45.66693" lon="3.14871">
        <ele>371</ele>
        <time>2012-01-25T15:12:05Z</time>
      </trkpt>
      <trkpt lat="45.66693" lon="3.14857">
        <ele>371</ele>
        <time>2012-01-25T15:12:07Z</time>
      </trkpt>
      <trkpt lat="45.66693" lon="3.14838">
        <ele>371</ele>
        <time>2012-01-25T15:12:10Z</time>
      </trkpt>
      <trkpt lat="45.66692" lon="3.14822">
        <ele>371</ele>
        <time>2012-01-25T15:12:13Z</time>
      </trkpt>
      <trkpt lat="45.66693" lon="3.1481">
        <ele>371</ele>
        <time>2012-01-25T15:12:16Z</time>
      </trkpt>
      <trkpt lat="45.66693" lon="3.14794">
        <ele>371</ele>
        <time>2012-01-25T15:12:20Z</time>
      </trkpt>
      <trkpt lat="45.6669" lon="3.14777">
        <ele>371</ele>
        <time>2012-01-25T15:12:24Z</time>
      </trkpt>
      <trkpt lat="45.6669" lon="3.14758">
        <ele>371</ele>
        <time>2012-01-25T15:12:53Z</time>
      </trkpt>
      <trkpt lat="45.66701" lon="3.14759">
        <ele>372</ele>
        <time>2012-01-25T15:12:57Z</time>
      </trkpt>
      <trkpt lat="45.66707" lon="3.14742">
        <ele>372</ele>
        <time>2012-01-25T15:13:01Z</time>
      </trkpt>
      <trkpt lat="45.66708" lon="3.14724">
        <ele>373</ele>
        <time>2012-01-25T15:13:03Z</time>
      </trkpt>
      <trkpt lat="45.6672" lon="3.14673">
        <ele>374</ele>
        <time>2012-01-25T15:13:04Z</time>
      </trkpt>
      <trkpt lat="45.66781" lon="3.1455">
        <ele>379</ele>
        <time>2012-01-25T15:13:06Z</time>
      </trkpt>
      <trkpt lat="45.66814" lon="3.14427">
        <ele>380</ele>
        <time>2012-01-25T15:13:08Z</time>
      </trkpt>
      <trkpt lat="45.66826" lon="3.14321">
        <ele>378</ele>
        <time>2012-01-25T15:13:09Z</time>
      </trkpt>
      <trkpt lat="45.66824" lon="3.14196">
        <ele>379</ele>
        <time>2012-01-25T15:13:32Z</time>
      </trkpt>
      <trkpt lat="45.66828" lon="3.14137">
        <ele>380</ele>
        <time>2012-01-25T15:13:44Z</time>
      </trkpt>
      <trkpt lat="45.66758" lon="3.14128">
        <ele>378</ele>
        <time>2012-01-25T15:13:45Z</time>
      </trkpt>
      <trkpt lat="45.66731" lon="3.14129">
        <ele>377</ele>
        <time>2012-01-25T15:13:47Z</time>
      </trkpt>
      <trkpt lat="45.66717" lon="3.14129">
        <ele>377</ele>
        <time>2012-01-25T15:13:48Z</time>
      </trkpt>
      <trkpt lat="45.66703" lon="3.14128">
        <ele>377</ele>
        <time>2012-01-25T15:13:49Z</time>
      </trkpt>
      <trkpt lat="45.66688" lon="3.14127">
        <ele>376</ele>
        <time>2012-01-25T15:13:50Z</time>
      </trkpt>
      <trkpt lat="45.66674" lon="3.14124">
        <ele>376</ele>
        <time>2012-01-25T15:13:51Z</time>
      </trkpt>
      <trkpt lat="45.66661" lon="3.1412">
        <ele>376</ele>
        <time>2012-01-25T15:13:52Z</time>
      </trkpt>
      <trkpt lat="45.66647" lon="3.14115">
        <ele>376</ele>
        <time>2012-01-25T15:13:53Z</time>
      </trkpt>
      <trkpt lat="45.66633" lon="3.14111">
        <ele>375</ele>
        <time>2012-01-25T15:13:54Z</time>
      </trkpt>
      <trkpt lat="45.66618" lon="3.14108">
        <ele>375</ele>
        <time>2012-01-25T15:13:55Z</time>
      </trkpt>
      <trkpt lat="45.66602" lon="3.14105">
        <ele>375</ele>
        <time>2012-01-25T15:13:56Z</time>
      </trkpt>
      <trkpt lat="45.66585" lon="3.14103">
        <ele>374</ele>
        <time>2012-01-25T15:13:57Z</time>
      </trkpt>
      <trkpt lat="45.6657" lon="3.141">
        <ele>374</ele>
        <time>2012-01-25T15:13:58Z</time>
      </trkpt>
      <trkpt lat="45.66556" lon="3.14098">
        <ele>374</ele>
        <time>2012-01-25T15:13:59Z</time>
      </trkpt>
      <trkpt lat="45.66544" lon="3.14096">
        <ele>373</ele>
        <time>2012-01-25T15:14:00Z</time>
      </trkpt>
      <trkpt lat="45.66533" lon="3.14094">
        <ele>373</ele>
        <time>2012-01-25T15:14:01Z</time>
      </trkpt>
      <trkpt lat="45.66533" lon="3.14097">
        <ele>373</ele>
        <time>2012-01-25T15:14:46Z</time>
      </trkpt>
      <trkpt lat="45.66529" lon="3.1409">
        <ele>373</ele>
        <time>2012-01-25T15:14:52Z</time>
      </trkpt>
      <trkpt lat="45.66535" lon="3.14072">
        <ele>373</ele>
        <time>2012-01-25T15:14:55Z</time>
      </trkpt>
      <trkpt lat="45.66543" lon="3.14058">
        <ele>374</ele>
        <time>2012-01-25T15:14:57Z</time>
      </trkpt>
      <trkpt lat="45.66545" lon="3.1404">
        <ele>374</ele>
        <time>2012-01-25T15:14:59Z</time>
      </trkpt>
      <trkpt lat="45.66544" lon="3.14021">
        <ele>374</ele>
        <time>2012-01-25T15:15:01Z</time>
      </trkpt>
      <trkpt lat="45.66548" lon="3.13999">
        <ele>374</ele>
        <time>2012-01-25T15:15:03Z</time>
      </trkpt>
      <trkpt lat="45.66553" lon="3.13976">
        <ele>375</ele>
        <time>2012-01-25T15:15:05Z</time>
      </trkpt>
      <trkpt lat="45.66558" lon="3.13955">
        <ele>375</ele>
        <time>2012-01-25T15:15:07Z</time>
      </trkpt>
      <trkpt lat="45.66564" lon="3.13938">
        <ele>375</ele>
        <time>2012-01-25T15:15:09Z</time>
      </trkpt>
      <trkpt lat="45.66569" lon="3.13924">
        <ele>375</ele>
        <time>2012-01-25T15:15:11Z</time>
      </trkpt>
      <trkpt lat="45.66574" lon="3.13915">
        <ele>376</ele>
        <time>2012-01-25T15:15:15Z</time>
      </trkpt>
      <trkpt lat="45.66576" lon="3.13898">
        <ele>376</ele>
        <time>2012-01-25T15:15:40Z</time>
      </trkpt>
      <trkpt lat="45.66578" lon="3.13874">
        <ele>376</ele>
        <time>2012-01-25T15:15:42Z</time>
      </trkpt>
      <trkpt lat="45.6658" lon="3.13846">
        <ele>376</ele>
        <time>2012-01-25T15:15:44Z</time>
      </trkpt>
      <trkpt lat="45.66582" lon="3.13831">
        <ele>376</ele>
        <time>2012-01-25T15:15:45Z</time>
      </trkpt>
      <trkpt lat="45.66584" lon="3.13816">
        <ele>376</ele>
        <time>2012-01-25T15:15:46Z</time>
      </trkpt>
      <trkpt lat="45.66586" lon="3.13801">
        <ele>376</ele>
        <time>2012-01-25T15:15:47Z</time>
      </trkpt>
      <trkpt lat="45.66588" lon="3.13788">
        <ele>376</ele>
        <time>2012-01-25T15:15:48Z</time>
      </trkpt>
      <trkpt lat="45.66592" lon="3.13765">
        <ele>376</ele>
        <time>2012-01-25T15:15:50Z</time>
      </trkpt>
      <trkpt lat="45.66597" lon="3.13749">
        <ele>376</ele>
        <time>2012-01-25T15:15:52Z</time>
      </trkpt>
      <trkpt lat="45.66609" lon="3.13745">
        <ele>377</ele>
        <time>2012-01-25T15:15:54Z</time>
      </trkpt>
      <trkpt lat="45.66624" lon="3.13744">
        <ele>377</ele>
        <time>2012-01-25T15:15:56Z</time>
      </trkpt>
      <trkpt lat="45.66638" lon="3.13738">
        <ele>378</ele>
        <time>2012-01-25T15:15:58Z</time>
      </trkpt>
      <trkpt lat="45.66647" lon="3.13723">
        <ele>378</ele>
        <time>2012-01-25T15:16:00Z</time>
      </trkpt>
      <trkpt lat="45.66653" lon="3.13699">
        <ele>378</ele>
        <time>2012-01-25T15:16:02Z</time>
      </trkpt>
      <trkpt lat="45.66657" lon="3.13686">
        <ele>378</ele>
        <time>2012-01-25T15:16:03Z</time>
      </trkpt>
      <trkpt lat="45.66666" lon="3.13662">
        <ele>379</ele>
        <time>2012-01-25T15:16:05Z</time>
      </trkpt>
      <trkpt lat="45.6667" lon="3.1364">
        <ele>379</ele>
        <time>2012-01-25T15:16:07Z</time>
      </trkpt>
      <trkpt lat="45.66672" lon="3.13614">
        <ele>379</ele>
        <time>2012-01-25T15:16:09Z</time>
      </trkpt>
      <trkpt lat="45.66673" lon="3.136">
        <ele>379</ele>
        <time>2012-01-25T15:16:10Z</time>
      </trkpt>
      <trkpt lat="45.66675" lon="3.13585">
        <ele>379</ele>
        <time>2012-01-25T15:16:11Z</time>
      </trkpt>
      <trkpt lat="45.66677" lon="3.1357">
        <ele>380</ele>
        <time>2012-01-25T15:16:12Z</time>
      </trkpt>
      <trkpt lat="45.66679" lon="3.13555">
        <ele>380</ele>
        <time>2012-01-25T15:16:13Z</time>
      </trkpt>
      <trkpt lat="45.66682" lon="3.13541">
        <ele>380</ele>
        <time>2012-01-25T15:16:14Z</time>
      </trkpt>
      <trkpt lat="45.66684" lon="3.13527">
        <ele>380</ele>
        <time>2012-01-25T15:16:15Z</time>
      </trkpt>
      <trkpt lat="45.66686" lon="3.13513">
        <ele>380</ele>
        <time>2012-01-25T15:16:16Z</time>
      </trkpt>
      <trkpt lat="45.66688" lon="3.135">
        <ele>380</ele>
        <time>2012-01-25T15:16:17Z</time>
      </trkpt>
      <trkpt lat="45.6669" lon="3.13487">
        <ele>380</ele>
        <time>2012-01-25T15:16:18Z</time>
      </trkpt>
      <trkpt lat="45.66693" lon="3.13465">
        <ele>381</ele>
        <time>2012-01-25T15:16:20Z</time>
      </trkpt>
      <trkpt lat="45.66693" lon="3.13445">
        <ele>381</ele>
        <time>2012-01-25T15:16:22Z</time>
      </trkpt>
      <trkpt lat="45.66688" lon="3.13428">
        <ele>381</ele>
        <time>2012-01-25T15:16:24Z</time>
      </trkpt>
      <trkpt lat="45.66682" lon="3.13409">
        <ele>381</ele>
        <time>2012-01-25T15:16:26Z</time>
      </trkpt>
      <trkpt lat="45.66679" lon="3.13389">
        <ele>381</ele>
        <time>2012-01-25T15:16:28Z</time>
      </trkpt>
      <trkpt lat="45.66681" lon="3.13368">
        <ele>381</ele>
        <time>2012-01-25T15:16:30Z</time>
      </trkpt>
      <trkpt lat="45.66687" lon="3.13349">
        <ele>381</ele>
        <time>2012-01-25T15:16:32Z</time>
      </trkpt>
      <trkpt lat="45.66696" lon="3.13332">
        <ele>382</ele>
        <time>2012-01-25T15:16:34Z</time>
      </trkpt>
      <trkpt lat="45.66708" lon="3.13319">
        <ele>382</ele>
        <time>2012-01-25T15:16:36Z</time>
      </trkpt>
      <trkpt lat="45.66716" lon="3.13297">
        <ele>383</ele>
        <time>2012-01-25T15:16:38Z</time>
      </trkpt>
      <trkpt lat="45.66722" lon="3.13273">
        <ele>383</ele>
        <time>2012-01-25T15:16:40Z</time>
      </trkpt>
      <trkpt lat="45.66728" lon="3.13254">
        <ele>384</ele>
        <time>2012-01-25T15:16:42Z</time>
      </trkpt>
      <trkpt lat="45.66739" lon="3.13244">
        <ele>384</ele>
        <time>2012-01-25T15:16:44Z</time>
      </trkpt>
      <trkpt lat="45.66755" lon="3.13245">
        <ele>384</ele>
        <time>2012-01-25T15:16:46Z</time>
      </trkpt>
      <trkpt lat="45.66768" lon="3.13243">
        <ele>385</ele>
        <time>2012-01-25T15:16:48Z</time>
      </trkpt>
      <trkpt lat="45.66778" lon="3.13235">
        <ele>385</ele>
        <time>2012-01-25T15:16:50Z</time>
      </trkpt>
      <trkpt lat="45.66784" lon="3.13217">
        <ele>385</ele>
        <time>2012-01-25T15:16:52Z</time>
      </trkpt>
      <trkpt lat="45.66787" lon="3.13196">
        <ele>385</ele>
        <time>2012-01-25T15:16:54Z</time>
      </trkpt>
      <trkpt lat="45.66791" lon="3.13171">
        <ele>386</ele>
        <time>2012-01-25T15:16:56Z</time>
      </trkpt>
      <trkpt lat="45.66794" lon="3.13148">
        <ele>386</ele>
        <time>2012-01-25T15:16:58Z</time>
      </trkpt>
      <trkpt lat="45.66797" lon="3.13131">
        <ele>386</ele>
        <time>2012-01-25T15:17:00Z</time>
      </trkpt>
      <trkpt lat="45.6679" lon="3.13115">
        <ele>386</ele>
        <time>2012-01-25T15:17:03Z</time>
      </trkpt>
      <trkpt lat="45.66776" lon="3.13112">
        <ele>386</ele>
        <time>2012-01-25T15:17:05Z</time>
      </trkpt>
      <trkpt lat="45.66767" lon="3.13112">
        <ele>385</ele>
        <time>2012-01-25T15:17:06Z</time>
      </trkpt>
      <trkpt lat="45.66757" lon="3.13111">
        <ele>385</ele>
        <time>2012-01-25T15:17:07Z</time>
      </trkpt>
      <trkpt lat="45.66745" lon="3.13108">
        <ele>385</ele>
        <time>2012-01-25T15:17:08Z</time>
      </trkpt>
      <trkpt lat="45.66733" lon="3.13103">
        <ele>384</ele>
        <time>2012-01-25T15:17:09Z</time>
      </trkpt>
      <trkpt lat="45.66721" lon="3.13096">
        <ele>384</ele>
        <time>2012-01-25T15:17:10Z</time>
      </trkpt>
      <trkpt lat="45.6671" lon="3.1309">
        <ele>384</ele>
        <time>2012-01-25T15:17:11Z</time>
      </trkpt>
      <trkpt lat="45.66698" lon="3.13084">
        <ele>383</ele>
        <time>2012-01-25T15:17:12Z</time>
      </trkpt>
      <trkpt lat="45.66686" lon="3.1308">
        <ele>383</ele>
        <time>2012-01-25T15:17:13Z</time>
      </trkpt>
      <trkpt lat="45.66675" lon="3.13077">
        <ele>383</ele>
        <time>2012-01-25T15:17:14Z</time>
      </trkpt>
      <trkpt lat="45.66666" lon="3.13075">
        <ele>382</ele>
        <time>2012-01-25T15:17:15Z</time>
      </trkpt>
      <trkpt lat="45.66651" lon="3.13073">
        <ele>382</ele>
        <time>2012-01-25T15:17:17Z</time>
      </trkpt>
      <trkpt lat="45.66637" lon="3.13072">
        <ele>382</ele>
        <time>2012-01-25T15:17:19Z</time>
      </trkpt>
      <trkpt lat="45.66621" lon="3.13069">
        <ele>382</ele>
        <time>2012-01-25T15:17:21Z</time>
      </trkpt>
      <trkpt lat="45.66603" lon="3.13063">
        <ele>382</ele>
        <time>2012-01-25T15:17:23Z</time>
      </trkpt>
      <trkpt lat="45.66586" lon="3.13047">
        <ele>382</ele>
        <time>2012-01-25T15:17:25Z</time>
      </trkpt>
      <trkpt lat="45.66577" lon="3.13037">
        <ele>382</ele>
        <time>2012-01-25T15:17:26Z</time>
      </trkpt>
      <trkpt lat="45.66569" lon="3.1303">
        <ele>382</ele>
        <time>2012-01-25T15:17:27Z</time>
      </trkpt>
      <trkpt lat="45.6656" lon="3.13021">
        <ele>382</ele>
        <time>2012-01-25T15:17:29Z</time>
      </trkpt>
      <trkpt lat="45.66553" lon="3.13014">
        <ele>383</ele>
        <time>2012-01-25T15:17:33Z</time>
      </trkpt>
      <trkpt lat="45.66554" lon="3.12997">
        <ele>383</ele>
        <time>2012-01-25T15:17:36Z</time>
      </trkpt>
      <trkpt lat="45.66562" lon="3.12982">
        <ele>383</ele>
        <time>2012-01-25T15:17:38Z</time>
      </trkpt>
      <trkpt lat="45.66576" lon="3.12965">
        <ele>384</ele>
        <time>2012-01-25T15:17:40Z</time>
      </trkpt>
      <trkpt lat="45.66584" lon="3.12956">
        <ele>384</ele>
        <time>2012-01-25T15:17:41Z</time>
      </trkpt>
      <trkpt lat="45.66596" lon="3.12937">
        <ele>384</ele>
        <time>2012-01-25T15:17:43Z</time>
      </trkpt>
      <trkpt lat="45.66607" lon="3.12915">
        <ele>384</ele>
        <time>2012-01-25T15:17:45Z</time>
      </trkpt>
      <trkpt lat="45.66613" lon="3.129">
        <ele>384</ele>
        <time>2012-01-25T15:17:47Z</time>
      </trkpt>
      <trkpt lat="45.66618" lon="3.12887">
        <ele>385</ele>
        <time>2012-01-25T15:17:49Z</time>
      </trkpt>
      <trkpt lat="45.66624" lon="3.1287">
        <ele>385</ele>
        <time>2012-01-25T15:17:51Z</time>
      </trkpt>
      <trkpt lat="45.66628" lon="3.12845">
        <ele>385</ele>
        <time>2012-01-25T15:17:53Z</time>
      </trkpt>
      <trkpt lat="45.66631" lon="3.12816">
        <ele>386</ele>
        <time>2012-01-25T15:17:55Z</time>
      </trkpt>
      <trkpt lat="45.66633" lon="3.12801">
        <ele>386</ele>
        <time>2012-01-25T15:17:56Z</time>
      </trkpt>
      <trkpt lat="45.66635" lon="3.12784">
        <ele>386</ele>
        <time>2012-01-25T15:17:57Z</time>
      </trkpt>
      <trkpt lat="45.66637" lon="3.12768">
        <ele>386</ele>
        <time>2012-01-25T15:17:58Z</time>
      </trkpt>
      <trkpt lat="45.66639" lon="3.12751">
        <ele>387</ele>
        <time>2012-01-25T15:17:59Z</time>
      </trkpt>
      <trkpt lat="45.66642" lon="3.12734">
        <ele>387</ele>
        <time>2012-01-25T15:18:00Z</time>
      </trkpt>
      <trkpt lat="45.66644" lon="3.12717">
        <ele>387</ele>
        <time>2012-01-25T15:18:01Z</time>
      </trkpt>
      <trkpt lat="45.66646" lon="3.12698">
        <ele>388</ele>
        <time>2012-01-25T15:18:02Z</time>
      </trkpt>
      <trkpt lat="45.66649" lon="3.1268">
        <ele>389</ele>
        <time>2012-01-25T15:18:03Z</time>
      </trkpt>
      <trkpt lat="45.66651" lon="3.1266">
        <ele>389</ele>
        <time>2012-01-25T15:18:04Z</time>
      </trkpt>
      <trkpt lat="45.66653" lon="3.12641">
        <ele>389</ele>
        <time>2012-01-25T15:18:05Z</time>
      </trkpt>
      <trkpt lat="45.66656" lon="3.12621">
        <ele>390</ele>
        <time>2012-01-25T15:18:06Z</time>
      </trkpt>
      <trkpt lat="45.66658" lon="3.12601">
        <ele>390</ele>
        <time>2012-01-25T15:18:07Z</time>
      </trkpt>
      <trkpt lat="45.66661" lon="3.12581">
        <ele>391</ele>
        <time>2012-01-25T15:18:08Z</time>
      </trkpt>
      <trkpt lat="45.66663" lon="3.12563">
        <ele>391</ele>
        <time>2012-01-25T15:18:09Z</time>
      </trkpt>
      <trkpt lat="45.66665" lon="3.12546">
        <ele>392</ele>
        <time>2012-01-25T15:18:10Z</time>
      </trkpt>
      <trkpt lat="45.66667" lon="3.12532">
        <ele>392</ele>
        <time>2012-01-25T15:18:11Z</time>
      </trkpt>
      <trkpt lat="45.6667" lon="3.12511">
        <ele>393</ele>
        <time>2012-01-25T15:18:13Z</time>
      </trkpt>
      <trkpt lat="45.66671" lon="3.12497">
        <ele>393</ele>
        <time>2012-01-25T15:18:16Z</time>
      </trkpt>
      <trkpt lat="45.66659" lon="3.12493">
        <ele>393</ele>
        <time>2012-01-25T15:18:21Z</time>
      </trkpt>
      <trkpt lat="45.66645" lon="3.12497">
        <ele>393</ele>
        <time>2012-01-25T15:18:23Z</time>
      </trkpt>
      <trkpt lat="45.66626" lon="3.12503">
        <ele>393</ele>
        <time>2012-01-25T15:18:25Z</time>
      </trkpt>
      <trkpt lat="45.66615" lon="3.12507">
        <ele>393</ele>
        <time>2012-01-25T15:18:26Z</time>
      </trkpt>
      <trkpt lat="45.66602" lon="3.12512">
        <ele>393</ele>
        <time>2012-01-25T15:18:27Z</time>
      </trkpt>
      <trkpt lat="45.66587" lon="3.12517">
        <ele>393</ele>
        <time>2012-01-25T15:18:28Z</time>
      </trkpt>
      <trkpt lat="45.66574" lon="3.12522">
        <ele>393</ele>
        <time>2012-01-25T15:18:29Z</time>
      </trkpt>
      <trkpt lat="45.66562" lon="3.12526">
        <ele>393</ele>
        <time>2012-01-25T15:18:30Z</time>
      </trkpt>
      <trkpt lat="45.6655" lon="3.1253">
        <ele>393</ele>
        <time>2012-01-25T15:18:31Z</time>
      </trkpt>
      <trkpt lat="45.66542" lon="3.12532">
        <ele>393</ele>
        <time>2012-01-25T15:18:32Z</time>
      </trkpt>
      <trkpt lat="45.6653" lon="3.12537">
        <ele>392</ele>
        <time>2012-01-25T15:18:34Z</time>
      </trkpt>
      <trkpt lat="45.66521" lon="3.1254">
        <ele>392</ele>
        <time>2012-01-25T15:18:36Z</time>
      </trkpt>
      <trkpt lat="45.66516" lon="3.12543">
        <ele>392</ele>
        <time>2012-01-25T15:19:02Z</time>
      </trkpt>
      <trkpt lat="45.66506" lon="3.12528">
        <ele>393</ele>
        <time>2012-01-25T15:19:07Z</time>
      </trkpt>
      <trkpt lat="45.66496" lon="3.1252">
        <ele>394</ele>
        <time>2012-01-25T15:19:09Z</time>
      </trkpt>
      <trkpt lat="45.66485" lon="3.12516">
        <ele>395</ele>
        <time>2012-01-25T15:19:11Z</time>
      </trkpt>
      <trkpt lat="45.66473" lon="3.12516">
        <ele>395</ele>
        <time>2012-01-25T15:19:13Z</time>
      </trkpt>
      <trkpt lat="45.66462" lon="3.12522">
        <ele>396</ele>
        <time>2012-01-25T15:19:15Z</time>
      </trkpt>
      <trkpt lat="45.66448" lon="3.1253">
        <ele>397</ele>
        <time>2012-01-25T15:19:17Z</time>
      </trkpt>
      <trkpt lat="45.66432" lon="3.12539">
        <ele>398</ele>
        <time>2012-01-25T15:19:19Z</time>
      </trkpt>
      <trkpt lat="45.66416" lon="3.1255">
        <ele>399</ele>
        <time>2012-01-25T15:19:21Z</time>
      </trkpt>
      <trkpt lat="45.66402" lon="3.12565">
        <ele>399</ele>
        <time>2012-01-25T15:19:23Z</time>
      </trkpt>
      <trkpt lat="45.66388" lon="3.12578">
        <ele>400</ele>
        <time>2012-01-25T15:19:25Z</time>
      </trkpt>
      <trkpt lat="45.66372" lon="3.12586">
        <ele>401</ele>
        <time>2012-01-25T15:19:27Z</time>
      </trkpt>
      <trkpt lat="45.66354" lon="3.1259">
        <ele>403</ele>
        <time>2012-01-25T15:19:29Z</time>
      </trkpt>
      <trkpt lat="45.66345" lon="3.12591">
        <ele>404</ele>
        <time>2012-01-25T15:19:30Z</time>
      </trkpt>
      <trkpt lat="45.66336" lon="3.12592">
        <ele>405</ele>
        <time>2012-01-25T15:19:31Z</time>
      </trkpt>
      <trkpt lat="45.66318" lon="3.12596">
        <ele>407</ele>
        <time>2012-01-25T15:19:33Z</time>
      </trkpt>
      <trkpt lat="45.66301" lon="3.12602">
        <ele>409</ele>
        <time>2012-01-25T15:19:35Z</time>
      </trkpt>
      <trkpt lat="45.66292" lon="3.12605">
        <ele>410</ele>
        <time>2012-01-25T15:19:36Z</time>
      </trkpt>
      <trkpt lat="45.66277" lon="3.12613">
        <ele>412</ele>
        <time>2012-01-25T15:19:38Z</time>
      </trkpt>
      <trkpt lat="45.66263" lon="3.12619">
        <ele>414</ele>
        <time>2012-01-25T15:19:40Z</time>
      </trkpt>
      <trkpt lat="45.66249" lon="3.12622">
        <ele>416</ele>
        <time>2012-01-25T15:19:42Z</time>
      </trkpt>
      <trkpt lat="45.66234" lon="3.12626">
        <ele>418</ele>
        <time>2012-01-25T15:19:44Z</time>
      </trkpt>
      <trkpt lat="45.6622" lon="3.12635">
        <ele>420</ele>
        <time>2012-01-25T15:19:46Z</time>
      </trkpt>
      <trkpt lat="45.66205" lon="3.12645">
        <ele>421</ele>
        <time>2012-01-25T15:19:48Z</time>
      </trkpt>
      <trkpt lat="45.66189" lon="3.12657">
        <ele>422</ele>
        <time>2012-01-25T15:19:50Z</time>
      </trkpt>
      <trkpt lat="45.66181" lon="3.12663">
        <ele>422</ele>
        <time>2012-01-25T15:19:51Z</time>
      </trkpt>
      <trkpt lat="45.66172" lon="3.12669">
        <ele>422</ele>
        <time>2012-01-25T15:19:52Z</time>
      </trkpt>
      <trkpt lat="45.66163" lon="3.12675">
        <ele>422</ele>
        <time>2012-01-25T15:19:53Z</time>
      </trkpt>
      <trkpt lat="45.66153" lon="3.12681">
        <ele>423</ele>
        <time>2012-01-25T15:19:54Z</time>
      </trkpt>
      <trkpt lat="45.66143" lon="3.12687">
        <ele>423</ele>
        <time>2012-01-25T15:19:55Z</time>
      </trkpt>
      <trkpt lat="45.66133" lon="3.12693">
        <ele>423</ele>
        <time>2012-01-25T15:19:56Z</time>
      </trkpt>
      <trkpt lat="45.66123" lon="3.12698">
        <ele>424</ele>
        <time>2012-01-25T15:19:57Z</time>
      </trkpt>
      <trkpt lat="45.66112" lon="3.12703">
        <ele>424</ele>
        <time>2012-01-25T15:19:58Z</time>
      </trkpt>
      <trkpt lat="45.66101" lon="3.12707">
        <ele>425</ele>
        <time>2012-01-25T15:19:59Z</time>
      </trkpt>
      <trkpt lat="45.66091" lon="3.12713">
        <ele>425</ele>
        <time>2012-01-25T15:20:00Z</time>
      </trkpt>
      <trkpt lat="45.66079" lon="3.12718">
        <ele>425</ele>
        <time>2012-01-25T15:20:01Z</time>
      </trkpt>
      <trkpt lat="45.66068" lon="3.12723">
        <ele>426</ele>
        <time>2012-01-25T15:20:02Z</time>
      </trkpt>
      <trkpt lat="45.66057" lon="3.12727">
        <ele>426</ele>
        <time>2012-01-25T15:20:03Z</time>
      </trkpt>
      <trkpt lat="45.66046" lon="3.12732">
        <ele>427</ele>
        <time>2012-01-25T15:20:04Z</time>
      </trkpt>
      <trkpt lat="45.66035" lon="3.12736">
        <ele>428</ele>
        <time>2012-01-25T15:20:05Z</time>
      </trkpt>
      <trkpt lat="45.66025" lon="3.1274">
        <ele>429</ele>
        <time>2012-01-25T15:20:06Z</time>
      </trkpt>
      <trkpt lat="45.66015" lon="3.12746">
        <ele>429</ele>
        <time>2012-01-25T15:20:07Z</time>
      </trkpt>
      <trkpt lat="45.66006" lon="3.12752">
        <ele>430</ele>
        <time>2012-01-25T15:20:08Z</time>
      </trkpt>
      <trkpt lat="45.65989" lon="3.12767">
        <ele>431</ele>
        <time>2012-01-25T15:20:10Z</time>
      </trkpt>
      <trkpt lat="45.65981" lon="3.12774">
        <ele>432</ele>
        <time>2012-01-25T15:20:11Z</time>
      </trkpt>
      <trkpt lat="45.65973" lon="3.12782">
        <ele>432</ele>
        <time>2012-01-25T15:20:12Z</time>
      </trkpt>
      <trkpt lat="45.65966" lon="3.12789">
        <ele>433</ele>
        <time>2012-01-25T15:20:13Z</time>
      </trkpt>
      <trkpt lat="45.6595" lon="3.12803">
        <ele>435</ele>
        <time>2012-01-25T15:20:15Z</time>
      </trkpt>
      <trkpt lat="45.65942" lon="3.12811">
        <ele>436</ele>
        <time>2012-01-25T15:20:16Z</time>
      </trkpt>
      <trkpt lat="45.65935" lon="3.12818">
        <ele>437</ele>
        <time>2012-01-25T15:20:17Z</time>
      </trkpt>
      <trkpt lat="45.65927" lon="3.12825">
        <ele>438</ele>
        <time>2012-01-25T15:20:18Z</time>
      </trkpt>
      <trkpt lat="45.65912" lon="3.12838">
        <ele>440</ele>
        <time>2012-01-25T15:20:20Z</time>
      </trkpt>
      <trkpt lat="45.65905" lon="3.12845">
        <ele>441</ele>
        <time>2012-01-25T15:20:21Z</time>
      </trkpt>
      <trkpt lat="45.6589" lon="3.12855">
        <ele>443</ele>
        <time>2012-01-25T15:20:23Z</time>
      </trkpt>
      <trkpt lat="45.65876" lon="3.12866">
        <ele>444</ele>
        <time>2012-01-25T15:20:25Z</time>
      </trkpt>
      <trkpt lat="45.65861" lon="3.12876">
        <ele>446</ele>
        <time>2012-01-25T15:20:27Z</time>
      </trkpt>
      <trkpt lat="45.65845" lon="3.12883">
        <ele>447</ele>
        <time>2012-01-25T15:20:29Z</time>
      </trkpt>
      <trkpt lat="45.6583" lon="3.12889">
        <ele>449</ele>
        <time>2012-01-25T15:20:31Z</time>
      </trkpt>
      <trkpt lat="45.65816" lon="3.12895">
        <ele>450</ele>
        <time>2012-01-25T15:20:33Z</time>
      </trkpt>
      <trkpt lat="45.65801" lon="3.12893">
        <ele>451</ele>
        <time>2012-01-25T15:20:35Z</time>
      </trkpt>
      <trkpt lat="45.65787" lon="3.12889">
        <ele>453</ele>
        <time>2012-01-25T15:20:37Z</time>
      </trkpt>
      <trkpt lat="45.6577" lon="3.12884">
        <ele>455</ele>
        <time>2012-01-25T15:20:39Z</time>
      </trkpt>
      <trkpt lat="45.6576" lon="3.12882">
        <ele>456</ele>
        <time>2012-01-25T15:20:40Z</time>
      </trkpt>
      <trkpt lat="45.65751" lon="3.1288">
        <ele>457</ele>
        <time>2012-01-25T15:20:41Z</time>
      </trkpt>
      <trkpt lat="45.65742" lon="3.12878">
        <ele>458</ele>
        <time>2012-01-25T15:20:42Z</time>
      </trkpt>
      <trkpt lat="45.65732" lon="3.12876">
        <ele>459</ele>
        <time>2012-01-25T15:20:43Z</time>
      </trkpt>
      <trkpt lat="45.65722" lon="3.12874">
        <ele>459</ele>
        <time>2012-01-25T15:20:44Z</time>
      </trkpt>
      <trkpt lat="45.65712" lon="3.12873">
        <ele>460</ele>
        <time>2012-01-25T15:20:45Z</time>
      </trkpt>
      <trkpt lat="45.65702" lon="3.12872">
        <ele>461</ele>
        <time>2012-01-25T15:20:46Z</time>
      </trkpt>
      <trkpt lat="45.65692" lon="3.12872">
        <ele>461</ele>
        <time>2012-01-25T15:20:47Z</time>
      </trkpt>
      <trkpt lat="45.65681" lon="3.12871">
        <ele>462</ele>
        <time>2012-01-25T15:20:48Z</time>
      </trkpt>
      <trkpt lat="45.6567" lon="3.1287">
        <ele>463</ele>
        <time>2012-01-25T15:20:49Z</time>
      </trkpt>
      <trkpt lat="45.6566" lon="3.12867">
        <ele>463</ele>
        <time>2012-01-25T15:20:50Z</time>
      </trkpt>
      <trkpt lat="45.6565" lon="3.12864">
        <ele>464</ele>
        <time>2012-01-25T15:20:51Z</time>
      </trkpt>
      <trkpt lat="45.65641" lon="3.12861">
        <ele>465</ele>
        <time>2012-01-25T15:20:52Z</time>
      </trkpt>
      <trkpt lat="45.65632" lon="3.12859">
        <ele>465</ele>
        <time>2012-01-25T15:20:53Z</time>
      </trkpt>
      <trkpt lat="45.65615" lon="3.12853">
        <ele>466</ele>
        <time>2012-01-25T15:20:55Z</time>
      </trkpt>
      <trkpt lat="45.65605" lon="3.1285">
        <ele>466</ele>
        <time>2012-01-25T15:20:56Z</time>
      </trkpt>
      <trkpt lat="45.65595" lon="3.12845">
        <ele>467</ele>
        <time>2012-01-25T15:20:57Z</time>
      </trkpt>
      <trkpt lat="45.65585" lon="3.12841">
        <ele>467</ele>
        <time>2012-01-25T15:20:58Z</time>
      </trkpt>
      <trkpt lat="45.65575" lon="3.12837">
        <ele>468</ele>
        <time>2012-01-25T15:20:59Z</time>
      </trkpt>
      <trkpt lat="45.65564" lon="3.12833">
        <ele>468</ele>
        <time>2012-01-25T15:21:00Z</time>
      </trkpt>
      <trkpt lat="45.65554" lon="3.12829">
        <ele>468</ele>
        <time>2012-01-25T15:21:01Z</time>
      </trkpt>
      <trkpt lat="45.65544" lon="3.12826">
        <ele>468</ele>
        <time>2012-01-25T15:21:02Z</time>
      </trkpt>
      <trkpt lat="45.65534" lon="3.12823">
        <ele>468</ele>
        <time>2012-01-25T15:21:03Z</time>
      </trkpt>
      <trkpt lat="45.65513" lon="3.12817">
        <ele>468</ele>
        <time>2012-01-25T15:21:05Z</time>
      </trkpt>
      <trkpt lat="45.65503" lon="3.12814">
        <ele>468</ele>
        <time>2012-01-25T15:21:06Z</time>
      </trkpt>
      <trkpt lat="45.65493" lon="3.12812">
        <ele>468</ele>
        <time>2012-01-25T15:21:07Z</time>
      </trkpt>
      <trkpt lat="45.65484" lon="3.12809">
        <ele>468</ele>
        <time>2012-01-25T15:21:08Z</time>
      </trkpt>
      <trkpt lat="45.65467" lon="3.12804">
        <ele>468</ele>
        <time>2012-01-25T15:21:10Z</time>
      </trkpt>
      <trkpt lat="45.65453" lon="3.12799">
        <ele>467</ele>
        <time>2012-01-25T15:21:12Z</time>
      </trkpt>
      <trkpt lat="45.65441" lon="3.12795">
        <ele>467</ele>
        <time>2012-01-25T15:21:14Z</time>
      </trkpt>
      <trkpt lat="45.65428" lon="3.12791">
        <ele>467</ele>
        <time>2012-01-25T15:21:16Z</time>
      </trkpt>
      <trkpt lat="45.65413" lon="3.12787">
        <ele>467</ele>
        <time>2012-01-25T15:21:18Z</time>
      </trkpt>
      <trkpt lat="45.65398" lon="3.12784">
        <ele>467</ele>
        <time>2012-01-25T15:21:20Z</time>
      </trkpt>
      <trkpt lat="45.65383" lon="3.12787">
        <ele>466</ele>
        <time>2012-01-25T15:21:22Z</time>
      </trkpt>
      <trkpt lat="45.65365" lon="3.12795">
        <ele>465</ele>
        <time>2012-01-25T15:21:24Z</time>
      </trkpt>
      <trkpt lat="45.65357" lon="3.128">
        <ele>464</ele>
        <time>2012-01-25T15:21:25Z</time>
      </trkpt>
      <trkpt lat="45.65343" lon="3.12805">
        <ele>463</ele>
        <time>2012-01-25T15:21:27Z</time>
      </trkpt>
      <trkpt lat="45.65334" lon="3.12803">
        <ele>463</ele>
        <time>2012-01-25T15:21:29Z</time>
      </trkpt>
      <trkpt lat="45.65329" lon="3.12793">
        <ele>463</ele>
        <time>2012-01-25T15:21:31Z</time>
      </trkpt>
      <trkpt lat="45.65322" lon="3.12779">
        <ele>465</ele>
        <time>2012-01-25T15:21:33Z</time>
      </trkpt>
      <trkpt lat="45.65315" lon="3.12762">
        <ele>466</ele>
        <time>2012-01-25T15:21:35Z</time>
      </trkpt>
      <trkpt lat="45.65306" lon="3.12743">
        <ele>467</ele>
        <time>2012-01-25T15:21:37Z</time>
      </trkpt>
      <trkpt lat="45.65293" lon="3.12723">
        <ele>469</ele>
        <time>2012-01-25T15:21:39Z</time>
      </trkpt>
      <trkpt lat="45.65286" lon="3.12714">
        <ele>469</ele>
        <time>2012-01-25T15:21:40Z</time>
      </trkpt>
      <trkpt lat="45.65275" lon="3.12699">
        <ele>468</ele>
        <time>2012-01-25T15:21:42Z</time>
      </trkpt>
      <trkpt lat="45.65269" lon="3.1269">
        <ele>468</ele>
        <time>2012-01-25T15:21:44Z</time>
      </trkpt>
      <trkpt lat="45.65263" lon="3.12682">
        <ele>468</ele>
        <time>2012-01-25T15:21:47Z</time>
      </trkpt>
      <trkpt lat="45.65252" lon="3.12686">
        <ele>466</ele>
        <time>2012-01-25T15:21:50Z</time>
      </trkpt>
      <trkpt lat="45.65242" lon="3.12696">
        <ele>464</ele>
        <time>2012-01-25T15:21:52Z</time>
      </trkpt>
      <trkpt lat="45.65228" lon="3.12707">
        <ele>462</ele>
        <time>2012-01-25T15:21:54Z</time>
      </trkpt>
      <trkpt lat="45.6521" lon="3.12719">
        <ele>458</ele>
        <time>2012-01-25T15:21:56Z</time>
      </trkpt>
      <trkpt lat="45.65201" lon="3.12725">
        <ele>457</ele>
        <time>2012-01-25T15:21:57Z</time>
      </trkpt>
      <trkpt lat="45.65191" lon="3.12731">
        <ele>455</ele>
        <time>2012-01-25T15:21:58Z</time>
      </trkpt>
      <trkpt lat="45.65181" lon="3.12736">
        <ele>454</ele>
        <time>2012-01-25T15:21:59Z</time>
      </trkpt>
      <trkpt lat="45.65171" lon="3.12742">
        <ele>452</ele>
        <time>2012-01-25T15:22:00Z</time>
      </trkpt>
      <trkpt lat="45.6516" lon="3.12748">
        <ele>451</ele>
        <time>2012-01-25T15:22:01Z</time>
      </trkpt>
      <trkpt lat="45.65149" lon="3.12753">
        <ele>449</ele>
        <time>2012-01-25T15:22:02Z</time>
      </trkpt>
      <trkpt lat="45.65138" lon="3.12758">
        <ele>448</ele>
        <time>2012-01-25T15:22:03Z</time>
      </trkpt>
      <trkpt lat="45.65128" lon="3.12764">
        <ele>447</ele>
        <time>2012-01-25T15:22:04Z</time>
      </trkpt>
      <trkpt lat="45.65118" lon="3.12769">
        <ele>446</ele>
        <time>2012-01-25T15:22:05Z</time>
      </trkpt>
      <trkpt lat="45.65109" lon="3.12773">
        <ele>445</ele>
        <time>2012-01-25T15:22:06Z</time>
      </trkpt>
      <trkpt lat="45.65094" lon="3.12781">
        <ele>444</ele>
        <time>2012-01-25T15:22:08Z</time>
      </trkpt>
      <trkpt lat="45.65082" lon="3.12785">
        <ele>443</ele>
        <time>2012-01-25T15:22:10Z</time>
      </trkpt>
      <trkpt lat="45.65075" lon="3.12789">
        <ele>442</ele>
        <time>2012-01-25T15:22:13Z</time>
      </trkpt>
      <trkpt lat="45.65061" lon="3.12795">
        <ele>441</ele>
        <time>2012-01-25T15:22:17Z</time>
      </trkpt>
      <trkpt lat="45.65044" lon="3.12798">
        <ele>440</ele>
        <time>2012-01-25T15:22:19Z</time>
      </trkpt>
      <trkpt lat="45.65024" lon="3.12798">
        <ele>439</ele>
        <time>2012-01-25T15:22:21Z</time>
      </trkpt>
      <trkpt lat="45.65013" lon="3.12798">
        <ele>438</ele>
        <time>2012-01-25T15:22:22Z</time>
      </trkpt>
      <trkpt lat="45.65001" lon="3.12798">
        <ele>437</ele>
        <time>2012-01-25T15:22:23Z</time>
      </trkpt>
      <trkpt lat="45.64989" lon="3.12798">
        <ele>437</ele>
        <time>2012-01-25T15:22:24Z</time>
      </trkpt>
      <trkpt lat="45.64978" lon="3.12798">
        <ele>436</ele>
        <time>2012-01-25T15:22:25Z</time>
      </trkpt>
      <trkpt lat="45.64969" lon="3.12797">
        <ele>436</ele>
        <time>2012-01-25T15:22:26Z</time>
      </trkpt>
      <trkpt lat="45.64958" lon="3.12794">
        <ele>436</ele>
        <time>2012-01-25T15:22:28Z</time>
      </trkpt>
      <trkpt lat="45.64958" lon="3.12799">
        <ele>436</ele>
        <time>2012-01-25T15:22:53Z</time>
      </trkpt>
      <trkpt lat="45.64944" lon="3.12807">
        <ele>434</ele>
        <time>2012-01-25T15:23:00Z</time>
      </trkpt>
      <trkpt lat="45.6493" lon="3.12817">
        <ele>434</ele>
        <time>2012-01-25T15:23:02Z</time>
      </trkpt>
      <trkpt lat="45.64913" lon="3.12831">
        <ele>433</ele>
        <time>2012-01-25T15:23:04Z</time>
      </trkpt>
      <trkpt lat="45.64903" lon="3.12839">
        <ele>432</ele>
        <time>2012-01-25T15:23:05Z</time>
      </trkpt>
      <trkpt lat="45.64893" lon="3.12848">
        <ele>431</ele>
        <time>2012-01-25T15:23:06Z</time>
      </trkpt>
      <trkpt lat="45.64882" lon="3.12857">
        <ele>431</ele>
        <time>2012-01-25T15:23:07Z</time>
      </trkpt>
      <trkpt lat="45.64872" lon="3.12866">
        <ele>430</ele>
        <time>2012-01-25T15:23:08Z</time>
      </trkpt>
      <trkpt lat="45.64862" lon="3.12874">
        <ele>429</ele>
        <time>2012-01-25T15:23:09Z</time>
      </trkpt>
      <trkpt lat="45.64854" lon="3.1288">
        <ele>429</ele>
        <time>2012-01-25T15:23:10Z</time>
      </trkpt>
      <trkpt lat="45.64844" lon="3.1289">
        <ele>428</ele>
        <time>2012-01-25T15:23:12Z</time>
      </trkpt>
      <trkpt lat="45.64836" lon="3.12896">
        <ele>428</ele>
        <time>2012-01-25T15:23:14Z</time>
      </trkpt>
      <trkpt lat="45.64827" lon="3.12904">
        <ele>428</ele>
        <time>2012-01-25T15:23:16Z</time>
      </trkpt>
      <trkpt lat="45.64816" lon="3.12914">
        <ele>428</ele>
        <time>2012-01-25T15:23:19Z</time>
      </trkpt>
      <trkpt lat="45.64806" lon="3.12923">
        <ele>427</ele>
        <time>2012-01-25T15:23:21Z</time>
      </trkpt>
      <trkpt lat="45.64796" lon="3.12946">
        <ele>426</ele>
        <time>2012-01-25T15:24:09Z</time>
      </trkpt>
      <trkpt lat="45.64796" lon="3.12959">
        <ele>425</ele>
        <time>2012-01-25T15:24:11Z</time>
      </trkpt>
      <trkpt lat="45.64798" lon="3.12973">
        <ele>424</ele>
        <time>2012-01-25T15:24:13Z</time>
      </trkpt>
      <trkpt lat="45.64799" lon="3.12989">
        <ele>423</ele>
        <time>2012-01-25T15:24:15Z</time>
      </trkpt>
      <trkpt lat="45.648" lon="3.13006">
        <ele>422</ele>
        <time>2012-01-25T15:24:17Z</time>
      </trkpt>
      <trkpt lat="45.648" lon="3.13026">
        <ele>420</ele>
        <time>2012-01-25T15:24:19Z</time>
      </trkpt>
      <trkpt lat="45.64801" lon="3.13048">
        <ele>419</ele>
        <time>2012-01-25T15:24:21Z</time>
      </trkpt>
      <trkpt lat="45.64803" lon="3.1307">
        <ele>418</ele>
        <time>2012-01-25T15:24:23Z</time>
      </trkpt>
      <trkpt lat="45.64804" lon="3.13092">
        <ele>417</ele>
        <time>2012-01-25T15:24:25Z</time>
      </trkpt>
      <trkpt lat="45.64805" lon="3.13114">
        <ele>416</ele>
        <time>2012-01-25T15:24:27Z</time>
      </trkpt>
      <trkpt lat="45.64805" lon="3.13136">
        <ele>416</ele>
        <time>2012-01-25T15:24:29Z</time>
      </trkpt>
      <trkpt lat="45.64805" lon="3.13157">
        <ele>415</ele>
        <time>2012-01-25T15:24:31Z</time>
      </trkpt>
      <trkpt lat="45.64808" lon="3.13176">
        <ele>414</ele>
        <time>2012-01-25T15:24:33Z</time>
      </trkpt>
      <trkpt lat="45.64812" lon="3.13196">
        <ele>414</ele>
        <time>2012-01-25T15:24:35Z</time>
      </trkpt>
      <trkpt lat="45.64815" lon="3.13219">
        <ele>413</ele>
        <time>2012-01-25T15:24:37Z</time>
      </trkpt>
      <trkpt lat="45.64816" lon="3.13243">
        <ele>412</ele>
        <time>2012-01-25T15:24:39Z</time>
      </trkpt>
      <trkpt lat="45.64816" lon="3.13268">
        <ele>411</ele>
        <time>2012-01-25T15:24:41Z</time>
      </trkpt>
      <trkpt lat="45.64816" lon="3.13294">
        <ele>410</ele>
        <time>2012-01-25T15:24:43Z</time>
      </trkpt>
      <trkpt lat="45.64817" lon="3.13322">
        <ele>409</ele>
        <time>2012-01-25T15:24:45Z</time>
      </trkpt>
      <trkpt lat="45.64818" lon="3.13336">
        <ele>409</ele>
        <time>2012-01-25T15:24:46Z</time>
      </trkpt>
      <trkpt lat="45.64818" lon="3.13351">
        <ele>409</ele>
        <time>2012-01-25T15:24:47Z</time>
      </trkpt>
      <trkpt lat="45.64818" lon="3.13366">
        <ele>408</ele>
        <time>2012-01-25T15:24:48Z</time>
      </trkpt>
      <trkpt lat="45.64818" lon="3.13381">
        <ele>408</ele>
        <time>2012-01-25T15:24:49Z</time>
      </trkpt>
      <trkpt lat="45.64819" lon="3.13396">
        <ele>407</ele>
        <time>2012-01-25T15:24:50Z</time>
      </trkpt>
      <trkpt lat="45.64819" lon="3.13411">
        <ele>407</ele>
        <time>2012-01-25T15:24:51Z</time>
      </trkpt>
      <trkpt lat="45.64819" lon="3.13425">
        <ele>406</ele>
        <time>2012-01-25T15:24:52Z</time>
      </trkpt>
      <trkpt lat="45.6482" lon="3.13439">
        <ele>406</ele>
        <time>2012-01-25T15:24:53Z</time>
      </trkpt>
      <trkpt lat="45.6482" lon="3.13453">
        <ele>406</ele>
        <time>2012-01-25T15:24:54Z</time>
      </trkpt>
      <trkpt lat="45.6482" lon="3.13468">
        <ele>405</ele>
        <time>2012-01-25T15:24:55Z</time>
      </trkpt>
      <trkpt lat="45.6482" lon="3.13482">
        <ele>405</ele>
        <time>2012-01-25T15:24:56Z</time>
      </trkpt>
      <trkpt lat="45.64821" lon="3.13496">
        <ele>404</ele>
        <time>2012-01-25T15:24:57Z</time>
      </trkpt>
      <trkpt lat="45.64821" lon="3.1351">
        <ele>404</ele>
        <time>2012-01-25T15:24:58Z</time>
      </trkpt>
      <trkpt lat="45.64822" lon="3.13538">
        <ele>403</ele>
        <time>2012-01-25T15:25:00Z</time>
      </trkpt>
      <trkpt lat="45.64822" lon="3.1355">
        <ele>403</ele>
        <time>2012-01-25T15:25:01Z</time>
      </trkpt>
      <trkpt lat="45.64823" lon="3.13572">
        <ele>402</ele>
        <time>2012-01-25T15:25:03Z</time>
      </trkpt>
      <trkpt lat="45.64823" lon="3.13586">
        <ele>402</ele>
        <time>2012-01-25T15:25:05Z</time>
      </trkpt>
      <trkpt lat="45.64818" lon="3.13596">
        <ele>402</ele>
        <time>2012-01-25T15:25:08Z</time>
      </trkpt>
      <trkpt lat="45.64799" lon="3.13595">
        <ele>401</ele>
        <time>2012-01-25T15:25:11Z</time>
      </trkpt>
      <trkpt lat="45.64788" lon="3.13593">
        <ele>401</ele>
        <time>2012-01-25T15:25:12Z</time>
      </trkpt>
      <trkpt lat="45.64776" lon="3.1359">
        <ele>400</ele>
        <time>2012-01-25T15:25:13Z</time>
      </trkpt>
      <trkpt lat="45.64763" lon="3.13588">
        <ele>400</ele>
        <time>2012-01-25T15:25:14Z</time>
      </trkpt>
      <trkpt lat="45.64749" lon="3.13585">
        <ele>399</ele>
        <time>2012-01-25T15:25:15Z</time>
      </trkpt>
      <trkpt lat="45.64734" lon="3.13583">
        <ele>399</ele>
        <time>2012-01-25T15:25:16Z</time>
      </trkpt>
      <trkpt lat="45.64715" lon="3.13575">
        <ele>399</ele>
        <time>2012-01-25T15:25:25Z</time>
      </trkpt>
      <trkpt lat="45.64725" lon="3.13576">
        <ele>399</ele>
        <time>2012-01-25T15:25:27Z</time>
      </trkpt>
      <trkpt lat="45.64718" lon="3.13578">
        <ele>399</ele>
        <time>2012-01-25T15:25:33Z</time>
      </trkpt>
      <trkpt lat="45.64712" lon="3.13593">
        <ele>398</ele>
        <time>2012-01-25T15:25:36Z</time>
      </trkpt>
      <trkpt lat="45.64705" lon="3.13612">
        <ele>398</ele>
        <time>2012-01-25T15:25:38Z</time>
      </trkpt>
      <trkpt lat="45.64697" lon="3.13636">
        <ele>397</ele>
        <time>2012-01-25T15:25:40Z</time>
      </trkpt>
      <trkpt lat="45.64691" lon="3.13648">
        <ele>397</ele>
        <time>2012-01-25T15:25:41Z</time>
      </trkpt>
      <trkpt lat="45.64686" lon="3.13662">
        <ele>396</ele>
        <time>2012-01-25T15:25:42Z</time>
      </trkpt>
      <trkpt lat="45.64681" lon="3.13675">
        <ele>396</ele>
        <time>2012-01-25T15:25:43Z</time>
      </trkpt>
      <trkpt lat="45.64675" lon="3.1369">
        <ele>395</ele>
        <time>2012-01-25T15:25:44Z</time>
      </trkpt>
      <trkpt lat="45.6467" lon="3.13705">
        <ele>395</ele>
        <time>2012-01-25T15:25:45Z</time>
      </trkpt>
      <trkpt lat="45.64664" lon="3.13719">
        <ele>394</ele>
        <time>2012-01-25T15:25:46Z</time>
      </trkpt>
      <trkpt lat="45.64658" lon="3.13733">
        <ele>394</ele>
        <time>2012-01-25T15:25:47Z</time>
      </trkpt>
      <trkpt lat="45.64654" lon="3.13746">
        <ele>393</ele>
        <time>2012-01-25T15:25:48Z</time>
      </trkpt>
      <trkpt lat="45.64647" lon="3.1377">
        <ele>393</ele>
        <time>2012-01-25T15:25:50Z</time>
      </trkpt>
      <trkpt lat="45.64645" lon="3.13782">
        <ele>393</ele>
        <time>2012-01-25T15:25:51Z</time>
      </trkpt>
      <trkpt lat="45.6464" lon="3.13804">
        <ele>392</ele>
        <time>2012-01-25T15:25:53Z</time>
      </trkpt>
      <trkpt lat="45.64638" lon="3.1382">
        <ele>392</ele>
        <time>2012-01-25T15:25:55Z</time>
      </trkpt>
      <trkpt lat="45.64638" lon="3.13834">
        <ele>392</ele>
        <time>2012-01-25T15:25:57Z</time>
      </trkpt>
      <trkpt lat="45.64639" lon="3.13854">
        <ele>392</ele>
        <time>2012-01-25T15:25:59Z</time>
      </trkpt>
      <trkpt lat="45.64644" lon="3.13878">
        <ele>391</ele>
        <time>2012-01-25T15:26:01Z</time>
      </trkpt>
      <trkpt lat="45.64647" lon="3.13891">
        <ele>392</ele>
        <time>2012-01-25T15:26:02Z</time>
      </trkpt>
      <trkpt lat="45.64651" lon="3.13905">
        <ele>392</ele>
        <time>2012-01-25T15:26:03Z</time>
      </trkpt>
      <trkpt lat="45.64656" lon="3.1392">
        <ele>392</ele>
        <time>2012-01-25T15:26:04Z</time>
      </trkpt>
      <trkpt lat="45.64661" lon="3.13937">
        <ele>392</ele>
        <time>2012-01-25T15:26:05Z</time>
      </trkpt>
      <trkpt lat="45.64666" lon="3.13956">
        <ele>392</ele>
        <time>2012-01-25T15:26:06Z</time>
      </trkpt>
      <trkpt lat="45.64671" lon="3.13975">
        <ele>391</ele>
        <time>2012-01-25T15:26:07Z</time>
      </trkpt>
      <trkpt lat="45.64676" lon="3.13995">
        <ele>391</ele>
        <time>2012-01-25T15:26:08Z</time>
      </trkpt>
      <trkpt lat="45.64682" lon="3.14015">
        <ele>391</ele>
        <time>2012-01-25T15:26:09Z</time>
      </trkpt>
      <trkpt lat="45.64687" lon="3.14035">
        <ele>391</ele>
        <time>2012-01-25T15:26:10Z</time>
      </trkpt>
      <trkpt lat="45.64692" lon="3.14055">
        <ele>391</ele>
        <time>2012-01-25T15:26:11Z</time>
      </trkpt>
      <trkpt lat="45.64697" lon="3.14076">
        <ele>390</ele>
        <time>2012-01-25T15:26:12Z</time>
      </trkpt>
      <trkpt lat="45.64701" lon="3.14096">
        <ele>389</ele>
        <time>2012-01-25T15:26:13Z</time>
      </trkpt>
      <trkpt lat="45.64704" lon="3.14117">
        <ele>389</ele>
        <time>2012-01-25T15:26:14Z</time>
      </trkpt>
      <trkpt lat="45.64708" lon="3.14138">
        <ele>388</ele>
        <time>2012-01-25T15:26:15Z</time>
      </trkpt>
      <trkpt lat="45.64711" lon="3.14158">
        <ele>387</ele>
        <time>2012-01-25T15:26:16Z</time>
      </trkpt>
      <trkpt lat="45.64713" lon="3.14179">
        <ele>386</ele>
        <time>2012-01-25T15:26:17Z</time>
      </trkpt>
      <trkpt lat="45.64716" lon="3.14199">
        <ele>385</ele>
        <time>2012-01-25T15:26:18Z</time>
      </trkpt>
      <trkpt lat="45.64719" lon="3.1422">
        <ele>385</ele>
        <time>2012-01-25T15:26:19Z</time>
      </trkpt>
      <trkpt lat="45.64722" lon="3.1424">
        <ele>384</ele>
        <time>2012-01-25T15:26:20Z</time>
      </trkpt>
      <trkpt lat="45.64725" lon="3.14261">
        <ele>383</ele>
        <time>2012-01-25T15:26:21Z</time>
      </trkpt>
      <trkpt lat="45.64729" lon="3.14281">
        <ele>383</ele>
        <time>2012-01-25T15:26:22Z</time>
      </trkpt>
      <trkpt lat="45.64732" lon="3.14301">
        <ele>382</ele>
        <time>2012-01-25T15:26:23Z</time>
      </trkpt>
      <trkpt lat="45.64735" lon="3.14319">
        <ele>382</ele>
        <time>2012-01-25T15:26:24Z</time>
      </trkpt>
      <trkpt lat="45.64737" lon="3.14336">
        <ele>381</ele>
        <time>2012-01-25T15:26:25Z</time>
      </trkpt>
      <trkpt lat="45.6474" lon="3.14352">
        <ele>381</ele>
        <time>2012-01-25T15:26:26Z</time>
      </trkpt>
      <trkpt lat="45.64743" lon="3.14366">
        <ele>380</ele>
        <time>2012-01-25T15:26:27Z</time>
      </trkpt>
      <trkpt lat="45.64745" lon="3.14387">
        <ele>380</ele>
        <time>2012-01-25T15:26:29Z</time>
      </trkpt>
      <trkpt lat="45.6474" lon="3.14401">
        <ele>380</ele>
        <time>2012-01-25T15:26:31Z</time>
      </trkpt>
      <trkpt lat="45.64729" lon="3.14408">
        <ele>379</ele>
        <time>2012-01-25T15:26:33Z</time>
      </trkpt>
      <trkpt lat="45.64712" lon="3.14413">
        <ele>379</ele>
        <time>2012-01-25T15:26:35Z</time>
      </trkpt>
      <trkpt lat="45.64704" lon="3.14416">
        <ele>379</ele>
        <time>2012-01-25T15:26:36Z</time>
      </trkpt>
      <trkpt lat="45.64689" lon="3.1442">
        <ele>379</ele>
        <time>2012-01-25T15:26:38Z</time>
      </trkpt>
      <trkpt lat="45.6468" lon="3.14427">
        <ele>379</ele>
        <time>2012-01-25T15:26:40Z</time>
      </trkpt>
      <trkpt lat="45.64678" lon="3.14441">
        <ele>379</ele>
        <time>2012-01-25T15:26:42Z</time>
      </trkpt>
      <trkpt lat="45.64688" lon="3.14459">
        <ele>379</ele>
        <time>2012-01-25T15:26:44Z</time>
      </trkpt>
      <trkpt lat="45.64695" lon="3.14471">
        <ele>379</ele>
        <time>2012-01-25T15:26:45Z</time>
      </trkpt>
      <trkpt lat="45.64703" lon="3.14483">
        <ele>379</ele>
        <time>2012-01-25T15:26:46Z</time>
      </trkpt>
      <trkpt lat="45.64709" lon="3.14497">
        <ele>379</ele>
        <time>2012-01-25T15:26:47Z</time>
      </trkpt>
      <trkpt lat="45.64716" lon="3.14512">
        <ele>379</ele>
        <time>2012-01-25T15:26:48Z</time>
      </trkpt>
      <trkpt lat="45.6472" lon="3.14527">
        <ele>379</ele>
        <time>2012-01-25T15:26:49Z</time>
      </trkpt>
      <trkpt lat="45.64723" lon="3.14542">
        <ele>379</ele>
        <time>2012-01-25T15:26:50Z</time>
      </trkpt>
      <trkpt lat="45.64724" lon="3.14557">
        <ele>379</ele>
        <time>2012-01-25T15:26:51Z</time>
      </trkpt>
      <trkpt lat="45.64724" lon="3.14574">
        <ele>379</ele>
        <time>2012-01-25T15:26:52Z</time>
      </trkpt>
      <trkpt lat="45.64724" lon="3.14592">
        <ele>379</ele>
        <time>2012-01-25T15:26:53Z</time>
      </trkpt>
      <trkpt lat="45.64724" lon="3.14612">
        <ele>379</ele>
        <time>2012-01-25T15:26:54Z</time>
      </trkpt>
      <trkpt lat="45.64724" lon="3.14632">
        <ele>379</ele>
        <time>2012-01-25T15:26:55Z</time>
      </trkpt>
      <trkpt lat="45.64724" lon="3.14654">
        <ele>379</ele>
        <time>2012-01-25T15:26:56Z</time>
      </trkpt>
      <trkpt lat="45.64724" lon="3.14676">
        <ele>379</ele>
        <time>2012-01-25T15:26:57Z</time>
      </trkpt>
      <trkpt lat="45.64725" lon="3.14699">
        <ele>379</ele>
        <time>2012-01-25T15:26:58Z</time>
      </trkpt>
      <trkpt lat="45.64725" lon="3.14721">
        <ele>379</ele>
        <time>2012-01-25T15:26:59Z</time>
      </trkpt>
      <trkpt lat="45.64725" lon="3.14742">
        <ele>379</ele>
        <time>2012-01-25T15:27:00Z</time>
      </trkpt>
      <trkpt lat="45.64725" lon="3.14761">
        <ele>379</ele>
        <time>2012-01-25T15:27:01Z</time>
      </trkpt>
      <trkpt lat="45.64725" lon="3.14778">
        <ele>378</ele>
        <time>2012-01-25T15:27:02Z</time>
      </trkpt>
      <trkpt lat="45.64726" lon="3.14792">
        <ele>378</ele>
        <time>2012-01-25T15:27:03Z</time>
      </trkpt>
      <trkpt lat="45.64728" lon="3.14819">
        <ele>378</ele>
        <time>2012-01-25T15:27:05Z</time>
      </trkpt>
      <trkpt lat="45.64727" lon="3.14832">
        <ele>378</ele>
        <time>2012-01-25T15:27:06Z</time>
      </trkpt>
      <trkpt lat="45.64724" lon="3.14862">
        <ele>378</ele>
        <time>2012-01-25T15:27:08Z</time>
      </trkpt>
      <trkpt lat="45.64723" lon="3.14878">
        <ele>378</ele>
        <time>2012-01-25T15:27:09Z</time>
      </trkpt>
      <trkpt lat="45.64722" lon="3.14893">
        <ele>378</ele>
        <time>2012-01-25T15:27:10Z</time>
      </trkpt>
      <trkpt lat="45.64721" lon="3.14907">
        <ele>379</ele>
        <time>2012-01-25T15:27:11Z</time>
      </trkpt>
      <trkpt lat="45.64721" lon="3.14927">
        <ele>379</ele>
        <time>2012-01-25T15:27:13Z</time>
      </trkpt>
      <trkpt lat="45.64728" lon="3.14938">
        <ele>379</ele>
        <time>2012-01-25T15:27:16Z</time>
      </trkpt>
      <trkpt lat="45.64745" lon="3.14937">
        <ele>379</ele>
        <time>2012-01-25T15:27:19Z</time>
      </trkpt>
      <trkpt lat="45.64762" lon="3.1494">
        <ele>379</ele>
        <time>2012-01-25T15:27:21Z</time>
      </trkpt>
      <trkpt lat="45.64772" lon="3.14943">
        <ele>379</ele>
        <time>2012-01-25T15:27:22Z</time>
      </trkpt>
      <trkpt lat="45.64782" lon="3.14947">
        <ele>379</ele>
        <time>2012-01-25T15:27:23Z</time>
      </trkpt>
      <trkpt lat="45.64792" lon="3.14951">
        <ele>379</ele>
        <time>2012-01-25T15:27:24Z</time>
      </trkpt>
      <trkpt lat="45.64801" lon="3.14956">
        <ele>379</ele>
        <time>2012-01-25T15:27:25Z</time>
      </trkpt>
      <trkpt lat="45.64811" lon="3.14962">
        <ele>379</ele>
        <time>2012-01-25T15:27:26Z</time>
      </trkpt>
      <trkpt lat="45.64819" lon="3.14967">
        <ele>379</ele>
        <time>2012-01-25T15:27:27Z</time>
      </trkpt>
      <trkpt lat="45.64828" lon="3.14973">
        <ele>379</ele>
        <time>2012-01-25T15:27:28Z</time>
      </trkpt>
      <trkpt lat="45.64845" lon="3.14988">
        <ele>379</ele>
        <time>2012-01-25T15:27:30Z</time>
      </trkpt>
      <trkpt lat="45.64853" lon="3.14995">
        <ele>379</ele>
        <time>2012-01-25T15:27:31Z</time>
      </trkpt>
      <trkpt lat="45.64868" lon="3.15008">
        <ele>379</ele>
        <time>2012-01-25T15:27:33Z</time>
      </trkpt>
      <trkpt lat="45.64884" lon="3.15021">
        <ele>379</ele>
        <time>2012-01-25T15:27:35Z</time>
      </trkpt>
      <trkpt lat="45.64892" lon="3.15027">
        <ele>379</ele>
        <time>2012-01-25T15:27:36Z</time>
      </trkpt>
      <trkpt lat="45.64906" lon="3.15039">
        <ele>379</ele>
        <time>2012-01-25T15:27:38Z</time>
      </trkpt>
      <trkpt lat="45.64917" lon="3.1505">
        <ele>379</ele>
        <time>2012-01-25T15:27:40Z</time>
      </trkpt>
      <trkpt lat="45.64927" lon="3.15061">
        <ele>379</ele>
        <time>2012-01-25T15:27:42Z</time>
      </trkpt>
      <trkpt lat="45.6494" lon="3.15071">
        <ele>379</ele>
        <time>2012-01-25T15:27:44Z</time>
      </trkpt>
      <trkpt lat="45.64952" lon="3.1508">
        <ele>378</ele>
        <time>2012-01-25T15:27:46Z</time>
      </trkpt>
      <trkpt lat="45.64962" lon="3.15091">
        <ele>378</ele>
        <time>2012-01-25T15:27:48Z</time>
      </trkpt>
      <trkpt lat="45.64971" lon="3.15108">
        <ele>378</ele>
        <time>2012-01-25T15:27:50Z</time>
      </trkpt>
      <trkpt lat="45.64978" lon="3.15131">
        <ele>378</ele>
        <time>2012-01-25T15:27:52Z</time>
      </trkpt>
      <trkpt lat="45.64982" lon="3.15145">
        <ele>378</ele>
        <time>2012-01-25T15:27:53Z</time>
      </trkpt>
      <trkpt lat="45.64989" lon="3.1517">
        <ele>378</ele>
        <time>2012-01-25T15:27:55Z</time>
      </trkpt>
      <trkpt lat="45.64996" lon="3.15191">
        <ele>378</ele>
        <time>2012-01-25T15:27:57Z</time>
      </trkpt>
      <trkpt lat="45.65001" lon="3.15208">
        <ele>377</ele>
        <time>2012-01-25T15:27:59Z</time>
      </trkpt>
      <trkpt lat="45.65006" lon="3.15221">
        <ele>377</ele>
        <time>2012-01-25T15:28:01Z</time>
      </trkpt>
      <trkpt lat="45.6501" lon="3.15239">
        <ele>377</ele>
        <time>2012-01-25T15:28:03Z</time>
      </trkpt>
      <trkpt lat="45.65012" lon="3.15251">
        <ele>377</ele>
        <time>2012-01-25T15:28:04Z</time>
      </trkpt>
      <trkpt lat="45.65016" lon="3.1528">
        <ele>377</ele>
        <time>2012-01-25T15:28:06Z</time>
      </trkpt>
      <trkpt lat="45.65018" lon="3.15297">
        <ele>377</ele>
        <time>2012-01-25T15:28:07Z</time>
      </trkpt>
      <trkpt lat="45.6502" lon="3.15315">
        <ele>377</ele>
        <time>2012-01-25T15:28:08Z</time>
      </trkpt>
      <trkpt lat="45.65022" lon="3.15333">
        <ele>377</ele>
        <time>2012-01-25T15:28:09Z</time>
      </trkpt>
      <trkpt lat="45.65024" lon="3.15351">
        <ele>377</ele>
        <time>2012-01-25T15:28:10Z</time>
      </trkpt>
      <trkpt lat="45.65026" lon="3.15372">
        <ele>377</ele>
        <time>2012-01-25T15:28:11Z</time>
      </trkpt>
      <trkpt lat="45.65028" lon="3.15393">
        <ele>377</ele>
        <time>2012-01-25T15:28:12Z</time>
      </trkpt>
      <trkpt lat="45.6503" lon="3.15414">
        <ele>377</ele>
        <time>2012-01-25T15:28:13Z</time>
      </trkpt>
      <trkpt lat="45.65032" lon="3.15435">
        <ele>377</ele>
        <time>2012-01-25T15:28:14Z</time>
      </trkpt>
      <trkpt lat="45.65035" lon="3.15457">
        <ele>377</ele>
        <time>2012-01-25T15:28:15Z</time>
      </trkpt>
      <trkpt lat="45.65037" lon="3.1548">
        <ele>376</ele>
        <time>2012-01-25T15:28:16Z</time>
      </trkpt>
      <trkpt lat="45.6504" lon="3.15502">
        <ele>376</ele>
        <time>2012-01-25T15:28:17Z</time>
      </trkpt>
      <trkpt lat="45.65043" lon="3.15523">
        <ele>376</ele>
        <time>2012-01-25T15:28:18Z</time>
      </trkpt>
      <trkpt lat="45.65045" lon="3.15541">
        <ele>376</ele>
        <time>2012-01-25T15:28:19Z</time>
      </trkpt>
      <trkpt lat="45.65048" lon="3.15557">
        <ele>376</ele>
        <time>2012-01-25T15:28:20Z</time>
      </trkpt>
      <trkpt lat="45.6505" lon="3.1557">
        <ele>376</ele>
        <time>2012-01-25T15:28:21Z</time>
      </trkpt>
      <trkpt lat="45.65053" lon="3.15593">
        <ele>376</ele>
        <time>2012-01-25T15:28:23Z</time>
      </trkpt>
      <trkpt lat="45.65056" lon="3.15621">
        <ele>376</ele>
        <time>2012-01-25T15:28:25Z</time>
      </trkpt>
      <trkpt lat="45.65058" lon="3.15638">
        <ele>376</ele>
        <time>2012-01-25T15:28:26Z</time>
      </trkpt>
      <trkpt lat="45.6506" lon="3.15655">
        <ele>376</ele>
        <time>2012-01-25T15:28:27Z</time>
      </trkpt>
      <trkpt lat="45.65063" lon="3.15674">
        <ele>376</ele>
        <time>2012-01-25T15:28:28Z</time>
      </trkpt>
      <trkpt lat="45.65065" lon="3.15694">
        <ele>376</ele>
        <time>2012-01-25T15:28:29Z</time>
      </trkpt>
      <trkpt lat="45.65067" lon="3.15715">
        <ele>376</ele>
        <time>2012-01-25T15:28:30Z</time>
      </trkpt>
      <trkpt lat="45.6507" lon="3.15737">
        <ele>376</ele>
        <time>2012-01-25T15:28:31Z</time>
      </trkpt>
      <trkpt lat="45.65073" lon="3.15759">
        <ele>377</ele>
        <time>2012-01-25T15:28:32Z</time>
      </trkpt>
      <trkpt lat="45.65075" lon="3.15782">
        <ele>377</ele>
        <time>2012-01-25T15:28:33Z</time>
      </trkpt>
      <trkpt lat="45.65078" lon="3.15805">
        <ele>377</ele>
        <time>2012-01-25T15:28:34Z</time>
      </trkpt>
      <trkpt lat="45.65081" lon="3.15828">
        <ele>377</ele>
        <time>2012-01-25T15:28:35Z</time>
      </trkpt>
      <trkpt lat="45.65084" lon="3.1585">
        <ele>377</ele>
        <time>2012-01-25T15:28:36Z</time>
      </trkpt>
      <trkpt lat="45.65086" lon="3.15871">
        <ele>377</ele>
        <time>2012-01-25T15:28:37Z</time>
      </trkpt>
      <trkpt lat="45.65089" lon="3.1589">
        <ele>377</ele>
        <time>2012-01-25T15:28:38Z</time>
      </trkpt>
      <trkpt lat="45.65091" lon="3.15906">
        <ele>377</ele>
        <time>2012-01-25T15:28:39Z</time>
      </trkpt>
      <trkpt lat="45.65092" lon="3.1592">
        <ele>377</ele>
        <time>2012-01-25T15:28:40Z</time>
      </trkpt>
      <trkpt lat="45.65095" lon="3.15938">
        <ele>377</ele>
        <time>2012-01-25T15:28:42Z</time>
      </trkpt>
      <trkpt lat="45.6509" lon="3.1595">
        <ele>377</ele>
        <time>2012-01-25T15:28:45Z</time>
      </trkpt>
      <trkpt lat="45.65077" lon="3.15951">
        <ele>378</ele>
        <time>2012-01-25T15:28:47Z</time>
      </trkpt>
      <trkpt lat="45.65058" lon="3.15954">
        <ele>379</ele>
        <time>2012-01-25T15:28:49Z</time>
      </trkpt>
      <trkpt lat="45.65047" lon="3.15956">
        <ele>380</ele>
        <time>2012-01-25T15:28:50Z</time>
      </trkpt>
      <trkpt lat="45.65035" lon="3.15958">
        <ele>381</ele>
        <time>2012-01-25T15:28:51Z</time>
      </trkpt>
      <trkpt lat="45.65022" lon="3.1596">
        <ele>381</ele>
        <time>2012-01-25T15:28:52Z</time>
      </trkpt>
      <trkpt lat="45.6501" lon="3.15962">
        <ele>382</ele>
        <time>2012-01-25T15:28:53Z</time>
      </trkpt>
      <trkpt lat="45.64998" lon="3.15964">
        <ele>382</ele>
        <time>2012-01-25T15:28:54Z</time>
      </trkpt>
      <trkpt lat="45.64988" lon="3.15965">
        <ele>383</ele>
        <time>2012-01-25T15:28:55Z</time>
      </trkpt>
      <trkpt lat="45.64979" lon="3.15966">
        <ele>383</ele>
        <time>2012-01-25T15:28:56Z</time>
      </trkpt>
      <trkpt lat="45.64966" lon="3.15966">
        <ele>383</ele>
        <time>2012-01-25T15:28:58Z</time>
      </trkpt>
      <trkpt lat="45.64963" lon="3.15964">
        <ele>383</ele>
        <time>2012-01-25T15:29:25Z</time>
      </trkpt>
      <trkpt lat="45.64952" lon="3.15965">
        <ele>384</ele>
        <time>2012-01-25T15:29:27Z</time>
      </trkpt>
      <trkpt lat="45.64937" lon="3.15969">
        <ele>384</ele>
        <time>2012-01-25T15:29:29Z</time>
      </trkpt>
      <trkpt lat="45.64919" lon="3.15974">
        <ele>385</ele>
        <time>2012-01-25T15:29:31Z</time>
      </trkpt>
      <trkpt lat="45.64909" lon="3.15977">
        <ele>385</ele>
        <time>2012-01-25T15:29:32Z</time>
      </trkpt>
      <trkpt lat="45.64898" lon="3.15979">
        <ele>386</ele>
        <time>2012-01-25T15:29:33Z</time>
      </trkpt>
      <trkpt lat="45.64887" lon="3.1598">
        <ele>386</ele>
        <time>2012-01-25T15:29:34Z</time>
      </trkpt>
      <trkpt lat="45.64875" lon="3.15982">
        <ele>387</ele>
        <time>2012-01-25T15:29:35Z</time>
      </trkpt>
      <trkpt lat="45.64863" lon="3.15983">
        <ele>387</ele>
        <time>2012-01-25T15:29:36Z</time>
      </trkpt>
      <trkpt lat="45.6485" lon="3.15984">
        <ele>388</ele>
        <time>2012-01-25T15:29:37Z</time>
      </trkpt>
      <trkpt lat="45.64838" lon="3.15985">
        <ele>389</ele>
        <time>2012-01-25T15:29:38Z</time>
      </trkpt>
      <trkpt lat="45.64825" lon="3.15986">
        <ele>389</ele>
        <time>2012-01-25T15:29:39Z</time>
      </trkpt>
      <trkpt lat="45.64812" lon="3.15988">
        <ele>390</ele>
        <time>2012-01-25T15:29:40Z</time>
      </trkpt>
      <trkpt lat="45.64798" lon="3.15991">
        <ele>390</ele>
        <time>2012-01-25T15:29:41Z</time>
      </trkpt>
      <trkpt lat="45.64784" lon="3.15994">
        <ele>390</ele>
        <time>2012-01-25T15:29:42Z</time>
      </trkpt>
      <trkpt lat="45.64771" lon="3.15998">
        <ele>390</ele>
        <time>2012-01-25T15:29:43Z</time>
      </trkpt>
      <trkpt lat="45.64759" lon="3.16001">
        <ele>390</ele>
        <time>2012-01-25T15:29:44Z</time>
      </trkpt>
      <trkpt lat="45.64748" lon="3.16005">
        <ele>390</ele>
        <time>2012-01-25T15:29:45Z</time>
      </trkpt>
      <trkpt lat="45.64736" lon="3.16009">
        <ele>390</ele>
        <time>2012-01-25T15:29:46Z</time>
      </trkpt>
      <trkpt lat="45.64724" lon="3.16012">
        <ele>390</ele>
        <time>2012-01-25T15:29:47Z</time>
      </trkpt>
      <trkpt lat="45.64712" lon="3.16017">
        <ele>390</ele>
        <time>2012-01-25T15:29:48Z</time>
      </trkpt>
      <trkpt lat="45.647" lon="3.16021">
        <ele>390</ele>
        <time>2012-01-25T15:29:49Z</time>
      </trkpt>
      <trkpt lat="45.64687" lon="3.16026">
        <ele>390</ele>
        <time>2012-01-25T15:29:50Z</time>
      </trkpt>
      <trkpt lat="45.64674" lon="3.1603">
        <ele>390</ele>
        <time>2012-01-25T15:29:51Z</time>
      </trkpt>
      <trkpt lat="45.64662" lon="3.16034">
        <ele>390</ele>
        <time>2012-01-25T15:29:52Z</time>
      </trkpt>
      <trkpt lat="45.64649" lon="3.16038">
        <ele>390</ele>
        <time>2012-01-25T15:29:53Z</time>
      </trkpt>
      <trkpt lat="45.64635" lon="3.16041">
        <ele>390</ele>
        <time>2012-01-25T15:29:54Z</time>
      </trkpt>
      <trkpt lat="45.64621" lon="3.16044">
        <ele>390</ele>
        <time>2012-01-25T15:29:55Z</time>
      </trkpt>
      <trkpt lat="45.64607" lon="3.16047">
        <ele>391</ele>
        <time>2012-01-25T15:29:56Z</time>
      </trkpt>
      <trkpt lat="45.64592" lon="3.1605">
        <ele>391</ele>
        <time>2012-01-25T15:29:57Z</time>
      </trkpt>
      <trkpt lat="45.64578" lon="3.16053">
        <ele>390</ele>
        <time>2012-01-25T15:29:58Z</time>
      </trkpt>
      <trkpt lat="45.64564" lon="3.16057">
        <ele>390</ele>
        <time>2012-01-25T15:29:59Z</time>
      </trkpt>
      <trkpt lat="45.64551" lon="3.1606">
        <ele>390</ele>
        <time>2012-01-25T15:30:00Z</time>
      </trkpt>
      <trkpt lat="45.6454" lon="3.16064">
        <ele>390</ele>
        <time>2012-01-25T15:30:01Z</time>
      </trkpt>
      <trkpt lat="45.64529" lon="3.16066">
        <ele>389</ele>
        <time>2012-01-25T15:30:02Z</time>
      </trkpt>
      <trkpt lat="45.6452" lon="3.16069">
        <ele>389</ele>
        <time>2012-01-25T15:30:03Z</time>
      </trkpt>
      <trkpt lat="45.64508" lon="3.16073">
        <ele>389</ele>
        <time>2012-01-25T15:30:05Z</time>
      </trkpt>
      <trkpt lat="45.64502" lon="3.16082">
        <ele>388</ele>
        <time>2012-01-25T15:30:07Z</time>
      </trkpt>
      <trkpt lat="45.64505" lon="3.161">
        <ele>388</ele>
        <time>2012-01-25T15:30:09Z</time>
      </trkpt>
      <trkpt lat="45.64507" lon="3.16114">
        <ele>387</ele>
        <time>2012-01-25T15:30:10Z</time>
      </trkpt>
      <trkpt lat="45.64508" lon="3.1613">
        <ele>387</ele>
        <time>2012-01-25T15:30:11Z</time>
      </trkpt>
      <trkpt lat="45.6451" lon="3.16149">
        <ele>386</ele>
        <time>2012-01-25T15:30:12Z</time>
      </trkpt>
      <trkpt lat="45.64512" lon="3.1617">
        <ele>386</ele>
        <time>2012-01-25T15:30:13Z</time>
      </trkpt>
      <trkpt lat="45.64514" lon="3.16192">
        <ele>385</ele>
        <time>2012-01-25T15:30:14Z</time>
      </trkpt>
      <trkpt lat="45.64516" lon="3.16215">
        <ele>384</ele>
        <time>2012-01-25T15:30:15Z</time>
      </trkpt>
      <trkpt lat="45.64518" lon="3.16238">
        <ele>384</ele>
        <time>2012-01-25T15:30:16Z</time>
      </trkpt>
      <trkpt lat="45.6452" lon="3.16261">
        <ele>383</ele>
        <time>2012-01-25T15:30:17Z</time>
      </trkpt>
      <trkpt lat="45.64522" lon="3.16282">
        <ele>382</ele>
        <time>2012-01-25T15:30:18Z</time>
      </trkpt>
      <trkpt lat="45.64524" lon="3.16303">
        <ele>381</ele>
        <time>2012-01-25T15:30:19Z</time>
      </trkpt>
      <trkpt lat="45.64526" lon="3.16323">
        <ele>381</ele>
        <time>2012-01-25T15:30:20Z</time>
      </trkpt>
      <trkpt lat="45.64528" lon="3.16342">
        <ele>380</ele>
        <time>2012-01-25T15:30:21Z</time>
      </trkpt>
      <trkpt lat="45.6453" lon="3.16358">
        <ele>379</ele>
        <time>2012-01-25T15:30:22Z</time>
      </trkpt>
      <trkpt lat="45.64532" lon="3.16372">
        <ele>379</ele>
        <time>2012-01-25T15:30:23Z</time>
      </trkpt>
      <trkpt lat="45.64533" lon="3.16384">
        <ele>379</ele>
        <time>2012-01-25T15:30:24Z</time>
      </trkpt>
      <trkpt lat="45.64535" lon="3.16401">
        <ele>378</ele>
        <time>2012-01-25T15:30:26Z</time>
      </trkpt>
      <trkpt lat="45.64537" lon="3.16418">
        <ele>377</ele>
        <time>2012-01-25T15:30:32Z</time>
      </trkpt>
      <trkpt lat="45.64539" lon="3.16435">
        <ele>377</ele>
        <time>2012-01-25T15:30:34Z</time>
      </trkpt>
      <trkpt lat="45.64541" lon="3.16455">
        <ele>376</ele>
        <time>2012-01-25T15:30:36Z</time>
      </trkpt>
      <trkpt lat="45.64544" lon="3.16481">
        <ele>375</ele>
        <time>2012-01-25T15:30:38Z</time>
      </trkpt>
      <trkpt lat="45.64545" lon="3.16499">
        <ele>375</ele>
        <time>2012-01-25T15:30:39Z</time>
      </trkpt>
      <trkpt lat="45.64547" lon="3.16518">
        <ele>374</ele>
        <time>2012-01-25T15:30:40Z</time>
      </trkpt>
      <trkpt lat="45.64549" lon="3.16538">
        <ele>373</ele>
        <time>2012-01-25T15:30:41Z</time>
      </trkpt>
      <trkpt lat="45.64552" lon="3.1656">
        <ele>373</ele>
        <time>2012-01-25T15:30:42Z</time>
      </trkpt>
      <trkpt lat="45.64553" lon="3.16583">
        <ele>372</ele>
        <time>2012-01-25T15:30:43Z</time>
      </trkpt>
      <trkpt lat="45.64555" lon="3.16608">
        <ele>371</ele>
        <time>2012-01-25T15:30:44Z</time>
      </trkpt>
      <trkpt lat="45.64557" lon="3.16633">
        <ele>371</ele>
        <time>2012-01-25T15:30:45Z</time>
      </trkpt>
      <trkpt lat="45.6456" lon="3.16658">
        <ele>370</ele>
        <time>2012-01-25T15:30:46Z</time>
      </trkpt>
      <trkpt lat="45.64562" lon="3.16682">
        <ele>370</ele>
        <time>2012-01-25T15:30:47Z</time>
      </trkpt>
      <trkpt lat="45.64564" lon="3.16706">
        <ele>369</ele>
        <time>2012-01-25T15:30:48Z</time>
      </trkpt>
      <trkpt lat="45.64566" lon="3.16728">
        <ele>368</ele>
        <time>2012-01-25T15:30:49Z</time>
      </trkpt>
      <trkpt lat="45.64568" lon="3.16749">
        <ele>368</ele>
        <time>2012-01-25T15:30:50Z</time>
      </trkpt>
      <trkpt lat="45.64569" lon="3.16766">
        <ele>368</ele>
        <time>2012-01-25T15:30:51Z</time>
      </trkpt>
      <trkpt lat="45.64571" lon="3.16781">
        <ele>367</ele>
        <time>2012-01-25T15:30:52Z</time>
      </trkpt>
      <trkpt lat="45.64572" lon="3.16794">
        <ele>367</ele>
        <time>2012-01-25T15:30:53Z</time>
      </trkpt>
      <trkpt lat="45.64575" lon="3.16817">
        <ele>367</ele>
        <time>2012-01-25T15:30:55Z</time>
      </trkpt>
      <trkpt lat="45.64577" lon="3.1683">
        <ele>367</ele>
        <time>2012-01-25T15:30:56Z</time>
      </trkpt>
      <trkpt lat="45.64578" lon="3.16844">
        <ele>366</ele>
        <time>2012-01-25T15:30:57Z</time>
      </trkpt>
      <trkpt lat="45.64579" lon="3.1686">
        <ele>366</ele>
        <time>2012-01-25T15:30:58Z</time>
      </trkpt>
      <trkpt lat="45.64581" lon="3.16878">
        <ele>366</ele>
        <time>2012-01-25T15:30:59Z</time>
      </trkpt>
      <trkpt lat="45.64583" lon="3.16898">
        <ele>365</ele>
        <time>2012-01-25T15:31:00Z</time>
      </trkpt>
      <trkpt lat="45.64584" lon="3.16919">
        <ele>365</ele>
        <time>2012-01-25T15:31:01Z</time>
      </trkpt>
      <trkpt lat="45.64586" lon="3.16942">
        <ele>364</ele>
        <time>2012-01-25T15:31:02Z</time>
      </trkpt>
      <trkpt lat="45.64588" lon="3.16965">
        <ele>364</ele>
        <time>2012-01-25T15:31:03Z</time>
      </trkpt>
      <trkpt lat="45.6459" lon="3.16989">
        <ele>363</ele>
        <time>2012-01-25T15:31:04Z</time>
      </trkpt>
      <trkpt lat="45.64592" lon="3.17014">
        <ele>363</ele>
        <time>2012-01-25T15:31:05Z</time>
      </trkpt>
      <trkpt lat="45.64594" lon="3.17039">
        <ele>362</ele>
        <time>2012-01-25T15:31:06Z</time>
      </trkpt>
      <trkpt lat="45.64596" lon="3.17063">
        <ele>362</ele>
        <time>2012-01-25T15:31:07Z</time>
      </trkpt>
      <trkpt lat="45.64598" lon="3.17086">
        <ele>362</ele>
        <time>2012-01-25T15:31:08Z</time>
      </trkpt>
      <trkpt lat="45.646" lon="3.17109">
        <ele>361</ele>
        <time>2012-01-25T15:31:09Z</time>
      </trkpt>
      <trkpt lat="45.64602" lon="3.1713">
        <ele>361</ele>
        <time>2012-01-25T15:31:10Z</time>
      </trkpt>
      <trkpt lat="45.64603" lon="3.17149">
        <ele>361</ele>
        <time>2012-01-25T15:31:11Z</time>
      </trkpt>
      <trkpt lat="45.64605" lon="3.17166">
        <ele>360</ele>
        <time>2012-01-25T15:31:12Z</time>
      </trkpt>
      <trkpt lat="45.64607" lon="3.1718">
        <ele>360</ele>
        <time>2012-01-25T15:31:13Z</time>
      </trkpt>
      <trkpt lat="45.64607" lon="3.17195">
        <ele>360</ele>
        <time>2012-01-25T15:31:15Z</time>
      </trkpt>
      <trkpt lat="45.64601" lon="3.172">
        <ele>360</ele>
        <time>2012-01-25T15:31:17Z</time>
      </trkpt>
      <trkpt lat="45.64589" lon="3.17203">
        <ele>360</ele>
        <time>2012-01-25T15:31:19Z</time>
      </trkpt>
      <trkpt lat="45.64577" lon="3.17204">
        <ele>360</ele>
        <time>2012-01-25T15:31:21Z</time>
      </trkpt>
      <trkpt lat="45.64565" lon="3.1721">
        <ele>360</ele>
        <time>2012-01-25T15:31:23Z</time>
      </trkpt>
      <trkpt lat="45.64553" lon="3.17223">
        <ele>360</ele>
        <time>2012-01-25T15:31:25Z</time>
      </trkpt>
      <trkpt lat="45.64546" lon="3.1723">
        <ele>360</ele>
        <time>2012-01-25T15:31:26Z</time>
      </trkpt>
      <trkpt lat="45.6453" lon="3.17242">
        <ele>360</ele>
        <time>2012-01-25T15:31:28Z</time>
      </trkpt>
      <trkpt lat="45.64511" lon="3.17255">
        <ele>361</ele>
        <time>2012-01-25T15:31:30Z</time>
      </trkpt>
      <trkpt lat="45.645" lon="3.17261">
        <ele>361</ele>
        <time>2012-01-25T15:31:31Z</time>
      </trkpt>
      <trkpt lat="45.64489" lon="3.17267">
        <ele>361</ele>
        <time>2012-01-25T15:31:32Z</time>
      </trkpt>
      <trkpt lat="45.64478" lon="3.17272">
        <ele>362</ele>
        <time>2012-01-25T15:31:33Z</time>
      </trkpt>
      <trkpt lat="45.64467" lon="3.17279">
        <ele>362</ele>
        <time>2012-01-25T15:31:34Z</time>
      </trkpt>
      <trkpt lat="45.64456" lon="3.17286">
        <ele>363</ele>
        <time>2012-01-25T15:31:35Z</time>
      </trkpt>
      <trkpt lat="45.64446" lon="3.17295">
        <ele>363</ele>
        <time>2012-01-25T15:31:36Z</time>
      </trkpt>
      <trkpt lat="45.64437" lon="3.17305">
        <ele>363</ele>
        <time>2012-01-25T15:31:37Z</time>
      </trkpt>
      <trkpt lat="45.64427" lon="3.17316">
        <ele>363</ele>
        <time>2012-01-25T15:31:38Z</time>
      </trkpt>
      <trkpt lat="45.64417" lon="3.17327">
        <ele>363</ele>
        <time>2012-01-25T15:31:39Z</time>
      </trkpt>
      <trkpt lat="45.64407" lon="3.17337">
        <ele>364</ele>
        <time>2012-01-25T15:31:40Z</time>
      </trkpt>
      <trkpt lat="45.64397" lon="3.17346">
        <ele>364</ele>
        <time>2012-01-25T15:31:41Z</time>
      </trkpt>
      <trkpt lat="45.64385" lon="3.17354">
        <ele>364</ele>
        <time>2012-01-25T15:31:42Z</time>
      </trkpt>
      <trkpt lat="45.64372" lon="3.17362">
        <ele>365</ele>
        <time>2012-01-25T15:31:43Z</time>
      </trkpt>
      <trkpt lat="45.64359" lon="3.17369">
        <ele>365</ele>
        <time>2012-01-25T15:31:44Z</time>
      </trkpt>
      <trkpt lat="45.64346" lon="3.17376">
        <ele>365</ele>
        <time>2012-01-25T15:31:45Z</time>
      </trkpt>
      <trkpt lat="45.64333" lon="3.17384">
        <ele>366</ele>
        <time>2012-01-25T15:31:46Z</time>
      </trkpt>
      <trkpt lat="45.6432" lon="3.17391">
        <ele>366</ele>
        <time>2012-01-25T15:31:47Z</time>
      </trkpt>
      <trkpt lat="45.64306" lon="3.17397">
        <ele>366</ele>
        <time>2012-01-25T15:31:48Z</time>
      </trkpt>
      <trkpt lat="45.64292" lon="3.17404">
        <ele>366</ele>
        <time>2012-01-25T15:31:49Z</time>
      </trkpt>
      <trkpt lat="45.64278" lon="3.1741">
        <ele>366</ele>
        <time>2012-01-25T15:31:50Z</time>
      </trkpt>
      <trkpt lat="45.64263" lon="3.17416">
        <ele>366</ele>
        <time>2012-01-25T15:31:51Z</time>
      </trkpt>
      <trkpt lat="45.64249" lon="3.17421">
        <ele>366</ele>
        <time>2012-01-25T15:31:52Z</time>
      </trkpt>
      <trkpt lat="45.64234" lon="3.17425">
        <ele>366</ele>
        <time>2012-01-25T15:31:53Z</time>
      </trkpt>
      <trkpt lat="45.64221" lon="3.1743">
        <ele>366</ele>
        <time>2012-01-25T15:31:54Z</time>
      </trkpt>
      <trkpt lat="45.64207" lon="3.17436">
        <ele>366</ele>
        <time>2012-01-25T15:31:55Z</time>
      </trkpt>
      <trkpt lat="45.64196" lon="3.17444">
        <ele>366</ele>
        <time>2012-01-25T15:31:56Z</time>
      </trkpt>
      <trkpt lat="45.64186" lon="3.17453">
        <ele>367</ele>
        <time>2012-01-25T15:31:57Z</time>
      </trkpt>
      <trkpt lat="45.64179" lon="3.17459">
        <ele>367</ele>
        <time>2012-01-25T15:31:58Z</time>
      </trkpt>
      <trkpt lat="45.64173" lon="3.17471">
        <ele>368</ele>
        <time>2012-01-25T15:32:00Z</time>
      </trkpt>
      <trkpt lat="45.64174" lon="3.17488">
        <ele>368</ele>
        <time>2012-01-25T15:32:02Z</time>
      </trkpt>
      <trkpt lat="45.64173" lon="3.17513">
        <ele>369</ele>
        <time>2012-01-25T15:32:04Z</time>
      </trkpt>
      <trkpt lat="45.64172" lon="3.17528">
        <ele>370</ele>
        <time>2012-01-25T15:32:05Z</time>
      </trkpt>
      <trkpt lat="45.6417" lon="3.1754">
        <ele>370</ele>
        <time>2012-01-25T15:32:06Z</time>
      </trkpt>
      <trkpt lat="45.64169" lon="3.17559">
        <ele>371</ele>
        <time>2012-01-25T15:32:08Z</time>
      </trkpt>
      <trkpt lat="45.64164" lon="3.1757">
        <ele>371</ele>
        <time>2012-01-25T15:32:12Z</time>
      </trkpt>
      <trkpt lat="45.64157" lon="3.17584">
        <ele>371</ele>
        <time>2012-01-25T15:32:14Z</time>
      </trkpt>
      <trkpt lat="45.64151" lon="3.17604">
        <ele>372</ele>
        <time>2012-01-25T15:32:16Z</time>
      </trkpt>
      <trkpt lat="45.64146" lon="3.17617">
        <ele>372</ele>
        <time>2012-01-25T15:32:17Z</time>
      </trkpt>
      <trkpt lat="45.6414" lon="3.1763">
        <ele>372</ele>
        <time>2012-01-25T15:32:18Z</time>
      </trkpt>
      <trkpt lat="45.64133" lon="3.17643">
        <ele>372</ele>
        <time>2012-01-25T15:32:19Z</time>
      </trkpt>
      <trkpt lat="45.64124" lon="3.17657">
        <ele>372</ele>
        <time>2012-01-25T15:32:20Z</time>
      </trkpt>
      <trkpt lat="45.64115" lon="3.17671">
        <ele>372</ele>
        <time>2012-01-25T15:32:21Z</time>
      </trkpt>
      <trkpt lat="45.64105" lon="3.17686">
        <ele>373</ele>
        <time>2012-01-25T15:32:22Z</time>
      </trkpt>
      <trkpt lat="45.64095" lon="3.177">
        <ele>373</ele>
        <time>2012-01-25T15:32:23Z</time>
      </trkpt>
      <trkpt lat="45.64084" lon="3.17715">
        <ele>373</ele>
        <time>2012-01-25T15:32:24Z</time>
      </trkpt>
      <trkpt lat="45.64073" lon="3.17729">
        <ele>373</ele>
        <time>2012-01-25T15:32:25Z</time>
      </trkpt>
      <trkpt lat="45.64061" lon="3.17742">
        <ele>373</ele>
        <time>2012-01-25T15:32:26Z</time>
      </trkpt>
      <trkpt lat="45.64049" lon="3.17754">
        <ele>373</ele>
        <time>2012-01-25T15:32:27Z</time>
      </trkpt>
      <trkpt lat="45.64038" lon="3.17767">
        <ele>373</ele>
        <time>2012-01-25T15:32:28Z</time>
      </trkpt>
      <trkpt lat="45.64027" lon="3.17781">
        <ele>373</ele>
        <time>2012-01-25T15:32:29Z</time>
      </trkpt>
      <trkpt lat="45.64016" lon="3.17795">
        <ele>373</ele>
        <time>2012-01-25T15:32:30Z</time>
      </trkpt>
      <trkpt lat="45.64004" lon="3.17808">
        <ele>373</ele>
        <time>2012-01-25T15:32:31Z</time>
      </trkpt>
      <trkpt lat="45.63993" lon="3.17821">
        <ele>373</ele>
        <time>2012-01-25T15:32:32Z</time>
      </trkpt>
      <trkpt lat="45.63983" lon="3.17833">
        <ele>373</ele>
        <time>2012-01-25T15:32:33Z</time>
      </trkpt>
      <trkpt lat="45.63973" lon="3.1784">
        <ele>373</ele>
        <time>2012-01-25T15:32:34Z</time>
      </trkpt>
      <trkpt lat="45.63965" lon="3.17848">
        <ele>373</ele>
        <time>2012-01-25T15:32:35Z</time>
      </trkpt>
      <trkpt lat="45.63957" lon="3.17853">
        <ele>373</ele>
        <time>2012-01-25T15:32:37Z</time>
      </trkpt>
      <trkpt lat="45.63956" lon="3.17856">
        <ele>373</ele>
        <time>2012-01-25T15:33:03Z</time>
      </trkpt>
      <trkpt lat="45.63946" lon="3.17868">
        <ele>373</ele>
        <time>2012-01-25T15:33:05Z</time>
      </trkpt>
      <trkpt lat="45.63932" lon="3.17883">
        <ele>373</ele>
        <time>2012-01-25T15:33:07Z</time>
      </trkpt>
      <trkpt lat="45.63923" lon="3.1789">
        <ele>373</ele>
        <time>2012-01-25T15:33:08Z</time>
      </trkpt>
      <trkpt lat="45.63907" lon="3.179">
        <ele>373</ele>
        <time>2012-01-25T15:33:10Z</time>
      </trkpt>
      <trkpt lat="45.63905" lon="3.17906">
        <ele>373</ele>
        <time>2012-01-25T15:33:12Z</time>
      </trkpt>
      <trkpt lat="45.63895" lon="3.1792">
        <ele>373</ele>
        <time>2012-01-25T15:33:16Z</time>
      </trkpt>
      <trkpt lat="45.63884" lon="3.17931">
        <ele>373</ele>
        <time>2012-01-25T15:33:18Z</time>
      </trkpt>
      <trkpt lat="45.63868" lon="3.17942">
        <ele>373</ele>
        <time>2012-01-25T15:33:20Z</time>
      </trkpt>
      <trkpt lat="45.63858" lon="3.17949">
        <ele>373</ele>
        <time>2012-01-25T15:33:21Z</time>
      </trkpt>
      <trkpt lat="45.63847" lon="3.17956">
        <ele>373</ele>
        <time>2012-01-25T15:33:22Z</time>
      </trkpt>
      <trkpt lat="45.63836" lon="3.17964">
        <ele>373</ele>
        <time>2012-01-25T15:33:23Z</time>
      </trkpt>
      <trkpt lat="45.63825" lon="3.17976">
        <ele>373</ele>
        <time>2012-01-25T15:33:24Z</time>
      </trkpt>
      <trkpt lat="45.63814" lon="3.17988">
        <ele>372</ele>
        <time>2012-01-25T15:33:25Z</time>
      </trkpt>
      <trkpt lat="45.63802" lon="3.18002">
        <ele>373</ele>
        <time>2012-01-25T15:33:26Z</time>
      </trkpt>
      <trkpt lat="45.6379" lon="3.18016">
        <ele>373</ele>
        <time>2012-01-25T15:33:27Z</time>
      </trkpt>
      <trkpt lat="45.63779" lon="3.18031">
        <ele>373</ele>
        <time>2012-01-25T15:33:28Z</time>
      </trkpt>
      <trkpt lat="45.63768" lon="3.18044">
        <ele>373</ele>
        <time>2012-01-25T15:33:29Z</time>
      </trkpt>
      <trkpt lat="45.63759" lon="3.18056">
        <ele>373</ele>
        <time>2012-01-25T15:33:30Z</time>
      </trkpt>
      <trkpt lat="45.63751" lon="3.18066">
        <ele>373</ele>
        <time>2012-01-25T15:33:31Z</time>
      </trkpt>
      <trkpt lat="45.63744" lon="3.18075">
        <ele>373</ele>
        <time>2012-01-25T15:33:32Z</time>
      </trkpt>
      <trkpt lat="45.63733" lon="3.18089">
        <ele>373</ele>
        <time>2012-01-25T15:33:34Z</time>
      </trkpt>
      <trkpt lat="45.63725" lon="3.18099">
        <ele>373</ele>
        <time>2012-01-25T15:33:36Z</time>
      </trkpt>
      <trkpt lat="45.63719" lon="3.18108">
        <ele>373</ele>
        <time>2012-01-25T15:33:38Z</time>
      </trkpt>
      <trkpt lat="45.63713" lon="3.18119">
        <ele>373</ele>
        <time>2012-01-25T15:33:40Z</time>
      </trkpt>
      <trkpt lat="45.63706" lon="3.18131">
        <ele>373</ele>
        <time>2012-01-25T15:33:42Z</time>
      </trkpt>
      <trkpt lat="45.63696" lon="3.18144">
        <ele>373</ele>
        <time>2012-01-25T15:33:44Z</time>
      </trkpt>
      <trkpt lat="45.63683" lon="3.18161">
        <ele>373</ele>
        <time>2012-01-25T15:33:46Z</time>
      </trkpt>
      <trkpt lat="45.63675" lon="3.18171">
        <ele>374</ele>
        <time>2012-01-25T15:33:47Z</time>
      </trkpt>
      <trkpt lat="45.63667" lon="3.18183">
        <ele>374</ele>
        <time>2012-01-25T15:33:48Z</time>
      </trkpt>
      <trkpt lat="45.63658" lon="3.18195">
        <ele>374</ele>
        <time>2012-01-25T15:33:49Z</time>
      </trkpt>
      <trkpt lat="45.63648" lon="3.18209">
        <ele>375</ele>
        <time>2012-01-25T15:33:50Z</time>
      </trkpt>
      <trkpt lat="45.63637" lon="3.18223">
        <ele>376</ele>
        <time>2012-01-25T15:33:51Z</time>
      </trkpt>
      <trkpt lat="45.63626" lon="3.18238">
        <ele>376</ele>
        <time>2012-01-25T15:33:52Z</time>
      </trkpt>
      <trkpt lat="45.63616" lon="3.18252">
        <ele>377</ele>
        <time>2012-01-25T15:33:53Z</time>
      </trkpt>
      <trkpt lat="45.63606" lon="3.18266">
        <ele>378</ele>
        <time>2012-01-25T15:33:54Z</time>
      </trkpt>
      <trkpt lat="45.63596" lon="3.18279">
        <ele>378</ele>
        <time>2012-01-25T15:33:55Z</time>
      </trkpt>
      <trkpt lat="45.63587" lon="3.18291">
        <ele>378</ele>
        <time>2012-01-25T15:33:56Z</time>
      </trkpt>
      <trkpt lat="45.6358" lon="3.183">
        <ele>379</ele>
        <time>2012-01-25T15:33:57Z</time>
      </trkpt>
      <trkpt lat="45.6357" lon="3.18313">
        <ele>379</ele>
        <time>2012-01-25T15:33:59Z</time>
      </trkpt>
      <trkpt lat="45.63564" lon="3.18321">
        <ele>379</ele>
        <time>2012-01-25T15:34:04Z</time>
      </trkpt>
      <trkpt lat="45.63556" lon="3.1833">
        <ele>380</ele>
        <time>2012-01-25T15:34:10Z</time>
      </trkpt>
      <trkpt lat="45.63551" lon="3.18342">
        <ele>380</ele>
        <time>2012-01-25T15:34:15Z</time>
      </trkpt>
      <trkpt lat="45.63552" lon="3.18334">
        <ele>380</ele>
        <time>2012-01-25T15:37:11Z</time>
      </trkpt>
      <trkpt lat="45.63543" lon="3.18338">
        <ele>380</ele>
        <time>2012-01-25T15:37:16Z</time>
      </trkpt>
      <trkpt lat="45.63535" lon="3.1835">
        <ele>381</ele>
        <time>2012-01-25T15:37:19Z</time>
      </trkpt>
      <trkpt lat="45.63529" lon="3.18361">
        <ele>381</ele>
        <time>2012-01-25T15:37:22Z</time>
      </trkpt>
      <trkpt lat="45.63529" lon="3.18363">
        <ele>382</ele>
        <time>2012-01-25T15:37:53Z</time>
      </trkpt>
      <trkpt lat="45.63517" lon="3.18379">
        <ele>382</ele>
        <time>2012-01-25T15:37:56Z</time>
      </trkpt>
      <trkpt lat="45.63506" lon="3.18393">
        <ele>383</ele>
        <time>2012-01-25T15:37:58Z</time>
      </trkpt>
      <trkpt lat="45.63493" lon="3.18408">
        <ele>383</ele>
        <time>2012-01-25T15:38:00Z</time>
      </trkpt>
      <trkpt lat="45.63485" lon="3.18416">
        <ele>384</ele>
        <time>2012-01-25T15:38:01Z</time>
      </trkpt>
      <trkpt lat="45.63478" lon="3.18425">
        <ele>384</ele>
        <time>2012-01-25T15:38:02Z</time>
      </trkpt>
      <trkpt lat="45.6347" lon="3.18436">
        <ele>384</ele>
        <time>2012-01-25T15:38:03Z</time>
      </trkpt>
      <trkpt lat="45.63463" lon="3.18447">
        <ele>385</ele>
        <time>2012-01-25T15:38:04Z</time>
      </trkpt>
      <trkpt lat="45.63454" lon="3.18458">
        <ele>385</ele>
        <time>2012-01-25T15:38:05Z</time>
      </trkpt>
      <trkpt lat="45.63446" lon="3.18469">
        <ele>385</ele>
        <time>2012-01-25T15:38:06Z</time>
      </trkpt>
      <trkpt lat="45.63438" lon="3.18481">
        <ele>385</ele>
        <time>2012-01-25T15:38:07Z</time>
      </trkpt>
      <trkpt lat="45.63429" lon="3.18493">
        <ele>385</ele>
        <time>2012-01-25T15:38:08Z</time>
      </trkpt>
      <trkpt lat="45.63421" lon="3.18504">
        <ele>386</ele>
        <time>2012-01-25T15:38:09Z</time>
      </trkpt>
      <trkpt lat="45.63414" lon="3.18514">
        <ele>386</ele>
        <time>2012-01-25T15:38:10Z</time>
      </trkpt>
      <trkpt lat="45.63407" lon="3.18524">
        <ele>386</ele>
        <time>2012-01-25T15:38:11Z</time>
      </trkpt>
      <trkpt lat="45.634" lon="3.18532">
        <ele>387</ele>
        <time>2012-01-25T15:38:12Z</time>
      </trkpt>
      <trkpt lat="45.63393" lon="3.18541">
        <ele>387</ele>
        <time>2012-01-25T15:38:13Z</time>
      </trkpt>
      <trkpt lat="45.63385" lon="3.18551">
        <ele>387</ele>
        <time>2012-01-25T15:38:14Z</time>
      </trkpt>
      <trkpt lat="45.63377" lon="3.18561">
        <ele>388</ele>
        <time>2012-01-25T15:38:15Z</time>
      </trkpt>
      <trkpt lat="45.63369" lon="3.18571">
        <ele>389</ele>
        <time>2012-01-25T15:38:16Z</time>
      </trkpt>
      <trkpt lat="45.63361" lon="3.1858">
        <ele>389</ele>
        <time>2012-01-25T15:38:17Z</time>
      </trkpt>
      <trkpt lat="45.63354" lon="3.1859">
        <ele>389</ele>
        <time>2012-01-25T15:38:18Z</time>
      </trkpt>
      <trkpt lat="45.63341" lon="3.18607">
        <ele>390</ele>
        <time>2012-01-25T15:38:20Z</time>
      </trkpt>
      <trkpt lat="45.6333" lon="3.18619">
        <ele>390</ele>
        <time>2012-01-25T15:38:22Z</time>
      </trkpt>
      <trkpt lat="45.63324" lon="3.18626">
        <ele>391</ele>
        <time>2012-01-25T15:38:24Z</time>
      </trkpt>
      <trkpt lat="45.63324" lon="3.18637">
        <ele>391</ele>
        <time>2012-01-25T15:38:28Z</time>
      </trkpt>
      <trkpt lat="45.63332" lon="3.18652">
        <ele>390</ele>
        <time>2012-01-25T15:38:31Z</time>
      </trkpt>
      <trkpt lat="45.6334" lon="3.18668">
        <ele>390</ele>
        <time>2012-01-25T15:38:33Z</time>
      </trkpt>
      <trkpt lat="45.63346" lon="3.18682">
        <ele>390</ele>
        <time>2012-01-25T15:38:35Z</time>
      </trkpt>
      <trkpt lat="45.63352" lon="3.18689">
        <ele>389</ele>
        <time>2012-01-25T15:38:40Z</time>
      </trkpt>
      <trkpt lat="45.63365" lon="3.1868">
        <ele>389</ele>
        <time>2012-01-25T15:38:43Z</time>
      </trkpt>
      <trkpt lat="45.63377" lon="3.18678">
        <ele>389</ele>
        <time>2012-01-25T15:38:45Z</time>
      </trkpt>
      <trkpt lat="45.6339" lon="3.18686">
        <ele>388</ele>
        <time>2012-01-25T15:38:47Z</time>
      </trkpt>
      <trkpt lat="45.63406" lon="3.18704">
        <ele>387</ele>
        <time>2012-01-25T15:38:49Z</time>
      </trkpt>
      <trkpt lat="45.63415" lon="3.18716">
        <ele>387</ele>
        <time>2012-01-25T15:38:50Z</time>
      </trkpt>
      <trkpt lat="45.63425" lon="3.18728">
        <ele>386</ele>
        <time>2012-01-25T15:38:51Z</time>
      </trkpt>
      <trkpt lat="45.63436" lon="3.1874">
        <ele>386</ele>
        <time>2012-01-25T15:38:52Z</time>
      </trkpt>
      <trkpt lat="45.63447" lon="3.18753">
        <ele>385</ele>
        <time>2012-01-25T15:38:53Z</time>
      </trkpt>
      <trkpt lat="45.63459" lon="3.18765">
        <ele>385</ele>
        <time>2012-01-25T15:38:54Z</time>
      </trkpt>
      <trkpt lat="45.63469" lon="3.18777">
        <ele>385</ele>
        <time>2012-01-25T15:38:55Z</time>
      </trkpt>
      <trkpt lat="45.63479" lon="3.1879">
        <ele>385</ele>
        <time>2012-01-25T15:38:56Z</time>
      </trkpt>
      <trkpt lat="45.63488" lon="3.18804">
        <ele>385</ele>
        <time>2012-01-25T15:38:57Z</time>
      </trkpt>
      <trkpt lat="45.63496" lon="3.18818">
        <ele>385</ele>
        <time>2012-01-25T15:38:58Z</time>
      </trkpt>
      <trkpt lat="45.63503" lon="3.18833">
        <ele>385</ele>
        <time>2012-01-25T15:38:59Z</time>
      </trkpt>
      <trkpt lat="45.63509" lon="3.18846">
        <ele>385</ele>
        <time>2012-01-25T15:39:00Z</time>
      </trkpt>
      <trkpt lat="45.63514" lon="3.18858">
        <ele>385</ele>
        <time>2012-01-25T15:39:01Z</time>
      </trkpt>
      <trkpt lat="45.63521" lon="3.18867">
        <ele>386</ele>
        <time>2012-01-25T15:39:03Z</time>
      </trkpt>
      <trkpt lat="45.63525" lon="3.18874">
        <ele>386</ele>
        <time>2012-01-25T15:39:08Z</time>
      </trkpt>
      <trkpt lat="45.6353" lon="3.18891">
        <ele>386</ele>
        <time>2012-01-25T15:39:10Z</time>
      </trkpt>
      <trkpt lat="45.63539" lon="3.18916">
        <ele>387</ele>
        <time>2012-01-25T15:39:12Z</time>
      </trkpt>
      <trkpt lat="45.63545" lon="3.1893">
        <ele>388</ele>
        <time>2012-01-25T15:39:13Z</time>
      </trkpt>
      <trkpt lat="45.6355" lon="3.18944">
        <ele>388</ele>
        <time>2012-01-25T15:39:14Z</time>
      </trkpt>
      <trkpt lat="45.63556" lon="3.18958">
        <ele>389</ele>
        <time>2012-01-25T15:39:15Z</time>
      </trkpt>
      <trkpt lat="45.63561" lon="3.18972">
        <ele>388</ele>
        <time>2012-01-25T15:39:16Z</time>
      </trkpt>
      <trkpt lat="45.63567" lon="3.18985">
        <ele>388</ele>
        <time>2012-01-25T15:39:17Z</time>
      </trkpt>
      <trkpt lat="45.63571" lon="3.18999">
        <ele>387</ele>
        <time>2012-01-25T15:39:18Z</time>
      </trkpt>
      <trkpt lat="45.63583" lon="3.1902">
        <ele>386</ele>
        <time>2012-01-25T15:39:20Z</time>
      </trkpt>
      <trkpt lat="45.63591" lon="3.19023">
        <ele>386</ele>
        <time>2012-01-25T15:39:21Z</time>
      </trkpt>
      <trkpt lat="45.63607" lon="3.1901">
        <ele>385</ele>
        <time>2012-01-25T15:39:23Z</time>
      </trkpt>
      <trkpt lat="45.63618" lon="3.18986">
        <ele>384</ele>
        <time>2012-01-25T15:39:25Z</time>
      </trkpt>
      <trkpt lat="45.63622" lon="3.18969">
        <ele>384</ele>
        <time>2012-01-25T15:39:26Z</time>
      </trkpt>
      <trkpt lat="45.63629" lon="3.18953">
        <ele>383</ele>
        <time>2012-01-25T15:39:27Z</time>
      </trkpt>
      <trkpt lat="45.63637" lon="3.18936">
        <ele>382</ele>
        <time>2012-01-25T15:39:28Z</time>
      </trkpt>
      <trkpt lat="45.63648" lon="3.1892">
        <ele>381</ele>
        <time>2012-01-25T15:39:29Z</time>
      </trkpt>
      <trkpt lat="45.63659" lon="3.18902">
        <ele>380</ele>
        <time>2012-01-25T15:39:30Z</time>
      </trkpt>
      <trkpt lat="45.63671" lon="3.18882">
        <ele>380</ele>
        <time>2012-01-25T15:39:31Z</time>
      </trkpt>
      <trkpt lat="45.63684" lon="3.18862">
        <ele>380</ele>
        <time>2012-01-25T15:39:32Z</time>
      </trkpt>
      <trkpt lat="45.63697" lon="3.1884">
        <ele>380</ele>
        <time>2012-01-25T15:39:33Z</time>
      </trkpt>
      <trkpt lat="45.6371" lon="3.18818">
        <ele>380</ele>
        <time>2012-01-25T15:39:34Z</time>
      </trkpt>
      <trkpt lat="45.63723" lon="3.18797">
        <ele>380</ele>
        <time>2012-01-25T15:39:35Z</time>
      </trkpt>
      <trkpt lat="45.63725" lon="3.188">
        <ele>380</ele>
        <time>2012-01-25T15:39:49Z</time>
      </trkpt>
      <trkpt lat="45.63718" lon="3.18811">
        <ele>380</ele>
        <time>2012-01-25T15:39:52Z</time>
      </trkpt>
      <trkpt lat="45.63724" lon="3.18806">
        <ele>380</ele>
        <time>2012-01-25T15:39:59Z</time>
      </trkpt>
      <trkpt lat="45.63735" lon="3.1881">
        <ele>380</ele>
        <time>2012-01-25T15:40:01Z</time>
      </trkpt>
      <trkpt lat="45.6375" lon="3.18814">
        <ele>381</ele>
        <time>2012-01-25T15:40:03Z</time>
      </trkpt>
      <trkpt lat="45.63767" lon="3.18818">
        <ele>381</ele>
        <time>2012-01-25T15:40:05Z</time>
      </trkpt>
      <trkpt lat="45.63775" lon="3.18819">
        <ele>381</ele>
        <time>2012-01-25T15:40:06Z</time>
      </trkpt>
      <trkpt lat="45.63795" lon="3.1882">
        <ele>382</ele>
        <time>2012-01-25T15:40:08Z</time>
      </trkpt>
      <trkpt lat="45.63805" lon="3.1882">
        <ele>382</ele>
        <time>2012-01-25T15:40:09Z</time>
      </trkpt>
      <trkpt lat="45.63828" lon="3.18819">
        <ele>383</ele>
        <time>2012-01-25T15:40:11Z</time>
      </trkpt>
      <trkpt lat="45.63839" lon="3.18819">
        <ele>383</ele>
        <time>2012-01-25T15:40:12Z</time>
      </trkpt>
      <trkpt lat="45.63851" lon="3.18818">
        <ele>383</ele>
        <time>2012-01-25T15:40:13Z</time>
      </trkpt>
      <trkpt lat="45.63863" lon="3.18817">
        <ele>383</ele>
        <time>2012-01-25T15:40:14Z</time>
      </trkpt>
      <trkpt lat="45.63874" lon="3.18817">
        <ele>383</ele>
        <time>2012-01-25T15:40:15Z</time>
      </trkpt>
      <trkpt lat="45.63887" lon="3.18816">
        <ele>383</ele>
        <time>2012-01-25T15:40:16Z</time>
      </trkpt>
      <trkpt lat="45.63899" lon="3.18815">
        <ele>383</ele>
        <time>2012-01-25T15:40:17Z</time>
      </trkpt>
      <trkpt lat="45.63911" lon="3.18814">
        <ele>384</ele>
        <time>2012-01-25T15:40:18Z</time>
      </trkpt>
      <trkpt lat="45.63923" lon="3.18812">
        <ele>384</ele>
        <time>2012-01-25T15:40:19Z</time>
      </trkpt>
      <trkpt lat="45.63934" lon="3.18811">
        <ele>384</ele>
        <time>2012-01-25T15:40:20Z</time>
      </trkpt>
      <trkpt lat="45.63945" lon="3.1881">
        <ele>384</ele>
        <time>2012-01-25T15:40:21Z</time>
      </trkpt>
      <trkpt lat="45.63956" lon="3.18809">
        <ele>384</ele>
        <time>2012-01-25T15:40:22Z</time>
      </trkpt>
      <trkpt lat="45.63968" lon="3.18808">
        <ele>384</ele>
        <time>2012-01-25T15:40:23Z</time>
      </trkpt>
      <trkpt lat="45.63979" lon="3.18807">
        <ele>384</ele>
        <time>2012-01-25T15:40:24Z</time>
      </trkpt>
      <trkpt lat="45.6399" lon="3.18804">
        <ele>384</ele>
        <time>2012-01-25T15:40:25Z</time>
      </trkpt>
      <trkpt lat="45.64001" lon="3.18802">
        <ele>383</ele>
        <time>2012-01-25T15:40:26Z</time>
      </trkpt>
      <trkpt lat="45.64012" lon="3.188">
        <ele>383</ele>
        <time>2012-01-25T15:40:27Z</time>
      </trkpt>
      <trkpt lat="45.64023" lon="3.188">
        <ele>382</ele>
        <time>2012-01-25T15:40:28Z</time>
      </trkpt>
      <trkpt lat="45.64034" lon="3.188">
        <ele>382</ele>
        <time>2012-01-25T15:40:29Z</time>
      </trkpt>
      <trkpt lat="45.64048" lon="3.18803">
        <ele>381</ele>
        <time>2012-01-25T15:40:31Z</time>
      </trkpt>
      <trkpt lat="45.64062" lon="3.18805">
        <ele>380</ele>
        <time>2012-01-25T15:40:33Z</time>
      </trkpt>
      <trkpt lat="45.64077" lon="3.18809">
        <ele>379</ele>
        <time>2012-01-25T15:40:35Z</time>
      </trkpt>
      <trkpt lat="45.64092" lon="3.18816">
        <ele>378</ele>
        <time>2012-01-25T15:40:37Z</time>
      </trkpt>
      <trkpt lat="45.64108" lon="3.18825">
        <ele>377</ele>
        <time>2012-01-25T15:40:39Z</time>
      </trkpt>
      <trkpt lat="45.64124" lon="3.18835">
        <ele>376</ele>
        <time>2012-01-25T15:40:41Z</time>
      </trkpt>
      <trkpt lat="45.64139" lon="3.18844">
        <ele>375</ele>
        <time>2012-01-25T15:40:43Z</time>
      </trkpt>
      <trkpt lat="45.64155" lon="3.18853">
        <ele>374</ele>
        <time>2012-01-25T15:40:45Z</time>
      </trkpt>
      <trkpt lat="45.64168" lon="3.1886">
        <ele>373</ele>
        <time>2012-01-25T15:40:47Z</time>
      </trkpt>
      <trkpt lat="45.64175" lon="3.18865">
        <ele>373</ele>
        <time>2012-01-25T15:40:50Z</time>
      </trkpt>
      <trkpt lat="45.64181" lon="3.18869">
        <ele>373</ele>
        <time>2012-01-25T15:41:20Z</time>
      </trkpt>
      <trkpt lat="45.64191" lon="3.18875">
        <ele>373</ele>
        <time>2012-01-25T15:41:22Z</time>
      </trkpt>
      <trkpt lat="45.64205" lon="3.18882">
        <ele>372</ele>
        <time>2012-01-25T15:41:24Z</time>
      </trkpt>
      <trkpt lat="45.64223" lon="3.18891">
        <ele>372</ele>
        <time>2012-01-25T15:41:26Z</time>
      </trkpt>
      <trkpt lat="45.64234" lon="3.18896">
        <ele>371</ele>
        <time>2012-01-25T15:41:27Z</time>
      </trkpt>
      <trkpt lat="45.64245" lon="3.18902">
        <ele>371</ele>
        <time>2012-01-25T15:41:28Z</time>
      </trkpt>
      <trkpt lat="45.64257" lon="3.18908">
        <ele>371</ele>
        <time>2012-01-25T15:41:29Z</time>
      </trkpt>
      <trkpt lat="45.64269" lon="3.18914">
        <ele>371</ele>
        <time>2012-01-25T15:41:30Z</time>
      </trkpt>
      <trkpt lat="45.64282" lon="3.18921">
        <ele>370</ele>
        <time>2012-01-25T15:41:31Z</time>
      </trkpt>
      <trkpt lat="45.64294" lon="3.18928">
        <ele>370</ele>
        <time>2012-01-25T15:41:32Z</time>
      </trkpt>
      <trkpt lat="45.64307" lon="3.18934">
        <ele>370</ele>
        <time>2012-01-25T15:41:33Z</time>
      </trkpt>
      <trkpt lat="45.6432" lon="3.18939">
        <ele>370</ele>
        <time>2012-01-25T15:41:34Z</time>
      </trkpt>
      <trkpt lat="45.64333" lon="3.18944">
        <ele>370</ele>
        <time>2012-01-25T15:41:35Z</time>
      </trkpt>
      <trkpt lat="45.64346" lon="3.18948">
        <ele>369</ele>
        <time>2012-01-25T15:41:36Z</time>
      </trkpt>
      <trkpt lat="45.64359" lon="3.18952">
        <ele>369</ele>
        <time>2012-01-25T15:41:37Z</time>
      </trkpt>
      <trkpt lat="45.64371" lon="3.18955">
        <ele>368</ele>
        <time>2012-01-25T15:41:38Z</time>
      </trkpt>
      <trkpt lat="45.64384" lon="3.18958">
        <ele>368</ele>
        <time>2012-01-25T15:41:39Z</time>
      </trkpt>
      <trkpt lat="45.64396" lon="3.1896">
        <ele>368</ele>
        <time>2012-01-25T15:41:40Z</time>
      </trkpt>
      <trkpt lat="45.64408" lon="3.18963">
        <ele>367</ele>
        <time>2012-01-25T15:41:41Z</time>
      </trkpt>
      <trkpt lat="45.64418" lon="3.18965">
        <ele>367</ele>
        <time>2012-01-25T15:41:42Z</time>
      </trkpt>
      <trkpt lat="45.64428" lon="3.18967">
        <ele>367</ele>
        <time>2012-01-25T15:41:43Z</time>
      </trkpt>
      <trkpt lat="45.64445" lon="3.1897">
        <ele>366</ele>
        <time>2012-01-25T15:41:45Z</time>
      </trkpt>
      <trkpt lat="45.64459" lon="3.18975">
        <ele>366</ele>
        <time>2012-01-25T15:41:47Z</time>
      </trkpt>
      <trkpt lat="45.64471" lon="3.18978">
        <ele>366</ele>
        <time>2012-01-25T15:41:49Z</time>
      </trkpt>
      <trkpt lat="45.64482" lon="3.18982">
        <ele>366</ele>
        <time>2012-01-25T15:41:51Z</time>
      </trkpt>
      <trkpt lat="45.64493" lon="3.18985">
        <ele>366</ele>
        <time>2012-01-25T15:41:53Z</time>
      </trkpt>
      <trkpt lat="45.64505" lon="3.18988">
        <ele>366</ele>
        <time>2012-01-25T15:41:55Z</time>
      </trkpt>
      <trkpt lat="45.64517" lon="3.18991">
        <ele>366</ele>
        <time>2012-01-25T15:41:57Z</time>
      </trkpt>
      <trkpt lat="45.6453" lon="3.18993">
        <ele>366</ele>
        <time>2012-01-25T15:41:59Z</time>
      </trkpt>
      <trkpt lat="45.64545" lon="3.18996">
        <ele>365</ele>
        <time>2012-01-25T15:42:01Z</time>
      </trkpt>
      <trkpt lat="45.64559" lon="3.18999">
        <ele>365</ele>
        <time>2012-01-25T15:42:03Z</time>
      </trkpt>
      <trkpt lat="45.64576" lon="3.19002">
        <ele>364</ele>
        <time>2012-01-25T15:42:05Z</time>
      </trkpt>
      <trkpt lat="45.64585" lon="3.19003">
        <ele>363</ele>
        <time>2012-01-25T15:42:06Z</time>
      </trkpt>
      <trkpt lat="45.64594" lon="3.19005">
        <ele>363</ele>
        <time>2012-01-25T15:42:07Z</time>
      </trkpt>
      <trkpt lat="45.64611" lon="3.19008">
        <ele>362</ele>
        <time>2012-01-25T15:42:09Z</time>
      </trkpt>
      <trkpt lat="45.64623" lon="3.19011">
        <ele>361</ele>
        <time>2012-01-25T15:42:11Z</time>
      </trkpt>
      <trkpt lat="45.64632" lon="3.19011">
        <ele>360</ele>
        <time>2012-01-25T15:42:13Z</time>
      </trkpt>
      <trkpt lat="45.64637" lon="3.18999">
        <ele>359</ele>
        <time>2012-01-25T15:42:16Z</time>
      </trkpt>
      <trkpt lat="45.64636" lon="3.18983">
        <ele>359</ele>
        <time>2012-01-25T15:42:18Z</time>
      </trkpt>
      <trkpt lat="45.64634" lon="3.1896">
        <ele>358</ele>
        <time>2012-01-25T15:42:20Z</time>
      </trkpt>
      <trkpt lat="45.64633" lon="3.18947">
        <ele>358</ele>
        <time>2012-01-25T15:42:21Z</time>
      </trkpt>
      <trkpt lat="45.64631" lon="3.18932">
        <ele>357</ele>
        <time>2012-01-25T15:42:22Z</time>
      </trkpt>
      <trkpt lat="45.6463" lon="3.18916">
        <ele>357</ele>
        <time>2012-01-25T15:42:23Z</time>
      </trkpt>
      <trkpt lat="45.64629" lon="3.18901">
        <ele>357</ele>
        <time>2012-01-25T15:42:24Z</time>
      </trkpt>
      <trkpt lat="45.64628" lon="3.18886">
        <ele>356</ele>
        <time>2012-01-25T15:42:25Z</time>
      </trkpt>
      <trkpt lat="45.64627" lon="3.18872">
        <ele>355</ele>
        <time>2012-01-25T15:42:26Z</time>
      </trkpt>
      <trkpt lat="45.64626" lon="3.18859">
        <ele>355</ele>
        <time>2012-01-25T15:42:27Z</time>
      </trkpt>
      <trkpt lat="45.64626" lon="3.18845">
        <ele>355</ele>
        <time>2012-01-25T15:42:28Z</time>
      </trkpt>
      <trkpt lat="45.64627" lon="3.18816">
        <ele>354</ele>
        <time>2012-01-25T15:42:30Z</time>
      </trkpt>
      <trkpt lat="45.64627" lon="3.18801">
        <ele>353</ele>
        <time>2012-01-25T15:42:31Z</time>
      </trkpt>
      <trkpt lat="45.64629" lon="3.18787">
        <ele>353</ele>
        <time>2012-01-25T15:42:32Z</time>
      </trkpt>
      <trkpt lat="45.6463" lon="3.18773">
        <ele>353</ele>
        <time>2012-01-25T15:42:33Z</time>
      </trkpt>
      <trkpt lat="45.64633" lon="3.18751">
        <ele>352</ele>
        <time>2012-01-25T15:42:35Z</time>
      </trkpt>
      <trkpt lat="45.64635" lon="3.18735">
        <ele>352</ele>
        <time>2012-01-25T15:42:37Z</time>
      </trkpt>
      <trkpt lat="45.64644" lon="3.1872">
        <ele>352</ele>
        <time>2012-01-25T15:42:40Z</time>
      </trkpt>
      <trkpt lat="45.64656" lon="3.18721">
        <ele>352</ele>
        <time>2012-01-25T15:42:42Z</time>
      </trkpt>
      <trkpt lat="45.6467" lon="3.1874">
        <ele>352</ele>
        <time>2012-01-25T15:42:44Z</time>
      </trkpt>
      <trkpt lat="45.64677" lon="3.18749">
        <ele>352</ele>
        <time>2012-01-25T15:42:45Z</time>
      </trkpt>
      <trkpt lat="45.64687" lon="3.18758">
        <ele>352</ele>
        <time>2012-01-25T15:42:46Z</time>
      </trkpt>
      <trkpt lat="45.64697" lon="3.18764">
        <ele>351</ele>
        <time>2012-01-25T15:42:47Z</time>
      </trkpt>
      <trkpt lat="45.64708" lon="3.18768">
        <ele>351</ele>
        <time>2012-01-25T15:42:48Z</time>
      </trkpt>
      <trkpt lat="45.64733" lon="3.18769">
        <ele>351</ele>
        <time>2012-01-25T15:42:50Z</time>
      </trkpt>
      <trkpt lat="45.64746" lon="3.18769">
        <ele>350</ele>
        <time>2012-01-25T15:42:51Z</time>
      </trkpt>
      <trkpt lat="45.64758" lon="3.18769">
        <ele>350</ele>
        <time>2012-01-25T15:42:52Z</time>
      </trkpt>
      <trkpt lat="45.64769" lon="3.18769">
        <ele>350</ele>
        <time>2012-01-25T15:42:53Z</time>
      </trkpt>
      <trkpt lat="45.64778" lon="3.1877">
        <ele>350</ele>
        <time>2012-01-25T15:42:54Z</time>
      </trkpt>
      <trkpt lat="45.64792" lon="3.18772">
        <ele>350</ele>
        <time>2012-01-25T15:42:56Z</time>
      </trkpt>
      <trkpt lat="45.648" lon="3.18767">
        <ele>351</ele>
        <time>2012-01-25T15:42:58Z</time>
      </trkpt>
      <trkpt lat="45.64801" lon="3.18748">
        <ele>352</ele>
        <time>2012-01-25T15:43:01Z</time>
      </trkpt>
      <trkpt lat="45.64801" lon="3.18732">
        <ele>353</ele>
        <time>2012-01-25T15:43:03Z</time>
      </trkpt>
      <trkpt lat="45.64802" lon="3.18718">
        <ele>354</ele>
        <time>2012-01-25T15:43:05Z</time>
      </trkpt>
      <trkpt lat="45.64804" lon="3.187">
        <ele>355</ele>
        <time>2012-01-25T15:43:08Z</time>
      </trkpt>
      <trkpt lat="45.64803" lon="3.18684">
        <ele>356</ele>
        <time>2012-01-25T15:43:11Z</time>
      </trkpt>
      <trkpt lat="45.648" lon="3.18668">
        <ele>356</ele>
        <time>2012-01-25T15:43:14Z</time>
      </trkpt>
      <trkpt lat="45.64799" lon="3.18654">
        <ele>356</ele>
        <time>2012-01-25T15:43:16Z</time>
      </trkpt>
      <trkpt lat="45.64799" lon="3.18633">
        <ele>356</ele>
        <time>2012-01-25T15:43:19Z</time>
      </trkpt>
      <trkpt lat="45.64801" lon="3.18614">
        <ele>357</ele>
        <time>2012-01-25T15:43:22Z</time>
      </trkpt>
      <trkpt lat="45.64804" lon="3.18598">
        <ele>356</ele>
        <time>2012-01-25T15:43:26Z</time>
      </trkpt>
      <trkpt lat="45.64807" lon="3.18582">
        <ele>356</ele>
        <time>2012-01-25T15:43:30Z</time>
      </trkpt>
      <trkpt lat="45.64811" lon="3.18567">
        <ele>356</ele>
        <time>2012-01-25T15:43:32Z</time>
      </trkpt>
      <trkpt lat="45.64816" lon="3.18548">
        <ele>356</ele>
        <time>2012-01-25T15:43:34Z</time>
      </trkpt>
      <trkpt lat="45.64821" lon="3.18531">
        <ele>356</ele>
        <time>2012-01-25T15:43:36Z</time>
      </trkpt>
      <trkpt lat="45.64826" lon="3.18516">
        <ele>357</ele>
        <time>2012-01-25T15:43:38Z</time>
      </trkpt>
      <trkpt lat="45.6483" lon="3.18504">
        <ele>358</ele>
        <time>2012-01-25T15:43:40Z</time>
      </trkpt>
      <trkpt lat="45.64833" lon="3.18492">
        <ele>358</ele>
        <time>2012-01-25T15:43:42Z</time>
      </trkpt>
      <trkpt lat="45.64834" lon="3.18475">
        <ele>358</ele>
        <time>2012-01-25T15:43:44Z</time>
      </trkpt>
      <trkpt lat="45.64835" lon="3.1846">
        <ele>359</ele>
        <time>2012-01-25T15:43:46Z</time>
      </trkpt>
      <trkpt lat="45.64837" lon="3.18444">
        <ele>359</ele>
        <time>2012-01-25T15:43:49Z</time>
      </trkpt>
      <trkpt lat="45.64838" lon="3.18429">
        <ele>359</ele>
        <time>2012-01-25T15:43:53Z</time>
      </trkpt>
      <trkpt lat="45.6484" lon="3.18414">
        <ele>360</ele>
        <time>2012-01-25T15:44:00Z</time>
      </trkpt>
      <trkpt lat="45.64844" lon="3.18399">
        <ele>360</ele>
        <time>2012-01-25T15:44:04Z</time>
      </trkpt>
      <trkpt lat="45.6485" lon="3.18385">
        <ele>361</ele>
        <time>2012-01-25T15:44:06Z</time>
      </trkpt>
      <trkpt lat="45.64857" lon="3.18371">
        <ele>362</ele>
        <time>2012-01-25T15:44:08Z</time>
      </trkpt>
      <trkpt lat="45.64865" lon="3.18355">
        <ele>363</ele>
        <time>2012-01-25T15:44:10Z</time>
      </trkpt>
      <trkpt lat="45.64873" lon="3.18337">
        <ele>365</ele>
        <time>2012-01-25T15:44:12Z</time>
      </trkpt>
      <trkpt lat="45.64879" lon="3.1832">
        <ele>365</ele>
        <time>2012-01-25T15:44:14Z</time>
      </trkpt>
      <trkpt lat="45.64883" lon="3.18301">
        <ele>365</ele>
        <time>2012-01-25T15:44:16Z</time>
      </trkpt>
      <trkpt lat="45.64885" lon="3.18281">
        <ele>365</ele>
        <time>2012-01-25T15:44:18Z</time>
      </trkpt>
      <trkpt lat="45.64886" lon="3.18262">
        <ele>365</ele>
        <time>2012-01-25T15:44:20Z</time>
      </trkpt>
      <trkpt lat="45.64888" lon="3.18244">
        <ele>365</ele>
        <time>2012-01-25T15:44:22Z</time>
      </trkpt>
      <trkpt lat="45.64891" lon="3.18228">
        <ele>364</ele>
        <time>2012-01-25T15:44:24Z</time>
      </trkpt>
      <trkpt lat="45.64894" lon="3.18213">
        <ele>364</ele>
        <time>2012-01-25T15:44:26Z</time>
      </trkpt>
      <trkpt lat="45.64898" lon="3.18201">
        <ele>365</ele>
        <time>2012-01-25T15:44:28Z</time>
      </trkpt>
      <trkpt lat="45.64904" lon="3.18184">
        <ele>365</ele>
        <time>2012-01-25T15:44:31Z</time>
      </trkpt>
      <trkpt lat="45.64906" lon="3.18173">
        <ele>365</ele>
        <time>2012-01-25T15:44:35Z</time>
      </trkpt>
      <trkpt lat="45.64907" lon="3.18162">
        <ele>365</ele>
        <time>2012-01-25T15:44:57Z</time>
      </trkpt>
      <trkpt lat="45.64912" lon="3.18149">
        <ele>365</ele>
        <time>2012-01-25T15:45:00Z</time>
      </trkpt>
      <trkpt lat="45.64915" lon="3.18136">
        <ele>365</ele>
        <time>2012-01-25T15:45:02Z</time>
      </trkpt>
      <trkpt lat="45.6492" lon="3.1812">
        <ele>365</ele>
        <time>2012-01-25T15:45:04Z</time>
      </trkpt>
      <trkpt lat="45.64923" lon="3.18103">
        <ele>365</ele>
        <time>2012-01-25T15:45:06Z</time>
      </trkpt>
      <trkpt lat="45.64924" lon="3.18088">
        <ele>365</ele>
        <time>2012-01-25T15:45:08Z</time>
      </trkpt>
      <trkpt lat="45.64926" lon="3.18074">
        <ele>365</ele>
        <time>2012-01-25T15:45:10Z</time>
      </trkpt>
      <trkpt lat="45.64932" lon="3.18066">
        <ele>365</ele>
        <time>2012-01-25T15:45:12Z</time>
      </trkpt>
      <trkpt lat="45.6495" lon="3.18069">
        <ele>367</ele>
        <time>2012-01-25T15:45:15Z</time>
      </trkpt>
      <trkpt lat="45.64969" lon="3.18075">
        <ele>368</ele>
        <time>2012-01-25T15:45:17Z</time>
      </trkpt>
      <trkpt lat="45.6498" lon="3.18078">
        <ele>370</ele>
        <time>2012-01-25T15:45:18Z</time>
      </trkpt>
      <trkpt lat="45.64991" lon="3.1808">
        <ele>371</ele>
        <time>2012-01-25T15:45:19Z</time>
      </trkpt>
      <trkpt lat="45.65001" lon="3.18083">
        <ele>373</ele>
        <time>2012-01-25T15:45:20Z</time>
      </trkpt>
      <trkpt lat="45.65013" lon="3.18086">
        <ele>375</ele>
        <time>2012-01-25T15:45:21Z</time>
      </trkpt>
      <trkpt lat="45.65024" lon="3.18089">
        <ele>377</ele>
        <time>2012-01-25T15:45:22Z</time>
      </trkpt>
      <trkpt lat="45.65034" lon="3.18091">
        <ele>379</ele>
        <time>2012-01-25T15:45:23Z</time>
      </trkpt>
      <trkpt lat="45.65044" lon="3.18092">
        <ele>380</ele>
        <time>2012-01-25T15:45:24Z</time>
      </trkpt>
      <trkpt lat="45.65063" lon="3.18088">
        <ele>383</ele>
        <time>2012-01-25T15:45:26Z</time>
      </trkpt>
      <trkpt lat="45.65073" lon="3.18084">
        <ele>384</ele>
        <time>2012-01-25T15:45:27Z</time>
      </trkpt>
      <trkpt lat="45.65081" lon="3.18081">
        <ele>385</ele>
        <time>2012-01-25T15:45:28Z</time>
      </trkpt>
      <trkpt lat="45.651" lon="3.18078">
        <ele>388</ele>
        <time>2012-01-25T15:45:30Z</time>
      </trkpt>
      <trkpt lat="45.6511" lon="3.18077">
        <ele>390</ele>
        <time>2012-01-25T15:45:31Z</time>
      </trkpt>
      <trkpt lat="45.65119" lon="3.18077">
        <ele>391</ele>
        <time>2012-01-25T15:45:32Z</time>
      </trkpt>
      <trkpt lat="45.65129" lon="3.18076">
        <ele>393</ele>
        <time>2012-01-25T15:45:33Z</time>
      </trkpt>
      <trkpt lat="45.65147" lon="3.18074">
        <ele>396</ele>
        <time>2012-01-25T15:45:35Z</time>
      </trkpt>
      <trkpt lat="45.65156" lon="3.18073">
        <ele>398</ele>
        <time>2012-01-25T15:45:36Z</time>
      </trkpt>
      <trkpt lat="45.65173" lon="3.18073">
        <ele>401</ele>
        <time>2012-01-25T15:45:38Z</time>
      </trkpt>
      <trkpt lat="45.6519" lon="3.18078">
        <ele>404</ele>
        <time>2012-01-25T15:45:40Z</time>
      </trkpt>
      <trkpt lat="45.65199" lon="3.18081">
        <ele>406</ele>
        <time>2012-01-25T15:45:41Z</time>
      </trkpt>
      <trkpt lat="45.65215" lon="3.18086">
        <ele>410</ele>
        <time>2012-01-25T15:45:43Z</time>
      </trkpt>
      <trkpt lat="45.65227" lon="3.18095">
        <ele>412</ele>
        <time>2012-01-25T15:45:45Z</time>
      </trkpt>
      <trkpt lat="45.65234" lon="3.18113">
        <ele>414</ele>
        <time>2012-01-25T15:45:47Z</time>
      </trkpt>
      <trkpt lat="45.65241" lon="3.18127">
        <ele>416</ele>
        <time>2012-01-25T15:45:49Z</time>
      </trkpt>
      <trkpt lat="45.65253" lon="3.18134">
        <ele>418</ele>
        <time>2012-01-25T15:45:51Z</time>
      </trkpt>
      <trkpt lat="45.65266" lon="3.18137">
        <ele>421</ele>
        <time>2012-01-25T15:45:53Z</time>
      </trkpt>
      <trkpt lat="45.65279" lon="3.18139">
        <ele>423</ele>
        <time>2012-01-25T15:45:55Z</time>
      </trkpt>
      <trkpt lat="45.65289" lon="3.18142">
        <ele>425</ele>
        <time>2012-01-25T15:45:57Z</time>
      </trkpt>
      <trkpt lat="45.653" lon="3.18145">
        <ele>427</ele>
        <time>2012-01-25T15:46:00Z</time>
      </trkpt>
      <trkpt lat="45.65309" lon="3.18146">
        <ele>429</ele>
        <time>2012-01-25T15:46:03Z</time>
      </trkpt>
      <trkpt lat="45.65313" lon="3.1816">
        <ele>429</ele>
        <time>2012-01-25T15:46:09Z</time>
      </trkpt>
      <trkpt lat="45.65311" lon="3.18176">
        <ele>429</ele>
        <time>2012-01-25T15:46:11Z</time>
      </trkpt>
      <trkpt lat="45.65309" lon="3.18199">
        <ele>429</ele>
        <time>2012-01-25T15:46:13Z</time>
      </trkpt>
      <trkpt lat="45.65305" lon="3.18224">
        <ele>428</ele>
        <time>2012-01-25T15:46:15Z</time>
      </trkpt>
      <trkpt lat="45.65303" lon="3.18236">
        <ele>428</ele>
        <time>2012-01-25T15:46:16Z</time>
      </trkpt>
      <trkpt lat="45.65302" lon="3.18258">
        <ele>427</ele>
        <time>2012-01-25T15:46:18Z</time>
      </trkpt>
      <trkpt lat="45.65306" lon="3.18272">
        <ele>428</ele>
        <time>2012-01-25T15:46:20Z</time>
      </trkpt>
      <trkpt lat="45.65315" lon="3.18279">
        <ele>429</ele>
        <time>2012-01-25T15:46:22Z</time>
      </trkpt>
      <trkpt lat="45.65326" lon="3.18284">
        <ele>431</ele>
        <time>2012-01-25T15:46:24Z</time>
      </trkpt>
      <trkpt lat="45.65339" lon="3.18287">
        <ele>433</ele>
        <time>2012-01-25T15:46:26Z</time>
      </trkpt>
      <trkpt lat="45.65353" lon="3.18289">
        <ele>435</ele>
        <time>2012-01-25T15:46:28Z</time>
      </trkpt>
      <trkpt lat="45.65366" lon="3.18291">
        <ele>437</ele>
        <time>2012-01-25T15:46:30Z</time>
      </trkpt>
      <trkpt lat="45.65378" lon="3.18295">
        <ele>439</ele>
        <time>2012-01-25T15:46:32Z</time>
      </trkpt>
      <trkpt lat="45.65391" lon="3.18296">
        <ele>441</ele>
        <time>2012-01-25T15:46:34Z</time>
      </trkpt>
      <trkpt lat="45.65403" lon="3.18293">
        <ele>442</ele>
        <time>2012-01-25T15:46:36Z</time>
      </trkpt>
      <trkpt lat="45.65412" lon="3.18288">
        <ele>444</ele>
        <time>2012-01-25T15:46:38Z</time>
      </trkpt>
      <trkpt lat="45.65424" lon="3.18283">
        <ele>446</ele>
        <time>2012-01-25T15:46:41Z</time>
      </trkpt>
      <trkpt lat="45.65437" lon="3.1828">
        <ele>448</ele>
        <time>2012-01-25T15:46:44Z</time>
      </trkpt>
      <trkpt lat="45.65446" lon="3.18279">
        <ele>449</ele>
        <time>2012-01-25T15:46:46Z</time>
      </trkpt>
      <trkpt lat="45.65459" lon="3.18279">
        <ele>452</ele>
        <time>2012-01-25T15:46:49Z</time>
      </trkpt>
      <trkpt lat="45.65468" lon="3.1828">
        <ele>453</ele>
        <time>2012-01-25T15:46:51Z</time>
      </trkpt>
      <trkpt lat="45.65478" lon="3.18281">
        <ele>455</ele>
        <time>2012-01-25T15:46:53Z</time>
      </trkpt>
      <trkpt lat="45.65489" lon="3.18283">
        <ele>457</ele>
        <time>2012-01-25T15:46:55Z</time>
      </trkpt>
      <trkpt lat="45.65501" lon="3.18284">
        <ele>459</ele>
        <time>2012-01-25T15:46:57Z</time>
      </trkpt>
      <trkpt lat="45.65512" lon="3.18285">
        <ele>461</ele>
        <time>2012-01-25T15:46:59Z</time>
      </trkpt>
      <trkpt lat="45.65521" lon="3.18287">
        <ele>462</ele>
        <time>2012-01-25T15:47:01Z</time>
      </trkpt>
      <trkpt lat="45.65533" lon="3.18289">
        <ele>465</ele>
        <time>2012-01-25T15:47:04Z</time>
      </trkpt>
      <trkpt lat="45.65544" lon="3.18291">
        <ele>467</ele>
        <time>2012-01-25T15:47:07Z</time>
      </trkpt>
      <trkpt lat="45.65552" lon="3.18287">
        <ele>468</ele>
        <time>2012-01-25T15:47:10Z</time>
      </trkpt>
      <trkpt lat="45.65555" lon="3.18273">
        <ele>468</ele>
        <time>2012-01-25T15:47:13Z</time>
      </trkpt>
      <trkpt lat="45.65557" lon="3.18258">
        <ele>469</ele>
        <time>2012-01-25T15:47:15Z</time>
      </trkpt>
      <trkpt lat="45.65559" lon="3.18241">
        <ele>469</ele>
        <time>2012-01-25T15:47:17Z</time>
      </trkpt>
      <trkpt lat="45.65558" lon="3.18222">
        <ele>469</ele>
        <time>2012-01-25T15:47:19Z</time>
      </trkpt>
      <trkpt lat="45.65556" lon="3.18203">
        <ele>469</ele>
        <time>2012-01-25T15:47:21Z</time>
      </trkpt>
      <trkpt lat="45.65553" lon="3.18185">
        <ele>469</ele>
        <time>2012-01-25T15:47:23Z</time>
      </trkpt>
      <trkpt lat="45.65552" lon="3.18168">
        <ele>469</ele>
        <time>2012-01-25T15:47:25Z</time>
      </trkpt>
      <trkpt lat="45.65552" lon="3.1815">
        <ele>471</ele>
        <time>2012-01-25T15:47:28Z</time>
      </trkpt>
      <trkpt lat="45.65553" lon="3.18136">
        <ele>472</ele>
        <time>2012-01-25T15:47:31Z</time>
      </trkpt>
      <trkpt lat="45.65554" lon="3.1812">
        <ele>473</ele>
        <time>2012-01-25T15:47:34Z</time>
      </trkpt>
      <trkpt lat="45.65555" lon="3.18105">
        <ele>475</ele>
        <time>2012-01-25T15:47:37Z</time>
      </trkpt>
      <trkpt lat="45.6556" lon="3.18092">
        <ele>477</ele>
        <time>2012-01-25T15:47:40Z</time>
      </trkpt>
      <trkpt lat="45.65566" lon="3.18079">
        <ele>479</ele>
        <time>2012-01-25T15:47:43Z</time>
      </trkpt>
      <trkpt lat="45.65573" lon="3.18066">
        <ele>482</ele>
        <time>2012-01-25T15:47:46Z</time>
      </trkpt>
      <trkpt lat="45.65577" lon="3.18049">
        <ele>484</ele>
        <time>2012-01-25T15:47:49Z</time>
      </trkpt>
      <trkpt lat="45.65577" lon="3.18037">
        <ele>485</ele>
        <time>2012-01-25T15:47:51Z</time>
      </trkpt>
      <trkpt lat="45.65576" lon="3.18023">
        <ele>486</ele>
        <time>2012-01-25T15:47:53Z</time>
      </trkpt>
      <trkpt lat="45.65574" lon="3.18007">
        <ele>487</ele>
        <time>2012-01-25T15:47:55Z</time>
      </trkpt>
      <trkpt lat="45.65572" lon="3.17996">
        <ele>487</ele>
        <time>2012-01-25T15:48:05Z</time>
      </trkpt>
      <trkpt lat="45.6557" lon="3.17978">
        <ele>488</ele>
        <time>2012-01-25T15:48:09Z</time>
      </trkpt>
      <trkpt lat="45.65568" lon="3.17964">
        <ele>489</ele>
        <time>2012-01-25T15:48:12Z</time>
      </trkpt>
      <trkpt lat="45.65566" lon="3.17951">
        <ele>489</ele>
        <time>2012-01-25T15:48:15Z</time>
      </trkpt>
      <trkpt lat="45.65565" lon="3.17937">
        <ele>490</ele>
        <time>2012-01-25T15:48:17Z</time>
      </trkpt>
      <trkpt lat="45.65564" lon="3.17921">
        <ele>491</ele>
        <time>2012-01-25T15:48:19Z</time>
      </trkpt>
      <trkpt lat="45.65563" lon="3.17906">
        <ele>492</ele>
        <time>2012-01-25T15:48:21Z</time>
      </trkpt>
      <trkpt lat="45.65561" lon="3.17892">
        <ele>492</ele>
        <time>2012-01-25T15:48:23Z</time>
      </trkpt>
      <trkpt lat="45.65559" lon="3.17877">
        <ele>492</ele>
        <time>2012-01-25T15:48:25Z</time>
      </trkpt>
      <trkpt lat="45.65561" lon="3.1786">
        <ele>494</ele>
        <time>2012-01-25T15:48:27Z</time>
      </trkpt>
      <trkpt lat="45.65569" lon="3.17845">
        <ele>496</ele>
        <time>2012-01-25T15:48:29Z</time>
      </trkpt>
      <trkpt lat="45.65575" lon="3.17827">
        <ele>498</ele>
        <time>2012-01-25T15:48:31Z</time>
      </trkpt>
      <trkpt lat="45.65583" lon="3.17811">
        <ele>499</ele>
        <time>2012-01-25T15:48:33Z</time>
      </trkpt>
      <trkpt lat="45.65592" lon="3.17794">
        <ele>501</ele>
        <time>2012-01-25T15:48:35Z</time>
      </trkpt>
      <trkpt lat="45.65602" lon="3.17774">
        <ele>503</ele>
        <time>2012-01-25T15:48:37Z</time>
      </trkpt>
      <trkpt lat="45.65607" lon="3.17763">
        <ele>504</ele>
        <time>2012-01-25T15:48:38Z</time>
      </trkpt>
      <trkpt lat="45.65617" lon="3.1774">
        <ele>505</ele>
        <time>2012-01-25T15:48:40Z</time>
      </trkpt>
      <trkpt lat="45.65621" lon="3.1773">
        <ele>505</ele>
        <time>2012-01-25T15:48:41Z</time>
      </trkpt>
      <trkpt lat="45.65628" lon="3.17709">
        <ele>505</ele>
        <time>2012-01-25T15:48:43Z</time>
      </trkpt>
      <trkpt lat="45.65635" lon="3.17687">
        <ele>506</ele>
        <time>2012-01-25T15:48:45Z</time>
      </trkpt>
      <trkpt lat="45.65642" lon="3.17666">
        <ele>506</ele>
        <time>2012-01-25T15:48:47Z</time>
      </trkpt>
      <trkpt lat="45.65647" lon="3.17649">
        <ele>505</ele>
        <time>2012-01-25T15:48:49Z</time>
      </trkpt>
      <trkpt lat="45.65654" lon="3.1763">
        <ele>504</ele>
        <time>2012-01-25T15:48:51Z</time>
      </trkpt>
      <trkpt lat="45.65662" lon="3.17608">
        <ele>502</ele>
        <time>2012-01-25T15:48:53Z</time>
      </trkpt>
      <trkpt lat="45.65668" lon="3.17584">
        <ele>501</ele>
        <time>2012-01-25T15:48:55Z</time>
      </trkpt>
      <trkpt lat="45.65672" lon="3.17573">
        <ele>500</ele>
        <time>2012-01-25T15:48:56Z</time>
      </trkpt>
      <trkpt lat="45.65682" lon="3.17553">
        <ele>500</ele>
        <time>2012-01-25T15:48:58Z</time>
      </trkpt>
      <trkpt lat="45.65694" lon="3.17534">
        <ele>500</ele>
        <time>2012-01-25T15:49:00Z</time>
      </trkpt>
      <trkpt lat="45.65703" lon="3.1752">
        <ele>501</ele>
        <time>2012-01-25T15:49:02Z</time>
      </trkpt>
      <trkpt lat="45.65713" lon="3.17517">
        <ele>502</ele>
        <time>2012-01-25T15:49:04Z</time>
      </trkpt>
      <trkpt lat="45.65721" lon="3.17525">
        <ele>505</ele>
        <time>2012-01-25T15:49:06Z</time>
      </trkpt>
      <trkpt lat="45.65728" lon="3.17537">
        <ele>508</ele>
        <time>2012-01-25T15:49:08Z</time>
      </trkpt>
      <trkpt lat="45.65737" lon="3.17549">
        <ele>512</ele>
        <time>2012-01-25T15:49:11Z</time>
      </trkpt>
      <trkpt lat="45.65748" lon="3.17548">
        <ele>515</ele>
        <time>2012-01-25T15:49:15Z</time>
      </trkpt>
      <trkpt lat="45.65754" lon="3.17538">
        <ele>515</ele>
        <time>2012-01-25T15:49:17Z</time>
      </trkpt>
      <trkpt lat="45.65765" lon="3.17524">
        <ele>515</ele>
        <time>2012-01-25T15:49:19Z</time>
      </trkpt>
      <trkpt lat="45.65775" lon="3.17509">
        <ele>515</ele>
        <time>2012-01-25T15:49:21Z</time>
      </trkpt>
      <trkpt lat="45.65784" lon="3.17499">
        <ele>515</ele>
        <time>2012-01-25T15:49:23Z</time>
      </trkpt>
      <trkpt lat="45.65786" lon="3.17493">
        <ele>514</ele>
        <time>2012-01-25T15:49:35Z</time>
      </trkpt>
      <trkpt lat="45.65785" lon="3.17474">
        <ele>510</ele>
        <time>2012-01-25T15:49:39Z</time>
      </trkpt>
      <trkpt lat="45.65783" lon="3.1746">
        <ele>506</ele>
        <time>2012-01-25T15:49:41Z</time>
      </trkpt>
      <trkpt lat="45.6578" lon="3.17447">
        <ele>503</ele>
        <time>2012-01-25T15:49:43Z</time>
      </trkpt>
      <trkpt lat="45.65778" lon="3.17429">
        <ele>500</ele>
        <time>2012-01-25T15:49:46Z</time>
      </trkpt>
      <trkpt lat="45.65774" lon="3.1741">
        <ele>496</ele>
        <time>2012-01-25T15:49:49Z</time>
      </trkpt>
      <trkpt lat="45.65772" lon="3.17397">
        <ele>493</ele>
        <time>2012-01-25T15:49:51Z</time>
      </trkpt>
      <trkpt lat="45.65769" lon="3.17381">
        <ele>490</ele>
        <time>2012-01-25T15:49:55Z</time>
      </trkpt>
      <trkpt lat="45.65766" lon="3.17363">
        <ele>487</ele>
        <time>2012-01-25T15:49:58Z</time>
      </trkpt>
      <trkpt lat="45.65763" lon="3.1735">
        <ele>485</ele>
        <time>2012-01-25T15:50:02Z</time>
      </trkpt>
      <trkpt lat="45.6576" lon="3.17332">
        <ele>481</ele>
        <time>2012-01-25T15:50:05Z</time>
      </trkpt>
      <trkpt lat="45.65758" lon="3.17317">
        <ele>479</ele>
        <time>2012-01-25T15:50:08Z</time>
      </trkpt>
      <trkpt lat="45.65762" lon="3.17306">
        <ele>478</ele>
        <time>2012-01-25T15:50:12Z</time>
      </trkpt>
      <trkpt lat="45.65776" lon="3.17303">
        <ele>479</ele>
        <time>2012-01-25T15:50:15Z</time>
      </trkpt>
      <trkpt lat="45.65789" lon="3.17302">
        <ele>480</ele>
        <time>2012-01-25T15:50:17Z</time>
      </trkpt>
      <trkpt lat="45.65804" lon="3.17301">
        <ele>482</ele>
        <time>2012-01-25T15:50:19Z</time>
      </trkpt>
      <trkpt lat="45.6582" lon="3.17298">
        <ele>482</ele>
        <time>2012-01-25T15:50:21Z</time>
      </trkpt>
      <trkpt lat="45.65835" lon="3.17296">
        <ele>483</ele>
        <time>2012-01-25T15:50:23Z</time>
      </trkpt>
      <trkpt lat="45.65844" lon="3.17295">
        <ele>483</ele>
        <time>2012-01-25T15:50:25Z</time>
      </trkpt>
      <trkpt lat="45.65856" lon="3.17296">
        <ele>484</ele>
        <time>2012-01-25T15:50:47Z</time>
      </trkpt>
      <trkpt lat="45.65868" lon="3.1729">
        <ele>484</ele>
        <time>2012-01-25T15:50:50Z</time>
      </trkpt>
      <trkpt lat="45.6588" lon="3.17284">
        <ele>483</ele>
        <time>2012-01-25T15:50:53Z</time>
      </trkpt>
      <trkpt lat="45.6589" lon="3.1728">
        <ele>483</ele>
        <time>2012-01-25T15:50:56Z</time>
      </trkpt>
      <trkpt lat="45.65889" lon="3.17268">
        <ele>480</ele>
        <time>2012-01-25T15:51:01Z</time>
      </trkpt>
      <trkpt lat="45.65883" lon="3.17251">
        <ele>477</ele>
        <time>2012-01-25T15:51:04Z</time>
      </trkpt>
      <trkpt lat="45.65879" lon="3.17233">
        <ele>473</ele>
        <time>2012-01-25T15:51:06Z</time>
      </trkpt>
      <trkpt lat="45.65876" lon="3.17214">
        <ele>469</ele>
        <time>2012-01-25T15:51:08Z</time>
      </trkpt>
      <trkpt lat="45.65873" lon="3.17193">
        <ele>465</ele>
        <time>2012-01-25T15:51:10Z</time>
      </trkpt>
      <trkpt lat="45.6587" lon="3.17171">
        <ele>461</ele>
        <time>2012-01-25T15:51:12Z</time>
      </trkpt>
      <trkpt lat="45.65865" lon="3.17147">
        <ele>457</ele>
        <time>2012-01-25T15:51:14Z</time>
      </trkpt>
      <trkpt lat="45.65864" lon="3.17126">
        <ele>454</ele>
        <time>2012-01-25T15:51:16Z</time>
      </trkpt>
      <trkpt lat="45.65861" lon="3.17105">
        <ele>451</ele>
        <time>2012-01-25T15:51:18Z</time>
      </trkpt>
      <trkpt lat="45.65858" lon="3.17082">
        <ele>448</ele>
        <time>2012-01-25T15:51:20Z</time>
      </trkpt>
      <trkpt lat="45.65856" lon="3.17069">
        <ele>446</ele>
        <time>2012-01-25T15:51:21Z</time>
      </trkpt>
      <trkpt lat="45.65855" lon="3.17055">
        <ele>444</ele>
        <time>2012-01-25T15:51:22Z</time>
      </trkpt>
      <trkpt lat="45.65853" lon="3.1704">
        <ele>442</ele>
        <time>2012-01-25T15:51:23Z</time>
      </trkpt>
      <trkpt lat="45.65851" lon="3.17024">
        <ele>440</ele>
        <time>2012-01-25T15:51:24Z</time>
      </trkpt>
      <trkpt lat="45.65851" lon="3.17008">
        <ele>438</ele>
        <time>2012-01-25T15:51:25Z</time>
      </trkpt>
      <trkpt lat="45.6585" lon="3.1699">
        <ele>436</ele>
        <time>2012-01-25T15:51:26Z</time>
      </trkpt>
      <trkpt lat="45.65849" lon="3.16973">
        <ele>434</ele>
        <time>2012-01-25T15:51:27Z</time>
      </trkpt>
      <trkpt lat="45.65848" lon="3.16954">
        <ele>431</ele>
        <time>2012-01-25T15:51:28Z</time>
      </trkpt>
      <trkpt lat="45.65848" lon="3.16936">
        <ele>429</ele>
        <time>2012-01-25T15:51:29Z</time>
      </trkpt>
      <trkpt lat="45.65847" lon="3.16918">
        <ele>427</ele>
        <time>2012-01-25T15:51:30Z</time>
      </trkpt>
      <trkpt lat="45.65847" lon="3.169">
        <ele>425</ele>
        <time>2012-01-25T15:51:31Z</time>
      </trkpt>
      <trkpt lat="45.65846" lon="3.16884">
        <ele>424</ele>
        <time>2012-01-25T15:51:32Z</time>
      </trkpt>
      <trkpt lat="45.65845" lon="3.1687">
        <ele>422</ele>
        <time>2012-01-25T15:51:33Z</time>
      </trkpt>
      <trkpt lat="45.65844" lon="3.16843">
        <ele>419</ele>
        <time>2012-01-25T15:51:35Z</time>
      </trkpt>
      <trkpt lat="45.65844" lon="3.16829">
        <ele>418</ele>
        <time>2012-01-25T15:51:36Z</time>
      </trkpt>
      <trkpt lat="45.65843" lon="3.16814">
        <ele>416</ele>
        <time>2012-01-25T15:51:37Z</time>
      </trkpt>
      <trkpt lat="45.65843" lon="3.16798">
        <ele>415</ele>
        <time>2012-01-25T15:51:38Z</time>
      </trkpt>
      <trkpt lat="45.65842" lon="3.16782">
        <ele>413</ele>
        <time>2012-01-25T15:51:39Z</time>
      </trkpt>
      <trkpt lat="45.65841" lon="3.16765">
        <ele>411</ele>
        <time>2012-01-25T15:51:40Z</time>
      </trkpt>
      <trkpt lat="45.6584" lon="3.16747">
        <ele>409</ele>
        <time>2012-01-25T15:51:41Z</time>
      </trkpt>
      <trkpt lat="45.65838" lon="3.16729">
        <ele>408</ele>
        <time>2012-01-25T15:51:42Z</time>
      </trkpt>
      <trkpt lat="45.65836" lon="3.1671">
        <ele>406</ele>
        <time>2012-01-25T15:51:43Z</time>
      </trkpt>
      <trkpt lat="45.65835" lon="3.16691">
        <ele>405</ele>
        <time>2012-01-25T15:51:44Z</time>
      </trkpt>
      <trkpt lat="45.65834" lon="3.16674">
        <ele>404</ele>
        <time>2012-01-25T15:51:45Z</time>
      </trkpt>
      <trkpt lat="45.65833" lon="3.16657">
        <ele>403</ele>
        <time>2012-01-25T15:51:46Z</time>
      </trkpt>
      <trkpt lat="45.65832" lon="3.16643">
        <ele>402</ele>
        <time>2012-01-25T15:51:47Z</time>
      </trkpt>
      <trkpt lat="45.65832" lon="3.16629">
        <ele>401</ele>
        <time>2012-01-25T15:51:48Z</time>
      </trkpt>
      <trkpt lat="45.65831" lon="3.16608">
        <ele>400</ele>
        <time>2012-01-25T15:51:50Z</time>
      </trkpt>
      <trkpt lat="45.6583" lon="3.16597">
        <ele>400</ele>
        <time>2012-01-25T15:51:52Z</time>
      </trkpt>
      <trkpt lat="45.65815" lon="3.16593">
        <ele>399</ele>
        <time>2012-01-25T15:51:55Z</time>
      </trkpt>
      <trkpt lat="45.65799" lon="3.16605">
        <ele>398</ele>
        <time>2012-01-25T15:51:57Z</time>
      </trkpt>
      <trkpt lat="45.65783" lon="3.1662">
        <ele>396</ele>
        <time>2012-01-25T15:51:59Z</time>
      </trkpt>
      <trkpt lat="45.65768" lon="3.16634">
        <ele>395</ele>
        <time>2012-01-25T15:52:01Z</time>
      </trkpt>
      <trkpt lat="45.65752" lon="3.16649">
        <ele>393</ele>
        <time>2012-01-25T15:52:03Z</time>
      </trkpt>
      <trkpt lat="45.65743" lon="3.16656">
        <ele>392</ele>
        <time>2012-01-25T15:52:04Z</time>
      </trkpt>
      <trkpt lat="45.65734" lon="3.16665">
        <ele>391</ele>
        <time>2012-01-25T15:52:05Z</time>
      </trkpt>
      <trkpt lat="45.65723" lon="3.16674">
        <ele>390</ele>
        <time>2012-01-25T15:52:06Z</time>
      </trkpt>
      <trkpt lat="45.65711" lon="3.16684">
        <ele>389</ele>
        <time>2012-01-25T15:52:07Z</time>
      </trkpt>
      <trkpt lat="45.65698" lon="3.16694">
        <ele>388</ele>
        <time>2012-01-25T15:52:08Z</time>
      </trkpt>
      <trkpt lat="45.65684" lon="3.16705">
        <ele>388</ele>
        <time>2012-01-25T15:52:09Z</time>
      </trkpt>
      <trkpt lat="45.6567" lon="3.16715">
        <ele>387</ele>
        <time>2012-01-25T15:52:10Z</time>
      </trkpt>
      <trkpt lat="45.65657" lon="3.16724">
        <ele>386</ele>
        <time>2012-01-25T15:52:11Z</time>
      </trkpt>
      <trkpt lat="45.65643" lon="3.16734">
        <ele>385</ele>
        <time>2012-01-25T15:52:12Z</time>
      </trkpt>
      <trkpt lat="45.6563" lon="3.16742">
        <ele>384</ele>
        <time>2012-01-25T15:52:13Z</time>
      </trkpt>
      <trkpt lat="45.65617" lon="3.16751">
        <ele>384</ele>
        <time>2012-01-25T15:52:14Z</time>
      </trkpt>
      <trkpt lat="45.65605" lon="3.1676">
        <ele>383</ele>
        <time>2012-01-25T15:52:15Z</time>
      </trkpt>
      <trkpt lat="45.65592" lon="3.16767">
        <ele>383</ele>
        <time>2012-01-25T15:52:16Z</time>
      </trkpt>
      <trkpt lat="45.6558" lon="3.16775">
        <ele>383</ele>
        <time>2012-01-25T15:52:17Z</time>
      </trkpt>
      <trkpt lat="45.65568" lon="3.16782">
        <ele>382</ele>
        <time>2012-01-25T15:52:18Z</time>
      </trkpt>
      <trkpt lat="45.65558" lon="3.16789">
        <ele>382</ele>
        <time>2012-01-25T15:52:19Z</time>
      </trkpt>
      <trkpt lat="45.65548" lon="3.16796">
        <ele>381</ele>
        <time>2012-01-25T15:52:20Z</time>
      </trkpt>
      <trkpt lat="45.65538" lon="3.16802">
        <ele>380</ele>
        <time>2012-01-25T15:52:21Z</time>
      </trkpt>
      <trkpt lat="45.65529" lon="3.16806">
        <ele>379</ele>
        <time>2012-01-25T15:52:22Z</time>
      </trkpt>
      <trkpt lat="45.6552" lon="3.16807">
        <ele>379</ele>
        <time>2012-01-25T15:52:23Z</time>
      </trkpt>
      <trkpt lat="45.65505" lon="3.16803">
        <ele>377</ele>
        <time>2012-01-25T15:52:25Z</time>
      </trkpt>
      <trkpt lat="45.65503" lon="3.16791">
        <ele>377</ele>
        <time>2012-01-25T15:52:27Z</time>
      </trkpt>
      <trkpt lat="45.65508" lon="3.16775">
        <ele>377</ele>
        <time>2012-01-25T15:52:29Z</time>
      </trkpt>
      <trkpt lat="45.6552" lon="3.1676">
        <ele>378</ele>
        <time>2012-01-25T15:52:31Z</time>
      </trkpt>
      <trkpt lat="45.65529" lon="3.16751">
        <ele>378</ele>
        <time>2012-01-25T15:52:32Z</time>
      </trkpt>
      <trkpt lat="45.65539" lon="3.16742">
        <ele>378</ele>
        <time>2012-01-25T15:52:33Z</time>
      </trkpt>
      <trkpt lat="45.65549" lon="3.1673">
        <ele>378</ele>
        <time>2012-01-25T15:52:34Z</time>
      </trkpt>
      <trkpt lat="45.65561" lon="3.16718">
        <ele>379</ele>
        <time>2012-01-25T15:52:35Z</time>
      </trkpt>
      <trkpt lat="45.65574" lon="3.16706">
        <ele>379</ele>
        <time>2012-01-25T15:52:36Z</time>
      </trkpt>
      <trkpt lat="45.65586" lon="3.16695">
        <ele>378</ele>
        <time>2012-01-25T15:52:37Z</time>
      </trkpt>
      <trkpt lat="45.65599" lon="3.16684">
        <ele>378</ele>
        <time>2012-01-25T15:52:38Z</time>
      </trkpt>
      <trkpt lat="45.65611" lon="3.16674">
        <ele>379</ele>
        <time>2012-01-25T15:52:39Z</time>
      </trkpt>
      <trkpt lat="45.65621" lon="3.16665">
        <ele>379</ele>
        <time>2012-01-25T15:52:40Z</time>
      </trkpt>
      <trkpt lat="45.6563" lon="3.16658">
        <ele>379</ele>
        <time>2012-01-25T15:52:41Z</time>
      </trkpt>
      <trkpt lat="45.6564" lon="3.16642">
        <ele>379</ele>
        <time>2012-01-25T15:52:43Z</time>
      </trkpt>
      <trkpt lat="45.65642" lon="3.16622">
        <ele>378</ele>
        <time>2012-01-25T15:52:45Z</time>
      </trkpt>
      <trkpt lat="45.65645" lon="3.16611">
        <ele>378</ele>
        <time>2012-01-25T15:52:46Z</time>
      </trkpt>
      <trkpt lat="45.65651" lon="3.16589">
        <ele>377</ele>
        <time>2012-01-25T15:52:48Z</time>
      </trkpt>
      <trkpt lat="45.65657" lon="3.16569">
        <ele>377</ele>
        <time>2012-01-25T15:52:50Z</time>
      </trkpt>
      <trkpt lat="45.65663" lon="3.1655">
        <ele>376</ele>
        <time>2012-01-25T15:52:52Z</time>
      </trkpt>
      <trkpt lat="45.6567" lon="3.16533">
        <ele>376</ele>
        <time>2012-01-25T15:52:54Z</time>
      </trkpt>
      <trkpt lat="45.65675" lon="3.16514">
        <ele>376</ele>
        <time>2012-01-25T15:52:56Z</time>
      </trkpt>
      <trkpt lat="45.6568" lon="3.16497">
        <ele>376</ele>
        <time>2012-01-25T15:52:58Z</time>
      </trkpt>
      <trkpt lat="45.65686" lon="3.16479">
        <ele>377</ele>
        <time>2012-01-25T15:53:00Z</time>
      </trkpt>
      <trkpt lat="45.65693" lon="3.16463">
        <ele>378</ele>
        <time>2012-01-25T15:53:02Z</time>
      </trkpt>
      <trkpt lat="45.65701" lon="3.16446">
        <ele>378</ele>
        <time>2012-01-25T15:53:04Z</time>
      </trkpt>
      <trkpt lat="45.65711" lon="3.16425">
        <ele>379</ele>
        <time>2012-01-25T15:53:06Z</time>
      </trkpt>
      <trkpt lat="45.65716" lon="3.16412">
        <ele>380</ele>
        <time>2012-01-25T15:53:07Z</time>
      </trkpt>
      <trkpt lat="45.65722" lon="3.16398">
        <ele>380</ele>
        <time>2012-01-25T15:53:08Z</time>
      </trkpt>
      <trkpt lat="45.65728" lon="3.16384">
        <ele>381</ele>
        <time>2012-01-25T15:53:09Z</time>
      </trkpt>
      <trkpt lat="45.65734" lon="3.1637">
        <ele>381</ele>
        <time>2012-01-25T15:53:10Z</time>
      </trkpt>
      <trkpt lat="45.65739" lon="3.16355">
        <ele>381</ele>
        <time>2012-01-25T15:53:11Z</time>
      </trkpt>
      <trkpt lat="45.65744" lon="3.16341">
        <ele>381</ele>
        <time>2012-01-25T15:53:12Z</time>
      </trkpt>
      <trkpt lat="45.65749" lon="3.16327">
        <ele>381</ele>
        <time>2012-01-25T15:53:13Z</time>
      </trkpt>
      <trkpt lat="45.65754" lon="3.16313">
        <ele>381</ele>
        <time>2012-01-25T15:53:14Z</time>
      </trkpt>
      <trkpt lat="45.65759" lon="3.16299">
        <ele>381</ele>
        <time>2012-01-25T15:53:15Z</time>
      </trkpt>
      <trkpt lat="45.65763" lon="3.16286">
        <ele>381</ele>
        <time>2012-01-25T15:53:16Z</time>
      </trkpt>
      <trkpt lat="45.65768" lon="3.16272">
        <ele>381</ele>
        <time>2012-01-25T15:53:17Z</time>
      </trkpt>
      <trkpt lat="45.65773" lon="3.16257">
        <ele>381</ele>
        <time>2012-01-25T15:53:18Z</time>
      </trkpt>
      <trkpt lat="45.65777" lon="3.16241">
        <ele>381</ele>
        <time>2012-01-25T15:53:19Z</time>
      </trkpt>
      <trkpt lat="45.65783" lon="3.16225">
        <ele>381</ele>
        <time>2012-01-25T15:53:20Z</time>
      </trkpt>
      <trkpt lat="45.65788" lon="3.16208">
        <ele>382</ele>
        <time>2012-01-25T15:53:21Z</time>
      </trkpt>
      <trkpt lat="45.65793" lon="3.16191">
        <ele>382</ele>
        <time>2012-01-25T15:53:22Z</time>
      </trkpt>
      <trkpt lat="45.65798" lon="3.16172">
        <ele>383</ele>
        <time>2012-01-25T15:53:23Z</time>
      </trkpt>
      <trkpt lat="45.65804" lon="3.16153">
        <ele>383</ele>
        <time>2012-01-25T15:53:24Z</time>
      </trkpt>
      <trkpt lat="45.6581" lon="3.16134">
        <ele>384</ele>
        <time>2012-01-25T15:53:25Z</time>
      </trkpt>
      <trkpt lat="45.65815" lon="3.16114">
        <ele>384</ele>
        <time>2012-01-25T15:53:26Z</time>
      </trkpt>
      <trkpt lat="45.65821" lon="3.16094">
        <ele>385</ele>
        <time>2012-01-25T15:53:27Z</time>
      </trkpt>
      <trkpt lat="45.65827" lon="3.16073">
        <ele>386</ele>
        <time>2012-01-25T15:53:28Z</time>
      </trkpt>
      <trkpt lat="45.65832" lon="3.16052">
        <ele>387</ele>
        <time>2012-01-25T15:53:29Z</time>
      </trkpt>
      <trkpt lat="45.65837" lon="3.16031">
        <ele>388</ele>
        <time>2012-01-25T15:53:30Z</time>
      </trkpt>
      <trkpt lat="45.65843" lon="3.1601">
        <ele>389</ele>
        <time>2012-01-25T15:53:31Z</time>
      </trkpt>
      <trkpt lat="45.65848" lon="3.15988">
        <ele>389</ele>
        <time>2012-01-25T15:53:32Z</time>
      </trkpt>
      <trkpt lat="45.65853" lon="3.15967">
        <ele>390</ele>
        <time>2012-01-25T15:53:33Z</time>
      </trkpt>
      <trkpt lat="45.65858" lon="3.15946">
        <ele>391</ele>
        <time>2012-01-25T15:53:34Z</time>
      </trkpt>
      <trkpt lat="45.65864" lon="3.15925">
        <ele>391</ele>
        <time>2012-01-25T15:53:35Z</time>
      </trkpt>
      <trkpt lat="45.65869" lon="3.15906">
        <ele>392</ele>
        <time>2012-01-25T15:53:36Z</time>
      </trkpt>
      <trkpt lat="45.65875" lon="3.15886">
        <ele>392</ele>
        <time>2012-01-25T15:53:37Z</time>
      </trkpt>
      <trkpt lat="45.6588" lon="3.15867">
        <ele>393</ele>
        <time>2012-01-25T15:53:38Z</time>
      </trkpt>
      <trkpt lat="45.65886" lon="3.15848">
        <ele>393</ele>
        <time>2012-01-25T15:53:39Z</time>
      </trkpt>
      <trkpt lat="45.65892" lon="3.1583">
        <ele>393</ele>
        <time>2012-01-25T15:53:40Z</time>
      </trkpt>
      <trkpt lat="45.65898" lon="3.15812">
        <ele>393</ele>
        <time>2012-01-25T15:53:41Z</time>
      </trkpt>
      <trkpt lat="45.65904" lon="3.15794">
        <ele>394</ele>
        <time>2012-01-25T15:53:42Z</time>
      </trkpt>
      <trkpt lat="45.6591" lon="3.15776">
        <ele>394</ele>
        <time>2012-01-25T15:53:43Z</time>
      </trkpt>
      <trkpt lat="45.65915" lon="3.15757">
        <ele>394</ele>
        <time>2012-01-25T15:53:44Z</time>
      </trkpt>
      <trkpt lat="45.6592" lon="3.15737">
        <ele>394</ele>
        <time>2012-01-25T15:53:45Z</time>
      </trkpt>
      <trkpt lat="45.65925" lon="3.15717">
        <ele>393</ele>
        <time>2012-01-25T15:53:46Z</time>
      </trkpt>
      <trkpt lat="45.65929" lon="3.15696">
        <ele>393</ele>
        <time>2012-01-25T15:53:47Z</time>
      </trkpt>
      <trkpt lat="45.65933" lon="3.15676">
        <ele>393</ele>
        <time>2012-01-25T15:53:48Z</time>
      </trkpt>
      <trkpt lat="45.65937" lon="3.15658">
        <ele>393</ele>
        <time>2012-01-25T15:53:49Z</time>
      </trkpt>
      <trkpt lat="45.6594" lon="3.15642">
        <ele>393</ele>
        <time>2012-01-25T15:53:50Z</time>
      </trkpt>
      <trkpt lat="45.65942" lon="3.15628">
        <ele>393</ele>
        <time>2012-01-25T15:53:51Z</time>
      </trkpt>
      <trkpt lat="45.65946" lon="3.15615">
        <ele>394</ele>
        <time>2012-01-25T15:53:52Z</time>
      </trkpt>
      <trkpt lat="45.6595" lon="3.15603">
        <ele>394</ele>
        <time>2012-01-25T15:53:53Z</time>
      </trkpt>
      <trkpt lat="45.65957" lon="3.1559">
        <ele>394</ele>
        <time>2012-01-25T15:53:54Z</time>
      </trkpt>
      <trkpt lat="45.65964" lon="3.15577">
        <ele>394</ele>
        <time>2012-01-25T15:53:55Z</time>
      </trkpt>
      <trkpt lat="45.65971" lon="3.15563">
        <ele>395</ele>
        <time>2012-01-25T15:53:56Z</time>
      </trkpt>
      <trkpt lat="45.65979" lon="3.15548">
        <ele>395</ele>
        <time>2012-01-25T15:53:57Z</time>
      </trkpt>
      <trkpt lat="45.65988" lon="3.15531">
        <ele>396</ele>
        <time>2012-01-25T15:53:58Z</time>
      </trkpt>
      <trkpt lat="45.65997" lon="3.15514">
        <ele>396</ele>
        <time>2012-01-25T15:53:59Z</time>
      </trkpt>
      <trkpt lat="45.66008" lon="3.15496">
        <ele>397</ele>
        <time>2012-01-25T15:54:00Z</time>
      </trkpt>
      <trkpt lat="45.66018" lon="3.15477">
        <ele>397</ele>
        <time>2012-01-25T15:54:01Z</time>
      </trkpt>
      <trkpt lat="45.66028" lon="3.15458">
        <ele>397</ele>
        <time>2012-01-25T15:54:02Z</time>
      </trkpt>
      <trkpt lat="45.66037" lon="3.1544">
        <ele>397</ele>
        <time>2012-01-25T15:54:03Z</time>
      </trkpt>
      <trkpt lat="45.66046" lon="3.15423">
        <ele>397</ele>
        <time>2012-01-25T15:54:04Z</time>
      </trkpt>
      <trkpt lat="45.66055" lon="3.15406">
        <ele>396</ele>
        <time>2012-01-25T15:54:05Z</time>
      </trkpt>
      <trkpt lat="45.66064" lon="3.15389">
        <ele>396</ele>
        <time>2012-01-25T15:54:06Z</time>
      </trkpt>
      <trkpt lat="45.66072" lon="3.15372">
        <ele>395</ele>
        <time>2012-01-25T15:54:07Z</time>
      </trkpt>
      <trkpt lat="45.66081" lon="3.15355">
        <ele>395</ele>
        <time>2012-01-25T15:54:08Z</time>
      </trkpt>
      <trkpt lat="45.6609" lon="3.15338">
        <ele>394</ele>
        <time>2012-01-25T15:54:09Z</time>
      </trkpt>
      <trkpt lat="45.661" lon="3.1532">
        <ele>393</ele>
        <time>2012-01-25T15:54:10Z</time>
      </trkpt>
      <trkpt lat="45.6611" lon="3.15301">
        <ele>393</ele>
        <time>2012-01-25T15:54:11Z</time>
      </trkpt>
      <trkpt lat="45.6612" lon="3.15282">
        <ele>393</ele>
        <time>2012-01-25T15:54:12Z</time>
      </trkpt>
      <trkpt lat="45.66129" lon="3.15265">
        <ele>392</ele>
        <time>2012-01-25T15:54:13Z</time>
      </trkpt>
      <trkpt lat="45.66138" lon="3.15249">
        <ele>392</ele>
        <time>2012-01-25T15:54:14Z</time>
      </trkpt>
      <trkpt lat="45.66146" lon="3.15234">
        <ele>391</ele>
        <time>2012-01-25T15:54:15Z</time>
      </trkpt>
      <trkpt lat="45.66156" lon="3.1522">
        <ele>391</ele>
        <time>2012-01-25T15:54:16Z</time>
      </trkpt>
      <trkpt lat="45.66164" lon="3.15207">
        <ele>390</ele>
        <time>2012-01-25T15:54:17Z</time>
      </trkpt>
      <trkpt lat="45.66173" lon="3.15195">
        <ele>390</ele>
        <time>2012-01-25T15:54:18Z</time>
      </trkpt>
      <trkpt lat="45.66181" lon="3.15181">
        <ele>390</ele>
        <time>2012-01-25T15:54:19Z</time>
      </trkpt>
      <trkpt lat="45.66188" lon="3.15166">
        <ele>389</ele>
        <time>2012-01-25T15:54:20Z</time>
      </trkpt>
      <trkpt lat="45.66197" lon="3.15151">
        <ele>389</ele>
        <time>2012-01-25T15:54:21Z</time>
      </trkpt>
      <trkpt lat="45.66205" lon="3.15135">
        <ele>388</ele>
        <time>2012-01-25T15:54:22Z</time>
      </trkpt>
      <trkpt lat="45.66213" lon="3.1512">
        <ele>388</ele>
        <time>2012-01-25T15:54:23Z</time>
      </trkpt>
      <trkpt lat="45.66221" lon="3.15105">
        <ele>387</ele>
        <time>2012-01-25T15:54:24Z</time>
      </trkpt>
      <trkpt lat="45.66228" lon="3.15091">
        <ele>387</ele>
        <time>2012-01-25T15:54:25Z</time>
      </trkpt>
      <trkpt lat="45.66235" lon="3.15078">
        <ele>386</ele>
        <time>2012-01-25T15:54:26Z</time>
      </trkpt>
      <trkpt lat="45.6624" lon="3.15067">
        <ele>385</ele>
        <time>2012-01-25T15:54:27Z</time>
      </trkpt>
      <trkpt lat="45.66248" lon="3.15051">
        <ele>385</ele>
        <time>2012-01-25T15:54:29Z</time>
      </trkpt>
      <trkpt lat="45.66257" lon="3.15048">
        <ele>384</ele>
        <time>2012-01-25T15:54:31Z</time>
      </trkpt>
      <trkpt lat="45.66268" lon="3.15058">
        <ele>383</ele>
        <time>2012-01-25T15:54:33Z</time>
      </trkpt>
      <trkpt lat="45.66281" lon="3.15077">
        <ele>381</ele>
        <time>2012-01-25T15:54:35Z</time>
      </trkpt>
      <trkpt lat="45.66287" lon="3.15088">
        <ele>380</ele>
        <time>2012-01-25T15:54:36Z</time>
      </trkpt>
      <trkpt lat="45.66292" lon="3.151">
        <ele>380</ele>
        <time>2012-01-25T15:54:37Z</time>
      </trkpt>
      <trkpt lat="45.66299" lon="3.15117">
        <ele>378</ele>
        <time>2012-01-25T15:54:39Z</time>
      </trkpt>
      <trkpt lat="45.66306" lon="3.15129">
        <ele>377</ele>
        <time>2012-01-25T15:54:41Z</time>
      </trkpt>
      <trkpt lat="45.66313" lon="3.1515">
        <ele>376</ele>
        <time>2012-01-25T15:54:43Z</time>
      </trkpt>
      <trkpt lat="45.66315" lon="3.15165">
        <ele>375</ele>
        <time>2012-01-25T15:54:44Z</time>
      </trkpt>
      <trkpt lat="45.66317" lon="3.15182">
        <ele>375</ele>
        <time>2012-01-25T15:54:45Z</time>
      </trkpt>
      <trkpt lat="45.6632" lon="3.15203">
        <ele>374</ele>
        <time>2012-01-25T15:54:46Z</time>
      </trkpt>
      <trkpt lat="45.66322" lon="3.15227">
        <ele>373</ele>
        <time>2012-01-25T15:54:47Z</time>
      </trkpt>
      <trkpt lat="45.66325" lon="3.15251">
        <ele>373</ele>
        <time>2012-01-25T15:54:48Z</time>
      </trkpt>
      <trkpt lat="45.66329" lon="3.15276">
        <ele>373</ele>
        <time>2012-01-25T15:54:49Z</time>
      </trkpt>
      <trkpt lat="45.66332" lon="3.15299">
        <ele>372</ele>
        <time>2012-01-25T15:54:50Z</time>
      </trkpt>
      <trkpt lat="45.66337" lon="3.15321">
        <ele>372</ele>
        <time>2012-01-25T15:54:51Z</time>
      </trkpt>
      <trkpt lat="45.66344" lon="3.15341">
        <ele>371</ele>
        <time>2012-01-25T15:54:52Z</time>
      </trkpt>
      <trkpt lat="45.66352" lon="3.15359">
        <ele>370</ele>
        <time>2012-01-25T15:54:53Z</time>
      </trkpt>
      <trkpt lat="45.6636" lon="3.15374">
        <ele>370</ele>
        <time>2012-01-25T15:54:54Z</time>
      </trkpt>
      <trkpt lat="45.66368" lon="3.15389">
        <ele>369</ele>
        <time>2012-01-25T15:54:55Z</time>
      </trkpt>
      <trkpt lat="45.66376" lon="3.15403">
        <ele>369</ele>
        <time>2012-01-25T15:54:56Z</time>
      </trkpt>
      <trkpt lat="45.66382" lon="3.15415">
        <ele>369</ele>
        <time>2012-01-25T15:54:57Z</time>
      </trkpt>
      <trkpt lat="45.66393" lon="3.15429">
        <ele>368</ele>
        <time>2012-01-25T15:54:59Z</time>
      </trkpt>
      <trkpt lat="45.66408" lon="3.15431">
        <ele>368</ele>
        <time>2012-01-25T15:55:01Z</time>
      </trkpt>
      <trkpt lat="45.66429" lon="3.1543">
        <ele>367</ele>
        <time>2012-01-25T15:55:03Z</time>
      </trkpt>
      <trkpt lat="45.66441" lon="3.1543">
        <ele>367</ele>
        <time>2012-01-25T15:55:04Z</time>
      </trkpt>
      <trkpt lat="45.66453" lon="3.1543">
        <ele>367</ele>
        <time>2012-01-25T15:55:05Z</time>
      </trkpt>
      <trkpt lat="45.66463" lon="3.15431">
        <ele>367</ele>
        <time>2012-01-25T15:55:06Z</time>
      </trkpt>
      <trkpt lat="45.66472" lon="3.15431">
        <ele>367</ele>
        <time>2012-01-25T15:55:07Z</time>
      </trkpt>
      <trkpt lat="45.66485" lon="3.15428">
        <ele>366</ele>
        <time>2012-01-25T15:55:09Z</time>
      </trkpt>
      <trkpt lat="45.66495" lon="3.15415">
        <ele>366</ele>
        <time>2012-01-25T15:55:11Z</time>
      </trkpt>
      <trkpt lat="45.66501" lon="3.15395">
        <ele>366</ele>
        <time>2012-01-25T15:55:13Z</time>
      </trkpt>
      <trkpt lat="45.66505" lon="3.15372">
        <ele>367</ele>
        <time>2012-01-25T15:55:15Z</time>
      </trkpt>
      <trkpt lat="45.66507" lon="3.15349">
        <ele>367</ele>
        <time>2012-01-25T15:55:17Z</time>
      </trkpt>
      <trkpt lat="45.66507" lon="3.15319">
        <ele>367</ele>
        <time>2012-01-25T15:55:19Z</time>
      </trkpt>
      <trkpt lat="45.66507" lon="3.15302">
        <ele>367</ele>
        <time>2012-01-25T15:55:20Z</time>
      </trkpt>
      <trkpt lat="45.66506" lon="3.15283">
        <ele>367</ele>
        <time>2012-01-25T15:55:21Z</time>
      </trkpt>
      <trkpt lat="45.66505" lon="3.15263">
        <ele>367</ele>
        <time>2012-01-25T15:55:22Z</time>
      </trkpt>
      <trkpt lat="45.66505" lon="3.15242">
        <ele>367</ele>
        <time>2012-01-25T15:55:23Z</time>
      </trkpt>
      <trkpt lat="45.66503" lon="3.15221">
        <ele>367</ele>
        <time>2012-01-25T15:55:24Z</time>
      </trkpt>
      <trkpt lat="45.66502" lon="3.15199">
        <ele>367</ele>
        <time>2012-01-25T15:55:25Z</time>
      </trkpt>
      <trkpt lat="45.665" lon="3.15177">
        <ele>367</ele>
        <time>2012-01-25T15:55:26Z</time>
      </trkpt>
      <trkpt lat="45.665" lon="3.15158">
        <ele>367</ele>
        <time>2012-01-25T15:55:27Z</time>
      </trkpt>
      <trkpt lat="45.66499" lon="3.1514">
        <ele>367</ele>
        <time>2012-01-25T15:55:28Z</time>
      </trkpt>
      <trkpt lat="45.66498" lon="3.15125">
        <ele>367</ele>
        <time>2012-01-25T15:55:29Z</time>
      </trkpt>
      <trkpt lat="45.66497" lon="3.15111">
        <ele>367</ele>
        <time>2012-01-25T15:55:30Z</time>
      </trkpt>
      <trkpt lat="45.66494" lon="3.15087">
        <ele>367</ele>
        <time>2012-01-25T15:55:32Z</time>
      </trkpt>
      <trkpt lat="45.66492" lon="3.15071">
        <ele>367</ele>
        <time>2012-01-25T15:55:34Z</time>
      </trkpt>
      <trkpt lat="45.66487" lon="3.15052">
        <ele>367</ele>
        <time>2012-01-25T15:55:36Z</time>
      </trkpt>
      <trkpt lat="45.66478" lon="3.15027">
        <ele>367</ele>
        <time>2012-01-25T15:55:38Z</time>
      </trkpt>
      <trkpt lat="45.66473" lon="3.15014">
        <ele>368</ele>
        <time>2012-01-25T15:55:39Z</time>
      </trkpt>
      <trkpt lat="45.66468" lon="3.15001">
        <ele>368</ele>
        <time>2012-01-25T15:55:40Z</time>
      </trkpt>
      <trkpt lat="45.66464" lon="3.14989">
        <ele>368</ele>
        <time>2012-01-25T15:55:41Z</time>
      </trkpt>
      <trkpt lat="45.66459" lon="3.14969">
        <ele>368</ele>
        <time>2012-01-25T15:55:43Z</time>
      </trkpt>
      <trkpt lat="45.66462" lon="3.14955">
        <ele>368</ele>
        <time>2012-01-25T15:55:45Z</time>
      </trkpt>
      <trkpt lat="45.66479" lon="3.14956">
        <ele>367</ele>
        <time>2012-01-25T15:55:47Z</time>
      </trkpt>
      <trkpt lat="45.66497" lon="3.14953">
        <ele>367</ele>
        <time>2012-01-25T15:55:49Z</time>
      </trkpt>
      <trkpt lat="45.66508" lon="3.14952">
        <ele>367</ele>
        <time>2012-01-25T15:55:50Z</time>
      </trkpt>
      <trkpt lat="45.66519" lon="3.1495">
        <ele>367</ele>
        <time>2012-01-25T15:55:51Z</time>
      </trkpt>
      <trkpt lat="45.66529" lon="3.14947">
        <ele>367</ele>
        <time>2012-01-25T15:55:52Z</time>
      </trkpt>
      <trkpt lat="45.66539" lon="3.14946">
        <ele>367</ele>
        <time>2012-01-25T15:55:53Z</time>
      </trkpt>
      <trkpt lat="45.66551" lon="3.14945">
        <ele>367</ele>
        <time>2012-01-25T15:55:55Z</time>
      </trkpt>
      <trkpt lat="45.66557" lon="3.14941">
        <ele>367</ele>
        <time>2012-01-25T15:55:58Z</time>
      </trkpt>
      <trkpt lat="45.66563" lon="3.14952">
        <ele>367</ele>
        <time>2012-01-25T15:56:01Z</time>
      </trkpt>
      <trkpt lat="45.66564" lon="3.14962">
        <ele>367</ele>
        <time>2012-01-25T15:56:34Z</time>
      </trkpt>
      <trkpt lat="45.66569" lon="3.14985">
        <ele>366</ele>
        <time>2012-01-25T15:56:37Z</time>
      </trkpt>
      <trkpt lat="45.66568" lon="3.15012">
        <ele>366</ele>
        <time>2012-01-25T15:56:39Z</time>
      </trkpt>
      <trkpt lat="45.66565" lon="3.15027">
        <ele>367</ele>
        <time>2012-01-25T15:56:40Z</time>
      </trkpt>
      <trkpt lat="45.66562" lon="3.15044">
        <ele>367</ele>
        <time>2012-01-25T15:56:41Z</time>
      </trkpt>
      <trkpt lat="45.66559" lon="3.1506">
        <ele>366</ele>
        <time>2012-01-25T15:56:42Z</time>
      </trkpt>
      <trkpt lat="45.66557" lon="3.15076">
        <ele>366</ele>
        <time>2012-01-25T15:56:43Z</time>
      </trkpt>
      <trkpt lat="45.66555" lon="3.15092">
        <ele>366</ele>
        <time>2012-01-25T15:56:44Z</time>
      </trkpt>
      <trkpt lat="45.66554" lon="3.15107">
        <ele>366</ele>
        <time>2012-01-25T15:56:45Z</time>
      </trkpt>
      <trkpt lat="45.66552" lon="3.15122">
        <ele>366</ele>
        <time>2012-01-25T15:56:46Z</time>
      </trkpt>
      <trkpt lat="45.6655" lon="3.15135">
        <ele>366</ele>
        <time>2012-01-25T15:56:47Z</time>
      </trkpt>
      <trkpt lat="45.66551" lon="3.15161">
        <ele>366</ele>
        <time>2012-01-25T15:56:49Z</time>
      </trkpt>
      <trkpt lat="45.66552" lon="3.15175">
        <ele>366</ele>
        <time>2012-01-25T15:56:50Z</time>
      </trkpt>
      <trkpt lat="45.66553" lon="3.1519">
        <ele>366</ele>
        <time>2012-01-25T15:56:51Z</time>
      </trkpt>
      <trkpt lat="45.66553" lon="3.15206">
        <ele>366</ele>
        <time>2012-01-25T15:56:52Z</time>
      </trkpt>
      <trkpt lat="45.66554" lon="3.15222">
        <ele>366</ele>
        <time>2012-01-25T15:56:53Z</time>
      </trkpt>
      <trkpt lat="45.66556" lon="3.15238">
        <ele>366</ele>
        <time>2012-01-25T15:56:54Z</time>
      </trkpt>
      <trkpt lat="45.66558" lon="3.15253">
        <ele>366</ele>
        <time>2012-01-25T15:56:55Z</time>
      </trkpt>
      <trkpt lat="45.6656" lon="3.15268">
        <ele>366</ele>
        <time>2012-01-25T15:56:56Z</time>
      </trkpt>
      <trkpt lat="45.66561" lon="3.15283">
        <ele>366</ele>
        <time>2012-01-25T15:56:57Z</time>
      </trkpt>
      <trkpt lat="45.66561" lon="3.15306">
        <ele>366</ele>
        <time>2012-01-25T15:56:59Z</time>
      </trkpt>
      <trkpt lat="45.66566" lon="3.15326">
        <ele>365</ele>
        <time>2012-01-25T15:57:01Z</time>
      </trkpt>
      <trkpt lat="45.66574" lon="3.15344">
        <ele>365</ele>
        <time>2012-01-25T15:57:03Z</time>
      </trkpt>
      <trkpt lat="45.66577" lon="3.15362">
        <ele>365</ele>
        <time>2012-01-25T15:57:05Z</time>
      </trkpt>
      <trkpt lat="45.66575" lon="3.15377">
        <ele>365</ele>
        <time>2012-01-25T15:57:07Z</time>
      </trkpt>
      <trkpt lat="45.6657" lon="3.15392">
        <ele>365</ele>
        <time>2012-01-25T15:57:09Z</time>
      </trkpt>
      <trkpt lat="45.66566" lon="3.15409">
        <ele>365</ele>
        <time>2012-01-25T15:57:11Z</time>
      </trkpt>
      <trkpt lat="45.66568" lon="3.15425">
        <ele>365</ele>
        <time>2012-01-25T15:57:13Z</time>
      </trkpt>
      <trkpt lat="45.66577" lon="3.15438">
        <ele>365</ele>
        <time>2012-01-25T15:57:15Z</time>
      </trkpt>
      <trkpt lat="45.66589" lon="3.15454">
        <ele>365</ele>
        <time>2012-01-25T15:57:17Z</time>
      </trkpt>
      <trkpt lat="45.66599" lon="3.15471">
        <ele>365</ele>
        <time>2012-01-25T15:57:19Z</time>
      </trkpt>
      <trkpt lat="45.66611" lon="3.15486">
        <ele>364</ele>
        <time>2012-01-25T15:57:21Z</time>
      </trkpt>
      <trkpt lat="45.66626" lon="3.15501">
        <ele>364</ele>
        <time>2012-01-25T15:57:23Z</time>
      </trkpt>
      <trkpt lat="45.66637" lon="3.15519">
        <ele>364</ele>
        <time>2012-01-25T15:57:25Z</time>
      </trkpt>
      <trkpt lat="45.6664" lon="3.15543">
        <ele>364</ele>
        <time>2012-01-25T15:57:27Z</time>
      </trkpt>
      <trkpt lat="45.66638" lon="3.15558">
        <ele>364</ele>
        <time>2012-01-25T15:57:28Z</time>
      </trkpt>
      <trkpt lat="45.66636" lon="3.15573">
        <ele>364</ele>
        <time>2012-01-25T15:57:29Z</time>
      </trkpt>
      <trkpt lat="45.66634" lon="3.15586">
        <ele>363</ele>
        <time>2012-01-25T15:57:30Z</time>
      </trkpt>
      <trkpt lat="45.66633" lon="3.15599">
        <ele>363</ele>
        <time>2012-01-25T15:57:31Z</time>
      </trkpt>
      <trkpt lat="45.66633" lon="3.15622">
        <ele>363</ele>
        <time>2012-01-25T15:57:33Z</time>
      </trkpt>
      <trkpt lat="45.66638" lon="3.15636">
        <ele>363</ele>
        <time>2012-01-25T15:57:35Z</time>
      </trkpt>
      <trkpt lat="45.66648" lon="3.15639">
        <ele>363</ele>
        <time>2012-01-25T15:57:37Z</time>
      </trkpt>
      <trkpt lat="45.66662" lon="3.15631">
        <ele>363</ele>
        <time>2012-01-25T15:57:39Z</time>
      </trkpt>
      <trkpt lat="45.6668" lon="3.15625">
        <ele>363</ele>
        <time>2012-01-25T15:57:41Z</time>
      </trkpt>
      <trkpt lat="45.66696" lon="3.15631">
        <ele>364</ele>
        <time>2012-01-25T15:57:43Z</time>
      </trkpt>
      <trkpt lat="45.66709" lon="3.15643">
        <ele>365</ele>
        <time>2012-01-25T15:57:45Z</time>
      </trkpt>
      <trkpt lat="45.66721" lon="3.15656">
        <ele>365</ele>
        <time>2012-01-25T15:57:47Z</time>
      </trkpt>
      <trkpt lat="45.66732" lon="3.1567">
        <ele>366</ele>
        <time>2012-01-25T15:57:49Z</time>
      </trkpt>
      <trkpt lat="45.66741" lon="3.15683">
        <ele>367</ele>
        <time>2012-01-25T15:57:51Z</time>
      </trkpt>
      <trkpt lat="45.66748" lon="3.15691">
        <ele>367</ele>
        <time>2012-01-25T15:57:53Z</time>
      </trkpt>
      <trkpt lat="45.66757" lon="3.15692">
        <ele>368</ele>
        <time>2012-01-25T15:57:57Z</time>
      </trkpt>
      <trkpt lat="45.66757" lon="3.15691">
        <ele>368</ele>
        <time>2012-01-25T15:58:02Z</time>
      </trkpt>
    </trkseg>
  </trk>
</gpx>